Time,TemperatureF,DewpointF,PressureIn,WindDirection,WindDirectionDegrees,WindSpeedMPH,WindSpeedGustMPH,Humidity,HourlyPrecipIn,Conditions,Clouds,dailyrainin,SolarRadiationWatts/m^2,SoftwareType,DateUTC
2013-04-23 00:00:00,48.5,42.9,29.75,WSW,248,6.0,11.0,81,0.00,,,0.00,0,MyOwnSoftware,2013-04-22 23:00:00,
2013-04-23 00:01:00,48.5,42.9,29.75,SW,225,4.0,8.0,81,0.00,,,0.00,0,MyOwnSoftware,2013-04-22 23:01:00,
2013-04-23 00:02:00,48.5,43.0,29.75,SSE,168,8.0,-999.0,82,-99.99,,,0.00,0,weatherlink.com 1.10,2013-04-22 23:02:00,
2013-04-23 00:03:00,48.5,43.3,29.75,SW,225,6.0,11.0,82,0.00,,,0.00,0,MyOwnSoftware,2013-04-22 23:03:00,
2013-04-23 00:04:00,48.5,43.3,29.75,WSW,248,4.0,7.0,82,0.00,,,0.00,0,MyOwnSoftware,2013-04-22 23:04:00,
2013-04-23 00:05:00,48.5,43.3,29.75,SW,225,6.0,14.0,82,0.00,,,0.00,0,MyOwnSoftware,2013-04-22 23:05:00,
2013-04-23 00:06:00,48.5,43.3,29.75,SW,225,5.0,10.0,82,0.00,,,0.00,0,MyOwnSoftware,2013-04-22 23:06:00,
2013-04-23 00:07:00,48.5,43.3,29.75,SSW,202,8.0,17.0,82,0.00,,,0.00,0,MyOwnSoftware,2013-04-22 23:07:00,
2013-04-23 00:08:00,48.5,43.3,29.75,SW,225,6.0,11.0,82,0.00,,,0.00,0,MyOwnSoftware,2013-04-22 23:08:00,
2013-04-23 00:09:00,48.5,43.3,29.75,West,270,3.0,7.0,82,0.00,,,0.00,0,MyOwnSoftware,2013-04-22 23:09:00,
2013-04-23 00:10:00,48.5,43.6,29.75,SSW,202,8.0,12.0,83,0.00,,,0.00,0,MyOwnSoftware,2013-04-22 23:10:00,
2013-04-23 00:11:00,48.5,43.6,29.75,SW,225,6.0,14.0,83,0.00,,,0.00,0,MyOwnSoftware,2013-04-22 23:11:00,
2013-04-23 00:12:00,48.3,43.4,29.75,SW,225,6.0,14.0,83,0.00,,,0.00,0,MyOwnSoftware,2013-04-22 23:12:00,
2013-04-23 00:13:00,48.3,43.4,29.75,SW,225,5.0,10.0,83,0.00,,,0.00,0,MyOwnSoftware,2013-04-22 23:13:00,
2013-04-23 00:14:00,48.3,43.4,29.75,SE,135,4.0,8.0,83,0.00,,,0.00,0,MyOwnSoftware,2013-04-22 23:14:00,
2013-04-23 00:15:00,48.3,43.4,29.76,SSW,202,4.0,7.0,83,0.00,,,0.00,0,MyOwnSoftware,2013-04-22 23:15:00,
2013-04-23 00:16:00,48.5,43.3,29.75,SSW,202,8.0,17.0,82,0.00,,,0.00,0,MyOwnSoftware,2013-04-22 23:16:00,
2013-04-23 00:17:00,48.3,43.4,29.76,SW,225,7.0,12.0,83,0.00,,,0.00,0,MyOwnSoftware,2013-04-22 23:17:00,
2013-04-23 00:18:00,48.3,43.4,29.76,SSW,202,4.0,8.0,83,0.00,,,0.00,0,MyOwnSoftware,2013-04-22 23:18:00,
2013-04-23 00:19:00,48.3,43.4,29.76,WSW,248,5.0,7.0,83,0.00,,,0.00,0,MyOwnSoftware,2013-04-22 23:19:00,
2013-04-23 00:20:00,48.3,43.4,29.76,SSW,202,4.0,7.0,83,0.00,,,0.00,0,MyOwnSoftware,2013-04-22 23:20:00,
2013-04-23 00:21:00,48.3,43.4,29.76,SSE,158,4.0,8.0,83,0.00,,,0.00,0,MyOwnSoftware,2013-04-22 23:21:00,
2013-04-23 00:22:00,48.3,43.4,29.76,WSW,248,5.0,10.0,83,0.00,,,0.00,0,MyOwnSoftware,2013-04-22 23:22:00,
2013-04-23 00:23:00,48.2,43.3,29.76,South,180,4.0,8.0,83,0.00,,,0.00,0,MyOwnSoftware,2013-04-22 23:23:00,
2013-04-23 00:24:00,48.2,43.3,29.76,SSW,202,6.0,12.0,83,0.00,,,0.00,0,MyOwnSoftware,2013-04-22 23:24:00,
2013-04-23 00:25:00,48.2,43.3,29.76,SSE,158,4.0,13.0,83,0.00,,,0.00,0,MyOwnSoftware,2013-04-22 23:25:00,
2013-04-23 00:26:00,48.2,43.3,29.76,WSW,248,5.0,10.0,83,0.00,,,0.00,0,MyOwnSoftware,2013-04-22 23:26:00,
2013-04-23 00:27:00,48.2,43.3,29.76,SW,225,3.0,7.0,83,0.00,,,0.00,0,MyOwnSoftware,2013-04-22 23:27:00,
2013-04-23 00:28:00,48.2,43.3,29.76,SW,225,6.0,8.0,83,0.00,,,0.00,0,MyOwnSoftware,2013-04-22 23:28:00,
2013-04-23 00:29:00,48.3,43.4,29.76,SSW,202,6.0,11.0,83,0.00,,,0.00,0,MyOwnSoftware,2013-04-22 23:29:00,
2013-04-23 00:30:00,48.3,43.1,29.77,SSW,202,6.0,9.0,82,0.00,,,0.00,0,MyOwnSoftware,2013-04-22 23:30:00,
2013-04-23 00:31:00,48.3,43.1,29.77,SSW,202,6.0,11.0,82,0.00,,,0.00,0,MyOwnSoftware,2013-04-22 23:31:00,
2013-04-23 00:32:00,48.3,43.0,29.77,West,280,7.0,-999.0,82,-99.99,,,0.00,0,weatherlink.com 1.10,2013-04-22 23:32:00,
2013-04-23 00:33:00,48.3,43.1,29.77,SSW,202,6.0,12.0,82,0.00,,,0.00,0,MyOwnSoftware,2013-04-22 23:33:00,
2013-04-23 00:34:00,48.3,43.1,29.77,SW,225,7.0,11.0,82,0.00,,,0.00,0,MyOwnSoftware,2013-04-22 23:34:00,
2013-04-23 00:35:00,48.3,42.7,29.77,SW,225,5.0,10.0,81,0.00,,,0.00,0,MyOwnSoftware,2013-04-22 23:35:00,
2013-04-23 00:36:00,48.3,42.7,29.77,SW,225,7.0,13.0,81,0.00,,,0.00,0,MyOwnSoftware,2013-04-22 23:36:00,
2013-04-23 00:37:00,48.2,43.3,29.76,SW,225,6.0,8.0,83,0.00,,,0.00,0,MyOwnSoftware,2013-04-22 23:37:00,
2013-04-23 00:38:00,48.2,42.6,29.77,SSW,202,5.0,14.0,81,0.00,,,0.00,0,MyOwnSoftware,2013-04-22 23:38:00,
2013-04-23 00:39:00,48.2,42.6,29.77,SW,225,6.0,10.0,81,0.00,,,0.00,0,MyOwnSoftware,2013-04-22 23:39:00,
2013-04-23 00:40:00,48.2,42.6,29.77,South,180,6.0,11.0,81,0.00,,,0.00,0,MyOwnSoftware,2013-04-22 23:40:00,
2013-04-23 00:41:00,48.2,42.6,29.77,North,0,4.0,8.0,81,0.00,,,0.00,0,MyOwnSoftware,2013-04-22 23:41:00,
2013-04-23 00:42:00,48.2,42.6,29.77,North,0,7.0,16.0,81,0.00,,,0.00,0,MyOwnSoftware,2013-04-22 23:42:00,
2013-04-23 00:43:00,48.2,42.6,29.77,South,180,5.0,8.0,81,0.00,,,0.00,0,MyOwnSoftware,2013-04-22 23:43:00,
2013-04-23 00:44:00,48.2,42.6,29.77,SW,225,4.0,7.0,81,0.00,,,0.00,0,MyOwnSoftware,2013-04-22 23:44:00,
2013-04-23 00:45:00,48.2,42.6,29.77,SSW,202,7.0,13.0,81,0.00,,,0.00,0,MyOwnSoftware,2013-04-22 23:45:00,
2013-04-23 00:46:00,48.2,42.6,29.77,SSW,202,7.0,11.0,81,0.00,,,0.00,0,MyOwnSoftware,2013-04-22 23:46:00,
2013-04-23 00:47:00,48.0,42.5,29.77,SW,225,4.0,7.0,81,0.00,,,0.00,0,MyOwnSoftware,2013-04-22 23:47:00,
2013-04-23 00:48:00,48.0,42.5,29.77,SW,225,7.0,12.0,81,0.00,,,0.00,0,MyOwnSoftware,2013-04-22 23:48:00,
2013-04-23 00:49:00,48.0,42.5,29.77,NW,315,2.0,6.0,81,0.00,,,0.00,0,MyOwnSoftware,2013-04-22 23:49:00,
2013-04-23 00:50:00,48.0,42.8,29.77,WSW,248,7.0,10.0,82,0.00,,,0.00,0,MyOwnSoftware,2013-04-22 23:50:00,
2013-04-23 00:51:00,48.0,42.8,29.77,WSW,248,4.0,7.0,82,0.00,,,0.00,0,MyOwnSoftware,2013-04-22 23:51:00,
2013-04-23 00:52:00,48.0,42.8,29.77,WSW,248,5.0,10.0,82,0.00,,,0.00,0,MyOwnSoftware,2013-04-22 23:52:00,
2013-04-23 00:53:00,48.0,42.8,29.77,WSW,248,4.0,6.0,82,0.00,,,0.00,0,MyOwnSoftware,2013-04-22 23:53:00,
2013-04-23 00:54:00,48.0,42.8,29.77,WSW,248,7.0,13.0,82,0.00,,,0.00,0,MyOwnSoftware,2013-04-22 23:54:00,
2013-04-23 00:55:00,48.0,42.8,29.77,SW,225,7.0,12.0,82,0.00,,,0.00,0,MyOwnSoftware,2013-04-22 23:55:00,
2013-04-23 00:56:00,48.0,42.5,29.77,SW,225,4.0,7.0,81,0.00,,,0.00,0,MyOwnSoftware,2013-04-22 23:56:00,
2013-04-23 00:57:00,48.0,43.1,29.77,NW,315,4.0,11.0,83,0.00,,,0.00,0,MyOwnSoftware,2013-04-22 23:57:00,
2013-04-23 00:58:00,48.0,43.1,29.77,SW,225,3.0,7.0,83,0.00,,,0.00,0,MyOwnSoftware,2013-04-22 23:58:00,
2013-04-23 00:59:00,48.0,43.1,29.77,WSW,248,8.0,13.0,83,0.00,,,0.00,0,MyOwnSoftware,2013-04-22 23:59:00,
2013-04-23 01:00:00,48.0,43.1,29.77,SW,225,6.0,8.0,83,0.00,,,0.00,0,MyOwnSoftware,2013-04-23 00:00:00,
2013-04-23 01:01:00,48.0,43.1,29.77,WSW,248,4.0,10.0,83,0.00,,,0.00,0,MyOwnSoftware,2013-04-23 00:01:00,
2013-04-23 01:02:00,48.0,43.0,29.77,WNW,298,2.0,-999.0,84,-99.99,,,0.00,0,weatherlink.com 1.10,2013-04-23 00:02:00,
2013-04-23 01:03:00,48.0,43.4,29.77,WNW,292,6.0,11.0,84,0.00,,,0.00,0,MyOwnSoftware,2013-04-23 00:03:00,
2013-04-23 01:04:00,48.0,43.4,29.77,West,270,3.0,7.0,84,0.00,,,0.00,0,MyOwnSoftware,2013-04-23 00:04:00,
2013-04-23 01:05:00,48.0,43.4,29.77,West,270,4.0,8.0,84,0.00,,,0.00,0,MyOwnSoftware,2013-04-23 00:05:00,
2013-04-23 01:06:00,48.0,43.4,29.77,SSW,202,6.0,14.0,84,0.00,,,0.00,0,MyOwnSoftware,2013-04-23 00:06:00,
2013-04-23 01:07:00,48.0,43.7,29.77,WSW,248,5.0,12.0,85,0.00,,,0.00,0,MyOwnSoftware,2013-04-23 00:07:00,
2013-04-23 01:08:00,48.0,43.7,29.77,SW,225,5.0,11.0,85,0.00,,,0.00,0,MyOwnSoftware,2013-04-23 00:08:00,
2013-04-23 01:09:00,48.0,43.7,29.77,WSW,248,6.0,11.0,85,0.00,,,0.00,0,MyOwnSoftware,2013-04-23 00:09:00,
2013-04-23 01:10:00,47.9,43.6,29.77,South,180,4.0,8.0,85,0.00,,,0.00,0,MyOwnSoftware,2013-04-23 00:10:00,
2013-04-23 01:11:00,47.9,43.6,29.77,South,180,5.0,13.0,85,0.00,,,0.00,0,MyOwnSoftware,2013-04-23 00:11:00,
2013-04-23 01:12:00,47.9,43.6,29.77,SW,225,5.0,10.0,85,0.00,,,0.00,0,MyOwnSoftware,2013-04-23 00:12:00,
2013-04-23 01:13:00,47.9,43.6,29.77,SSW,202,7.0,12.0,85,0.00,,,0.00,0,MyOwnSoftware,2013-04-23 00:13:00,
2013-04-23 01:14:00,47.9,43.9,29.77,SSW,202,4.0,8.0,86,0.00,,,0.00,0,MyOwnSoftware,2013-04-23 00:14:00,
2013-04-23 01:15:00,47.7,43.7,29.77,West,270,3.0,4.0,86,0.00,,,0.00,0,MyOwnSoftware,2013-04-23 00:15:00,
2013-04-23 01:16:00,47.7,43.7,29.77,West,270,2.0,7.0,86,0.00,,,0.00,0,MyOwnSoftware,2013-04-23 00:16:00,
2013-04-23 01:17:00,48.0,43.7,29.77,SW,225,5.0,11.0,85,0.00,,,0.00,0,MyOwnSoftware,2013-04-23 00:17:00,
2013-04-23 01:18:00,47.7,43.7,29.77,SW,225,2.0,5.0,86,0.00,,,0.00,0,MyOwnSoftware,2013-04-23 00:18:00,
2013-04-23 01:19:00,47.6,43.9,29.77,SSW,202,6.0,12.0,87,0.00,,,0.00,0,MyOwnSoftware,2013-04-23 00:19:00,
2013-04-23 01:20:00,47.6,43.9,29.77,SSW,202,5.0,7.0,87,0.00,,,0.00,0,MyOwnSoftware,2013-04-23 00:20:00,
2013-04-23 01:21:00,47.6,43.9,29.77,SW,225,4.0,6.0,87,0.00,,,0.00,0,MyOwnSoftware,2013-04-23 00:21:00,
2013-04-23 01:22:00,47.6,43.9,29.77,WNW,292,2.0,5.0,87,0.00,,,0.00,0,MyOwnSoftware,2013-04-23 00:22:00,
2013-04-23 01:23:00,47.4,43.7,29.77,WSW,248,1.0,3.0,87,0.00,,,0.00,0,MyOwnSoftware,2013-04-23 00:23:00,
2013-04-23 01:24:00,47.4,44.0,29.77,SW,225,1.0,5.0,88,0.00,,,0.00,0,MyOwnSoftware,2013-04-23 00:24:00,
2013-04-23 01:25:00,47.4,44.0,29.77,WSW,248,2.0,5.0,88,0.00,,,0.00,0,MyOwnSoftware,2013-04-23 00:25:00,
2013-04-23 01:26:00,47.4,44.0,29.77,West,270,3.0,7.0,88,0.00,,,0.00,0,MyOwnSoftware,2013-04-23 00:26:00,
2013-04-23 01:27:00,47.4,44.0,29.77,SW,225,4.0,8.0,88,0.00,,,0.00,0,MyOwnSoftware,2013-04-23 00:27:00,
2013-04-23 01:28:00,47.3,43.9,29.77,SW,225,6.0,12.0,88,0.00,,,0.00,0,MyOwnSoftware,2013-04-23 00:28:00,
2013-04-23 01:29:00,47.3,43.9,29.77,South,180,6.0,11.0,88,0.00,,,0.00,0,MyOwnSoftware,2013-04-23 00:29:00,
2013-04-23 01:30:00,47.3,43.9,29.77,South,180,4.0,8.0,88,0.00,,,0.00,0,MyOwnSoftware,2013-04-23 00:30:00,
2013-04-23 01:31:00,47.3,43.9,29.77,West,270,3.0,8.0,88,0.00,,,0.00,0,MyOwnSoftware,2013-04-23 00:31:00,
2013-04-23 01:32:00,47.4,44.0,29.77,North,359,4.0,-999.0,88,-99.99,,,0.00,0,weatherlink.com 1.10,2013-04-23 00:32:00,
2013-04-23 01:33:00,47.4,44.0,29.77,WNW,292,6.0,14.0,88,0.00,,,0.00,0,MyOwnSoftware,2013-04-23 00:33:00,
2013-04-23 01:34:00,47.4,43.7,29.77,SSW,202,6.0,11.0,87,0.00,,,0.00,0,MyOwnSoftware,2013-04-23 00:34:00,
2013-04-23 01:35:00,47.4,43.7,29.77,West,270,4.0,7.0,87,0.00,,,0.00,0,MyOwnSoftware,2013-04-23 00:35:00,
2013-04-23 01:36:00,47.4,43.7,29.77,SSW,202,5.0,8.0,87,0.00,,,0.00,0,MyOwnSoftware,2013-04-23 00:36:00,
2013-04-23 01:37:00,47.4,43.7,29.77,SW,225,7.0,14.0,87,0.00,,,0.00,0,MyOwnSoftware,2013-04-23 00:37:00,
2013-04-23 01:38:00,47.3,43.9,29.77,South,180,6.0,11.0,88,0.00,,,0.00,0,MyOwnSoftware,2013-04-23 00:38:00,
2013-04-23 01:39:00,47.6,43.9,29.77,SSW,202,5.0,13.0,87,0.00,,,0.00,0,MyOwnSoftware,2013-04-23 00:39:00,
2013-04-23 01:40:00,47.6,43.6,29.77,WSW,248,8.0,14.0,86,0.00,,,0.00,0,MyOwnSoftware,2013-04-23 00:40:00,
2013-04-23 01:41:00,47.6,43.6,29.77,WSW,248,6.0,12.0,86,0.00,,,0.00,0,MyOwnSoftware,2013-04-23 00:41:00,
2013-04-23 01:42:00,47.6,43.6,29.77,SW,225,5.0,10.0,86,0.00,,,0.00,0,MyOwnSoftware,2013-04-23 00:42:00,
2013-04-23 01:43:00,47.6,43.6,29.77,SW,225,6.0,10.0,86,0.00,,,0.00,0,MyOwnSoftware,2013-04-23 00:43:00,
2013-04-23 01:44:00,47.7,43.7,29.77,West,270,5.0,7.0,86,0.00,,,0.00,0,MyOwnSoftware,2013-04-23 00:44:00,
2013-04-23 01:45:00,47.7,43.4,29.77,SW,225,3.0,10.0,85,0.00,,,0.00,0,MyOwnSoftware,2013-04-23 00:45:00,
2013-04-23 01:46:00,47.4,43.7,29.77,SW,225,7.0,14.0,87,0.00,,,0.00,0,MyOwnSoftware,2013-04-23 00:46:00,
2013-04-23 01:47:00,47.7,43.4,29.77,SW,225,4.0,14.0,85,0.00,,,0.00,0,MyOwnSoftware,2013-04-23 00:47:00,
2013-04-23 01:48:00,47.7,43.4,29.77,SE,135,5.0,11.0,85,0.00,,,0.00,0,MyOwnSoftware,2013-04-23 00:48:00,
2013-04-23 01:49:00,47.9,43.6,29.77,SSW,202,6.0,8.0,85,0.00,,,0.00,0,MyOwnSoftware,2013-04-23 00:49:00,
2013-04-23 01:50:00,47.9,43.6,29.77,SW,225,5.0,9.0,85,0.00,,,0.00,0,MyOwnSoftware,2013-04-23 00:50:00,
2013-04-23 01:51:00,47.9,43.6,29.77,SSW,202,5.0,11.0,85,0.00,,,0.00,0,MyOwnSoftware,2013-04-23 00:51:00,
2013-04-23 01:52:00,47.9,43.3,29.77,SW,225,6.0,8.0,84,0.00,,,0.00,0,MyOwnSoftware,2013-04-23 00:52:00,
2013-04-23 01:53:00,47.9,43.3,29.77,SW,225,5.0,7.0,84,0.00,,,0.00,0,MyOwnSoftware,2013-04-23 00:53:00,
2013-04-23 01:54:00,48.0,43.4,29.77,SW,225,4.0,7.0,84,0.00,,,0.00,0,MyOwnSoftware,2013-04-23 00:54:00,
2013-04-23 01:55:00,48.0,43.4,29.77,SSW,202,5.0,12.0,84,0.00,,,0.00,0,MyOwnSoftware,2013-04-23 00:55:00,
2013-04-23 01:56:00,47.7,43.4,29.77,SW,225,4.0,14.0,85,0.00,,,0.00,0,MyOwnSoftware,2013-04-23 00:56:00,
2013-04-23 01:57:00,48.0,43.4,29.77,SW,225,6.0,10.0,84,0.00,,,0.00,0,MyOwnSoftware,2013-04-23 00:57:00,
2013-04-23 01:58:00,48.0,43.4,29.77,SSW,202,7.0,11.0,84,0.00,,,0.00,0,MyOwnSoftware,2013-04-23 00:58:00,
2013-04-23 01:59:00,48.2,43.6,29.77,SW,225,7.0,12.0,84,0.00,,,0.00,0,MyOwnSoftware,2013-04-23 00:59:00,
2013-04-23 02:00:00,48.2,43.6,29.77,WSW,248,6.0,10.0,84,0.00,,,0.00,0,MyOwnSoftware,2013-04-23 01:00:00,
2013-04-23 02:01:00,48.2,43.6,29.77,SW,225,6.0,8.0,84,0.00,,,0.00,0,MyOwnSoftware,2013-04-23 01:01:00,
2013-04-23 02:02:00,48.2,44.0,29.77,West,277,4.0,-999.0,84,-99.99,,,0.00,0,weatherlink.com 1.10,2013-04-23 01:02:00,
2013-04-23 02:03:00,48.3,43.7,29.77,SSW,202,6.0,10.0,84,0.00,,,0.00,0,MyOwnSoftware,2013-04-23 01:03:00,
2013-04-23 02:04:00,48.3,43.7,29.77,SW,225,7.0,13.0,84,0.00,,,0.00,0,MyOwnSoftware,2013-04-23 01:04:00,
2013-04-23 02:05:00,48.3,43.4,29.77,SW,225,8.0,16.0,83,0.00,,,0.00,0,MyOwnSoftware,2013-04-23 01:05:00,
2013-04-23 02:06:00,48.3,43.4,29.77,SSW,202,5.0,10.0,83,0.00,,,0.00,0,MyOwnSoftware,2013-04-23 01:06:00,
2013-04-23 02:07:00,48.3,43.4,29.77,NW,315,4.0,8.0,83,0.00,,,0.00,0,MyOwnSoftware,2013-04-23 01:07:00,
2013-04-23 02:08:00,48.5,43.6,29.77,West,270,4.0,8.0,83,0.00,,,0.00,0,MyOwnSoftware,2013-04-23 01:08:00,
2013-04-23 02:09:00,48.5,43.6,29.77,SSW,202,4.0,8.0,83,0.00,,,0.00,0,MyOwnSoftware,2013-04-23 01:09:00,
2013-04-23 02:10:00,48.5,43.6,29.77,SW,225,4.0,7.0,83,0.00,,,0.00,0,MyOwnSoftware,2013-04-23 01:10:00,
2013-04-23 02:11:00,48.5,43.9,29.77,WSW,248,4.0,6.0,84,0.00,,,0.00,0,MyOwnSoftware,2013-04-23 01:11:00,
2013-04-23 02:12:00,48.5,43.9,29.77,West,270,5.0,11.0,84,0.00,,,0.00,0,MyOwnSoftware,2013-04-23 01:12:00,
2013-04-23 02:13:00,48.5,43.9,29.77,SW,225,4.0,10.0,84,0.00,,,0.00,0,MyOwnSoftware,2013-04-23 01:13:00,
2013-04-23 02:14:00,48.5,43.9,29.77,SW,225,9.0,18.0,84,0.00,,,0.00,0,MyOwnSoftware,2013-04-23 01:14:00,
2013-04-23 02:15:00,48.5,43.9,29.78,South,180,8.0,13.0,84,0.00,,,0.00,0,MyOwnSoftware,2013-04-23 01:15:00,
2013-04-23 02:16:00,48.3,43.4,29.77,NW,315,4.0,8.0,83,0.00,,,0.00,0,MyOwnSoftware,2013-04-23 01:16:00,
2013-04-23 02:17:00,48.5,43.9,29.78,SSW,202,6.0,12.0,84,0.00,,,0.00,0,MyOwnSoftware,2013-04-23 01:17:00,
2013-04-23 02:18:00,48.5,43.9,29.78,SSW,202,5.0,11.0,84,0.00,,,0.00,0,MyOwnSoftware,2013-04-23 01:18:00,
2013-04-23 02:19:00,48.5,43.9,29.78,West,270,5.0,10.0,84,0.00,,,0.00,0,MyOwnSoftware,2013-04-23 01:19:00,
2013-04-23 02:20:00,48.5,43.9,29.78,West,270,3.0,7.0,84,0.00,,,0.00,0,MyOwnSoftware,2013-04-23 01:20:00,
2013-04-23 02:21:00,48.5,43.9,29.78,SW,225,4.0,7.0,84,0.00,,,0.00,0,MyOwnSoftware,2013-04-23 01:21:00,
2013-04-23 02:22:00,48.5,43.9,29.78,SW,225,5.0,13.0,84,0.00,,,0.00,0,MyOwnSoftware,2013-04-23 01:22:00,
2013-04-23 02:23:00,48.5,43.9,29.78,SSW,202,7.0,12.0,84,0.00,,,0.00,0,MyOwnSoftware,2013-04-23 01:23:00,
2013-04-23 02:24:00,48.5,43.9,29.78,SSW,202,6.0,10.0,84,0.00,,,0.00,0,MyOwnSoftware,2013-04-23 01:24:00,
2013-04-23 02:25:00,48.5,43.9,29.78,SSW,202,7.0,13.0,84,0.00,,,0.00,0,MyOwnSoftware,2013-04-23 01:25:00,
2013-04-23 02:26:00,48.5,43.9,29.78,SW,225,5.0,11.0,84,0.00,,,0.00,0,MyOwnSoftware,2013-04-23 01:26:00,
2013-04-23 02:27:00,48.5,43.9,29.78,WSW,248,5.0,10.0,84,0.00,,,0.00,0,MyOwnSoftware,2013-04-23 01:27:00,
2013-04-23 02:28:00,48.5,43.9,29.78,SW,225,6.0,10.0,84,0.00,,,0.00,0,MyOwnSoftware,2013-04-23 01:28:00,
2013-04-23 02:29:00,48.3,43.7,29.78,SSW,202,6.0,11.0,84,0.00,,,0.00,0,MyOwnSoftware,2013-04-23 01:29:00,
2013-04-23 02:30:00,48.3,43.7,29.78,SSW,202,6.0,14.0,84,0.00,,,0.00,0,MyOwnSoftware,2013-04-23 01:30:00,
2013-04-23 02:31:00,48.3,43.7,29.78,SSW,202,4.0,10.0,84,0.00,,,0.00,0,MyOwnSoftware,2013-04-23 01:31:00,
2013-04-23 02:32:00,48.3,44.0,29.78,South,179,6.0,-999.0,84,-99.99,,,0.00,0,weatherlink.com 1.10,2013-04-23 01:32:00,
2013-04-23 02:33:00,48.3,43.7,29.78,SW,225,6.0,10.0,84,0.00,,,0.00,0,MyOwnSoftware,2013-04-23 01:33:00,
2013-04-23 02:34:00,48.3,43.7,29.78,WSW,248,5.0,8.0,84,0.00,,,0.00,0,MyOwnSoftware,2013-04-23 01:34:00,
2013-04-23 02:35:00,48.2,43.6,29.78,SW,225,5.0,16.0,84,0.00,,,0.00,0,MyOwnSoftware,2013-04-23 01:35:00,
2013-04-23 02:36:00,48.2,43.6,29.78,SW,225,4.0,8.0,84,0.00,,,0.00,0,MyOwnSoftware,2013-04-23 01:36:00,
2013-04-23 02:37:00,48.2,43.6,29.78,SW,225,8.0,12.0,84,0.00,,,0.00,0,MyOwnSoftware,2013-04-23 01:37:00,
2013-04-23 02:38:00,48.2,43.6,29.78,WNW,292,6.0,11.0,84,0.00,,,0.00,0,MyOwnSoftware,2013-04-23 01:38:00,
2013-04-23 02:39:00,48.2,43.6,29.78,West,270,6.0,11.0,84,0.00,,,0.00,0,MyOwnSoftware,2013-04-23 01:39:00,
2013-04-23 02:40:00,48.2,43.6,29.78,SSW,202,8.0,14.0,84,0.00,,,0.00,0,MyOwnSoftware,2013-04-23 01:40:00,
2013-04-23 02:41:00,48.2,43.6,29.78,SW,225,8.0,12.0,84,0.00,,,0.00,0,MyOwnSoftware,2013-04-23 01:41:00,
2013-04-23 02:42:00,48.0,43.4,29.78,SSW,202,8.0,14.0,84,0.00,,,0.00,0,MyOwnSoftware,2013-04-23 01:42:00,
2013-04-23 02:43:00,48.0,43.4,29.78,SSW,202,8.0,14.0,84,0.00,,,0.00,0,MyOwnSoftware,2013-04-23 01:43:00,
2013-04-23 02:44:00,48.0,43.4,29.78,SSW,202,6.0,12.0,84,0.00,,,0.00,0,MyOwnSoftware,2013-04-23 01:44:00,
2013-04-23 02:45:00,48.0,43.4,29.78,NW,315,4.0,8.0,84,0.00,,,0.00,0,MyOwnSoftware,2013-04-23 01:45:00,
2013-04-23 02:46:00,48.2,43.6,29.78,SW,225,8.0,12.0,84,0.00,,,0.00,0,MyOwnSoftware,2013-04-23 01:46:00,
2013-04-23 02:47:00,48.0,43.4,29.78,WNW,292,3.0,6.0,84,0.00,,,0.00,0,MyOwnSoftware,2013-04-23 01:47:00,
2013-04-23 02:48:00,48.0,43.7,29.78,SSW,202,8.0,12.0,85,0.00,,,0.00,0,MyOwnSoftware,2013-04-23 01:48:00,
2013-04-23 02:49:00,48.0,43.7,29.78,SW,225,6.0,11.0,85,0.00,,,0.00,0,MyOwnSoftware,2013-04-23 01:49:00,
2013-04-23 02:50:00,48.0,43.7,29.78,SW,225,7.0,13.0,85,0.00,,,0.00,0,MyOwnSoftware,2013-04-23 01:50:00,
2013-04-23 02:51:00,48.0,43.7,29.78,West,270,4.0,7.0,85,0.00,,,0.00,0,MyOwnSoftware,2013-04-23 01:51:00,
2013-04-23 02:52:00,48.0,43.7,29.78,South,180,4.0,7.0,85,0.00,,,0.00,0,MyOwnSoftware,2013-04-23 01:52:00,
2013-04-23 02:53:00,48.0,43.7,29.78,WNW,292,5.0,10.0,85,0.00,,,0.00,0,MyOwnSoftware,2013-04-23 01:53:00,
2013-04-23 02:54:00,47.9,43.6,29.78,SW,225,4.0,7.0,85,0.00,,,0.00,0,MyOwnSoftware,2013-04-23 01:54:00,
2013-04-23 02:55:00,47.9,43.6,29.78,SSW,202,7.0,10.0,85,0.00,,,0.00,0,MyOwnSoftware,2013-04-23 01:55:00,
2013-04-23 02:56:00,48.0,43.4,29.78,WNW,292,3.0,6.0,84,0.00,,,0.00,0,MyOwnSoftware,2013-04-23 01:56:00,
2013-04-23 02:57:00,47.9,43.6,29.78,West,270,5.0,10.0,85,0.00,,,0.00,0,MyOwnSoftware,2013-04-23 01:57:00,
2013-04-23 02:58:00,47.9,43.6,29.78,WSW,248,7.0,16.0,85,0.00,,,0.00,0,MyOwnSoftware,2013-04-23 01:58:00,
2013-04-23 02:59:00,47.9,43.6,29.78,WNW,292,7.0,12.0,85,0.00,,,0.00,0,MyOwnSoftware,2013-04-23 01:59:00,
2013-04-23 03:00:00,47.9,43.6,29.78,SSW,202,7.0,12.0,85,0.00,,,0.00,0,MyOwnSoftware,2013-04-23 02:00:00,
2013-04-23 03:01:00,47.7,43.4,29.78,SW,225,6.0,13.0,85,0.00,,,0.00,0,MyOwnSoftware,2013-04-23 02:01:00,
2013-04-23 03:02:00,47.7,43.0,29.78,West,275,4.0,-999.0,85,-99.99,,,0.00,0,weatherlink.com 1.10,2013-04-23 02:02:00,
2013-04-23 03:03:00,47.7,43.4,29.78,WSW,248,4.0,7.0,85,0.00,,,0.00,0,MyOwnSoftware,2013-04-23 02:03:00,
2013-04-23 03:04:00,47.7,43.4,29.78,WSW,248,4.0,7.0,85,0.00,,,0.00,0,MyOwnSoftware,2013-04-23 02:04:00,
2013-04-23 03:05:00,47.7,43.4,29.78,North,0,3.0,10.0,85,0.00,,,0.00,0,MyOwnSoftware,2013-04-23 02:05:00,
2013-04-23 03:06:00,47.7,43.4,29.78,SW,225,6.0,10.0,85,0.00,,,0.00,0,MyOwnSoftware,2013-04-23 02:06:00,
2013-04-23 03:07:00,47.7,43.4,29.78,West,270,3.0,6.0,85,0.00,,,0.00,0,MyOwnSoftware,2013-04-23 02:07:00,
2013-04-23 03:08:00,47.7,43.4,29.78,ENE,68,8.0,24.0,85,0.00,,,0.00,0,MyOwnSoftware,2013-04-23 02:08:00,
2013-04-23 03:09:00,47.7,43.1,29.78,SSW,202,7.0,16.0,84,0.00,,,0.00,0,MyOwnSoftware,2013-04-23 02:09:00,
2013-04-23 03:10:00,47.7,43.1,29.78,SSW,202,8.0,14.0,84,0.00,,,0.00,0,MyOwnSoftware,2013-04-23 02:10:00,
2013-04-23 03:11:00,47.7,43.1,29.78,WSW,248,10.0,14.0,84,0.00,,,0.00,0,MyOwnSoftware,2013-04-23 02:11:00,
2013-04-23 03:12:00,47.7,43.1,29.78,South,180,6.0,10.0,84,0.00,,,0.00,0,MyOwnSoftware,2013-04-23 02:12:00,
2013-04-23 03:13:00,47.7,43.1,29.78,SW,225,8.0,16.0,84,0.00,,,0.00,0,MyOwnSoftware,2013-04-23 02:13:00,
2013-04-23 03:14:00,47.7,43.1,29.78,SSW,202,7.0,11.0,84,0.00,,,0.00,0,MyOwnSoftware,2013-04-23 02:14:00,
2013-04-23 03:15:00,47.9,43.3,29.78,SW,225,6.0,13.0,84,0.00,,,0.00,0,MyOwnSoftware,2013-04-23 02:15:00,
2013-04-23 03:16:00,47.7,43.4,29.78,West,270,3.0,6.0,85,0.00,,,0.00,0,MyOwnSoftware,2013-04-23 02:16:00,
2013-04-23 03:17:00,47.9,43.3,29.78,SW,225,8.0,14.0,84,0.00,,,0.00,0,MyOwnSoftware,2013-04-23 02:17:00,
2013-04-23 03:18:00,47.9,43.3,29.78,SSW,202,7.0,11.0,84,0.00,,,0.00,0,MyOwnSoftware,2013-04-23 02:18:00,
2013-04-23 03:19:00,47.9,43.0,29.78,SSW,202,5.0,14.0,83,0.00,,,0.00,0,MyOwnSoftware,2013-04-23 02:19:00,
2013-04-23 03:20:00,47.9,43.3,29.78,SSE,158,7.0,15.0,84,0.00,,,0.00,0,MyOwnSoftware,2013-04-23 02:20:00,
2013-04-23 03:21:00,47.9,43.3,29.78,South,180,6.0,11.0,84,0.00,,,0.00,0,MyOwnSoftware,2013-04-23 02:21:00,
2013-04-23 03:22:00,47.9,43.3,29.78,SW,225,8.0,14.0,84,0.00,,,0.00,0,MyOwnSoftware,2013-04-23 02:22:00,
2013-04-23 03:23:00,47.9,43.3,29.78,SW,225,3.0,8.0,84,0.00,,,0.00,0,MyOwnSoftware,2013-04-23 02:23:00,
2013-04-23 03:24:00,47.9,43.3,29.78,SW,225,6.0,11.0,84,0.00,,,0.00,0,MyOwnSoftware,2013-04-23 02:24:00,
2013-04-23 03:25:00,47.9,43.3,29.78,SSE,158,7.0,14.0,84,0.00,,,0.00,0,MyOwnSoftware,2013-04-23 02:25:00,
2013-04-23 03:26:00,47.7,43.1,29.78,SW,225,5.0,11.0,84,0.00,,,0.00,0,MyOwnSoftware,2013-04-23 02:26:00,
2013-04-23 03:27:00,47.7,43.1,29.78,SW,225,9.0,14.0,84,0.00,,,0.00,0,MyOwnSoftware,2013-04-23 02:27:00,
2013-04-23 03:28:00,47.7,43.1,29.78,SSW,202,6.0,10.0,84,0.00,,,0.00,0,MyOwnSoftware,2013-04-23 02:28:00,
2013-04-23 03:29:00,47.7,43.1,29.78,SW,225,7.0,13.0,84,0.00,,,0.00,0,MyOwnSoftware,2013-04-23 02:29:00,
2013-04-23 03:30:00,47.7,43.1,29.78,SW,225,8.0,12.0,84,0.00,,,0.00,0,MyOwnSoftware,2013-04-23 02:30:00,
2013-04-23 03:31:00,47.7,43.1,29.78,West,270,5.0,13.0,84,0.00,,,0.00,0,MyOwnSoftware,2013-04-23 02:31:00,
2013-04-23 03:32:00,47.7,43.0,29.78,SW,222,10.0,-999.0,84,-99.99,,,0.00,0,weatherlink.com 1.10,2013-04-23 02:32:00,
2013-04-23 03:33:00,47.7,43.1,29.78,SW,225,8.0,13.0,84,0.00,,,0.00,0,MyOwnSoftware,2013-04-23 02:33:00,
2013-04-23 03:34:00,47.9,43.3,29.78,WNW,292,5.0,10.0,84,0.00,,,0.00,0,MyOwnSoftware,2013-04-23 02:34:00,
2013-04-23 03:35:00,47.9,43.3,29.78,SSW,202,6.0,17.0,84,0.00,,,0.00,0,MyOwnSoftware,2013-04-23 02:35:00,
2013-04-23 03:36:00,47.9,43.3,29.78,West,270,5.0,7.0,84,0.00,,,0.00,0,MyOwnSoftware,2013-04-23 02:36:00,
2013-04-23 03:37:00,47.9,43.3,29.78,SSW,202,6.0,12.0,84,0.00,,,0.00,0,MyOwnSoftware,2013-04-23 02:37:00,
2013-04-23 03:38:00,47.9,43.3,29.78,NW,315,4.0,7.0,84,0.00,,,0.00,0,MyOwnSoftware,2013-04-23 02:38:00,
2013-04-23 03:39:00,47.9,43.0,29.78,SW,225,6.0,12.0,83,0.00,,,0.00,0,MyOwnSoftware,2013-04-23 02:39:00,
2013-04-23 03:40:00,47.9,43.0,29.78,SW,225,6.0,10.0,83,0.00,,,0.00,0,MyOwnSoftware,2013-04-23 02:40:00,
2013-04-23 03:41:00,47.9,43.0,29.78,SW,225,6.0,12.0,83,0.00,,,0.00,0,MyOwnSoftware,2013-04-23 02:41:00,
2013-04-23 03:42:00,47.9,43.0,29.78,SW,225,7.0,14.0,83,0.00,,,0.00,0,MyOwnSoftware,2013-04-23 02:42:00,
2013-04-23 03:43:00,47.9,43.0,29.78,NW,315,5.0,10.0,83,0.00,,,0.00,0,MyOwnSoftware,2013-04-23 02:43:00,
2013-04-23 03:44:00,47.9,43.0,29.78,WSW,248,5.0,11.0,83,0.00,,,0.00,0,MyOwnSoftware,2013-04-23 02:44:00,
2013-04-23 03:45:00,47.9,43.0,29.78,SW,225,6.0,11.0,83,0.00,,,0.00,0,MyOwnSoftware,2013-04-23 02:45:00,
2013-04-23 03:46:00,47.9,43.3,29.78,SSW,202,6.0,12.0,84,0.00,,,0.00,0,MyOwnSoftware,2013-04-23 02:46:00,
2013-04-23 03:47:00,47.9,43.0,29.78,WSW,248,2.0,4.0,83,0.00,,,0.00,0,MyOwnSoftware,2013-04-23 02:47:00,
2013-04-23 03:48:00,47.9,43.0,29.78,SW,225,7.0,10.0,83,0.00,,,0.00,0,MyOwnSoftware,2013-04-23 02:48:00,
2013-04-23 03:49:00,47.9,43.0,29.78,South,180,7.0,12.0,83,0.00,,,0.00,0,MyOwnSoftware,2013-04-23 02:49:00,
2013-04-23 03:50:00,47.9,43.0,29.78,SW,225,6.0,13.0,83,0.00,,,0.00,0,MyOwnSoftware,2013-04-23 02:50:00,
2013-04-23 03:51:00,47.9,43.0,29.78,SSW,202,6.0,11.0,83,0.00,,,0.00,0,MyOwnSoftware,2013-04-23 02:51:00,
2013-04-23 03:52:00,47.9,43.0,29.78,West,270,6.0,16.0,83,0.00,,,0.00,0,MyOwnSoftware,2013-04-23 02:52:00,
2013-04-23 03:53:00,48.0,43.1,29.78,SW,225,9.0,13.0,83,0.00,,,0.00,0,MyOwnSoftware,2013-04-23 02:53:00,
2013-04-23 03:54:00,48.0,43.1,29.78,SSW,202,6.0,12.0,83,0.00,,,0.00,0,MyOwnSoftware,2013-04-23 02:54:00,
2013-04-23 03:55:00,48.0,43.1,29.78,West,270,9.0,20.0,83,0.00,,,0.00,0,MyOwnSoftware,2013-04-23 02:55:00,
2013-04-23 03:56:00,47.9,43.0,29.78,WSW,248,2.0,4.0,83,0.00,,,0.00,0,MyOwnSoftware,2013-04-23 02:56:00,
2013-04-23 03:57:00,48.0,43.1,29.78,WSW,248,6.0,10.0,83,0.00,,,0.00,0,MyOwnSoftware,2013-04-23 02:57:00,
2013-04-23 03:58:00,48.0,43.1,29.78,SW,225,5.0,10.0,83,0.00,,,0.00,0,MyOwnSoftware,2013-04-23 02:58:00,
2013-04-23 03:59:00,48.0,43.1,29.78,SSW,202,7.0,19.0,83,0.00,,,0.00,0,MyOwnSoftware,2013-04-23 02:59:00,
2013-04-23 04:00:00,48.0,42.8,29.79,West,270,5.0,10.0,82,0.00,,,0.00,0,MyOwnSoftware,2013-04-23 03:00:00,
2013-04-23 04:01:00,48.0,42.8,29.79,SSW,202,8.0,18.0,82,0.00,,,0.00,0,MyOwnSoftware,2013-04-23 03:01:00,
2013-04-23 04:02:00,48.0,42.8,29.79,SSW,202,5.0,10.0,82,0.00,,,0.00,0,MyOwnSoftware,2013-04-23 03:02:00,
2013-04-23 04:03:00,48.0,43.0,29.79,SSE,160,5.0,-999.0,82,-99.99,,,0.00,0,weatherlink.com 1.10,2013-04-23 03:03:00,
2013-04-23 04:04:00,48.0,42.8,29.79,SSE,158,4.0,10.0,82,0.00,,,0.00,0,MyOwnSoftware,2013-04-23 03:04:00,
2013-04-23 04:05:00,48.0,42.8,29.79,SW,225,7.0,17.0,82,0.00,,,0.00,0,MyOwnSoftware,2013-04-23 03:05:00,
2013-04-23 04:06:00,48.0,42.8,29.79,West,270,5.0,11.0,82,0.00,,,0.00,0,MyOwnSoftware,2013-04-23 03:06:00,
2013-04-23 04:07:00,48.0,42.8,29.79,NNE,22,6.0,13.0,82,0.00,,,0.00,0,MyOwnSoftware,2013-04-23 03:07:00,
2013-04-23 04:08:00,48.2,43.3,29.79,South,180,8.0,16.0,83,0.00,,,0.00,0,MyOwnSoftware,2013-04-23 03:08:00,
2013-04-23 04:09:00,48.2,43.3,29.79,SSW,202,7.0,12.0,83,0.00,,,0.00,0,MyOwnSoftware,2013-04-23 03:09:00,
2013-04-23 04:10:00,48.2,43.3,29.79,SW,225,7.0,16.0,83,0.00,,,0.00,0,MyOwnSoftware,2013-04-23 03:10:00,
2013-04-23 04:11:00,48.2,43.3,29.79,SSW,202,6.0,11.0,83,0.00,,,0.00,0,MyOwnSoftware,2013-04-23 03:11:00,
2013-04-23 04:12:00,48.2,43.3,29.79,South,180,7.0,13.0,83,0.00,,,0.00,0,MyOwnSoftware,2013-04-23 03:12:00,
2013-04-23 04:13:00,48.2,43.0,29.79,SSW,202,7.0,10.0,82,0.00,,,0.00,0,MyOwnSoftware,2013-04-23 03:13:00,
2013-04-23 04:14:00,48.2,43.0,29.79,SW,225,6.0,10.0,82,0.00,,,0.00,0,MyOwnSoftware,2013-04-23 03:14:00,
2013-04-23 04:15:00,48.2,43.0,29.79,South,180,5.0,10.0,82,0.00,,,0.00,0,MyOwnSoftware,2013-04-23 03:15:00,
2013-04-23 04:16:00,48.0,42.8,29.79,NNE,22,6.0,13.0,82,0.00,,,0.00,0,MyOwnSoftware,2013-04-23 03:16:00,
2013-04-23 04:17:00,48.2,43.0,29.79,SW,225,6.0,11.0,82,0.00,,,0.00,0,MyOwnSoftware,2013-04-23 03:17:00,
2013-04-23 04:18:00,48.3,43.1,29.79,WNW,292,4.0,10.0,82,0.00,,,0.00,0,MyOwnSoftware,2013-04-23 03:18:00,
2013-04-23 04:19:00,48.3,43.4,29.79,SSW,202,4.0,9.0,83,0.00,,,0.00,0,MyOwnSoftware,2013-04-23 03:19:00,
2013-04-23 04:20:00,48.3,43.4,29.79,SSW,202,4.0,7.0,83,0.00,,,0.00,0,MyOwnSoftware,2013-04-23 03:20:00,
2013-04-23 04:21:00,48.3,43.4,29.79,SW,225,6.0,11.0,83,0.00,,,0.00,0,MyOwnSoftware,2013-04-23 03:21:00,
2013-04-23 04:22:00,48.3,43.4,29.79,SW,225,7.0,14.0,83,0.00,,,0.00,0,MyOwnSoftware,2013-04-23 03:22:00,
2013-04-23 04:23:00,48.3,43.4,29.79,SW,225,6.0,11.0,83,0.00,,,0.00,0,MyOwnSoftware,2013-04-23 03:23:00,
2013-04-23 04:24:00,48.3,43.4,29.79,West,270,5.0,8.0,83,0.00,,,0.00,0,MyOwnSoftware,2013-04-23 03:24:00,
2013-04-23 04:25:00,48.3,43.4,29.79,West,270,4.0,7.0,83,0.00,,,0.00,0,MyOwnSoftware,2013-04-23 03:25:00,
2013-04-23 04:26:00,48.3,43.4,29.79,SSW,202,4.0,14.0,83,0.00,,,0.00,0,MyOwnSoftware,2013-04-23 03:26:00,
2013-04-23 04:27:00,48.3,43.4,29.79,SSW,202,8.0,14.0,83,0.00,,,0.00,0,MyOwnSoftware,2013-04-23 03:27:00,
2013-04-23 04:28:00,48.3,43.4,29.79,WSW,248,8.0,18.0,83,0.00,,,0.00,0,MyOwnSoftware,2013-04-23 03:28:00,
2013-04-23 04:29:00,48.3,43.4,29.79,South,180,7.0,11.0,83,0.00,,,0.00,0,MyOwnSoftware,2013-04-23 03:29:00,
2013-04-23 04:30:00,48.5,43.6,29.80,WSW,248,10.0,18.0,83,0.00,,,0.00,0,MyOwnSoftware,2013-04-23 03:30:00,
2013-04-23 04:31:00,48.5,43.6,29.80,SSW,202,8.0,13.0,83,0.00,,,0.00,0,MyOwnSoftware,2013-04-23 03:31:00,
2013-04-23 04:32:00,48.5,43.6,29.80,WNW,292,3.0,8.0,83,0.00,,,0.00,0,MyOwnSoftware,2013-04-23 03:32:00,
2013-04-23 04:33:00,48.5,44.0,29.80,North,0,5.0,-999.0,83,-99.99,,,0.00,0,weatherlink.com 1.10,2013-04-23 03:33:00,
2013-04-23 04:34:00,48.5,43.6,29.80,SW,225,9.0,16.0,83,0.00,,,0.00,0,MyOwnSoftware,2013-04-23 03:34:00,
2013-04-23 04:35:00,48.5,43.6,29.80,SSW,202,6.0,10.0,83,0.00,,,0.00,0,MyOwnSoftware,2013-04-23 03:35:00,
2013-04-23 04:36:00,48.5,43.6,29.80,West,270,6.0,10.0,83,0.00,,,0.00,0,MyOwnSoftware,2013-04-23 03:36:00,
2013-04-23 04:37:00,48.5,43.6,29.80,West,270,2.0,6.0,83,0.00,,,0.00,0,MyOwnSoftware,2013-04-23 03:37:00,
2013-04-23 04:38:00,48.5,43.6,29.80,SSW,202,6.0,8.0,83,0.00,,,0.00,0,MyOwnSoftware,2013-04-23 03:38:00,
2013-04-23 04:39:00,48.5,43.6,29.80,SW,225,9.0,16.0,83,0.00,,,0.00,0,MyOwnSoftware,2013-04-23 03:39:00,
2013-04-23 04:40:00,48.5,43.6,29.80,NW,315,6.0,14.0,83,0.00,,,0.00,0,MyOwnSoftware,2013-04-23 03:40:00,
2013-04-23 04:41:00,48.5,43.6,29.80,South,180,6.0,11.0,83,0.00,,,0.00,0,MyOwnSoftware,2013-04-23 03:41:00,
2013-04-23 04:42:00,48.6,43.7,29.80,West,270,6.0,12.0,83,0.00,,,0.00,0,MyOwnSoftware,2013-04-23 03:42:00,
2013-04-23 04:43:00,48.6,43.7,29.80,WSW,248,5.0,10.0,83,0.00,,,0.00,0,MyOwnSoftware,2013-04-23 03:43:00,
2013-04-23 04:44:00,48.6,43.7,29.80,West,270,4.0,8.0,83,0.00,,,0.00,0,MyOwnSoftware,2013-04-23 03:44:00,
2013-04-23 04:45:00,48.6,44.0,29.81,SSW,202,4.0,7.0,84,0.00,,,0.00,0,MyOwnSoftware,2013-04-23 03:45:00,
2013-04-23 04:46:00,48.5,43.6,29.80,West,270,2.0,6.0,83,0.00,,,0.00,0,MyOwnSoftware,2013-04-23 03:46:00,
2013-04-23 04:47:00,48.6,44.0,29.81,SSW,202,4.0,7.0,84,0.00,,,0.00,0,MyOwnSoftware,2013-04-23 03:47:00,
2013-04-23 04:48:00,48.6,44.0,29.81,WNW,292,3.0,6.0,84,0.00,,,0.00,0,MyOwnSoftware,2013-04-23 03:48:00,
2013-04-23 04:49:00,48.6,44.0,29.81,WSW,248,2.0,5.0,84,0.00,,,0.00,0,MyOwnSoftware,2013-04-23 03:49:00,
2013-04-23 04:50:00,48.6,44.3,29.81,South,180,2.0,5.0,85,0.00,,,0.00,0,MyOwnSoftware,2013-04-23 03:50:00,
2013-04-23 04:51:00,48.6,44.3,29.81,SSW,202,1.0,4.0,85,0.00,,,0.00,0,MyOwnSoftware,2013-04-23 03:51:00,
2013-04-23 04:52:00,48.5,44.5,29.81,WSW,248,4.0,13.0,86,0.00,,,0.00,0,MyOwnSoftware,2013-04-23 03:52:00,
2013-04-23 04:53:00,48.5,44.5,29.81,SW,225,3.0,7.0,86,0.00,,,0.00,0,MyOwnSoftware,2013-04-23 03:53:00,
2013-04-23 04:54:00,48.5,44.5,29.81,North,0,3.0,5.0,86,0.00,,,0.00,0,MyOwnSoftware,2013-04-23 03:54:00,
2013-04-23 04:55:00,48.5,44.8,29.81,SW,225,2.0,7.0,87,0.00,,,0.00,0,MyOwnSoftware,2013-04-23 03:55:00,
2013-04-23 04:56:00,48.6,44.0,29.81,SSW,202,4.0,7.0,84,0.00,,,0.00,0,MyOwnSoftware,2013-04-23 03:56:00,
2013-04-23 04:57:00,48.5,44.8,29.81,SW,225,3.0,6.0,87,0.00,,,0.00,0,MyOwnSoftware,2013-04-23 03:57:00,
2013-04-23 04:58:00,48.3,44.6,29.81,South,180,6.0,8.0,87,0.00,,,0.00,0,MyOwnSoftware,2013-04-23 03:58:00,
2013-04-23 04:59:00,48.3,44.9,29.81,WSW,248,4.0,8.0,88,0.00,,,0.00,0,MyOwnSoftware,2013-04-23 03:59:00,
2013-04-23 05:00:00,48.3,44.9,29.81,SSW,202,5.0,8.0,88,0.00,,,0.00,0,MyOwnSoftware,2013-04-23 04:00:00,
2013-04-23 05:01:00,48.3,44.9,29.81,South,180,3.0,7.0,88,0.00,,,0.00,0,MyOwnSoftware,2013-04-23 04:01:00,
2013-04-23 05:02:00,48.3,44.9,29.81,SSW,202,4.0,10.0,88,0.00,,,0.00,0,MyOwnSoftware,2013-04-23 04:02:00,
2013-04-23 05:03:00,48.2,45.0,29.81,South,172,8.0,-999.0,89,-99.99,,,0.00,0,weatherlink.com 1.10,2013-04-23 04:03:00,
2013-04-23 05:04:00,48.2,45.1,29.81,ESE,112,3.0,8.0,89,0.00,,,0.00,0,MyOwnSoftware,2013-04-23 04:04:00,
2013-04-23 05:05:00,48.2,45.1,29.81,SW,225,2.0,6.0,89,0.00,,,0.00,0,MyOwnSoftware,2013-04-23 04:05:00,
2013-04-23 05:06:00,48.2,45.4,29.81,WSW,248,4.0,8.0,90,0.00,,,0.00,0,MyOwnSoftware,2013-04-23 04:06:00,
2013-04-23 05:07:00,48.2,45.4,29.81,WSW,248,4.0,7.0,90,0.00,,,0.00,0,MyOwnSoftware,2013-04-23 04:07:00,
2013-04-23 05:08:00,48.0,45.2,29.81,SSW,202,3.0,8.0,90,0.00,,,0.00,0,MyOwnSoftware,2013-04-23 04:08:00,
2013-04-23 05:09:00,48.0,45.2,29.81,West,270,5.0,10.0,90,0.00,,,0.00,0,MyOwnSoftware,2013-04-23 04:09:00,
2013-04-23 05:10:00,48.0,45.2,29.81,SW,225,3.0,7.0,90,0.00,,,0.00,0,MyOwnSoftware,2013-04-23 04:10:00,
2013-04-23 05:11:00,48.0,45.2,29.81,SW,225,4.0,5.0,90,0.00,,,0.00,0,MyOwnSoftware,2013-04-23 04:11:00,
2013-04-23 05:12:00,48.0,45.2,29.81,SSW,202,5.0,8.0,90,0.00,,,0.00,0,MyOwnSoftware,2013-04-23 04:12:00,
2013-04-23 05:13:00,48.0,45.2,29.81,SSW,202,1.0,4.0,90,0.00,,,0.00,0,MyOwnSoftware,2013-04-23 04:13:00,
2013-04-23 05:14:00,47.9,45.1,29.81,WSW,248,3.0,7.0,90,0.00,,,0.00,0,MyOwnSoftware,2013-04-23 04:14:00,
2013-04-23 05:15:00,47.9,45.4,29.82,SW,225,3.0,6.0,91,0.00,,,0.00,0,MyOwnSoftware,2013-04-23 04:15:00,
2013-04-23 05:16:00,48.2,45.4,29.81,WSW,248,4.0,7.0,90,0.00,,,0.00,0,MyOwnSoftware,2013-04-23 04:16:00,
2013-04-23 05:17:00,47.9,45.4,29.82,WNW,292,5.0,7.0,91,0.00,,,0.00,0,MyOwnSoftware,2013-04-23 04:17:00,
2013-04-23 05:18:00,47.9,45.4,29.82,SSW,202,4.0,7.0,91,0.00,,,0.00,0,MyOwnSoftware,2013-04-23 04:18:00,
2013-04-23 05:19:00,47.9,45.4,29.82,SSW,202,4.0,6.0,91,0.00,,,0.00,0,MyOwnSoftware,2013-04-23 04:19:00,
2013-04-23 05:20:00,47.9,45.4,29.82,SW,225,5.0,7.0,91,0.00,,,0.00,0,MyOwnSoftware,2013-04-23 04:20:00,
2013-04-23 05:21:00,47.9,45.1,29.82,SW,225,3.0,7.0,90,0.00,,,0.00,0,MyOwnSoftware,2013-04-23 04:21:00,
2013-04-23 05:22:00,47.9,45.1,29.82,SW,225,5.0,8.0,90,0.00,,,0.00,0,MyOwnSoftware,2013-04-23 04:22:00,
2013-04-23 05:23:00,47.9,45.1,29.82,West,270,1.0,3.0,90,0.00,,,0.00,0,MyOwnSoftware,2013-04-23 04:23:00,
2013-04-23 05:24:00,47.9,45.1,29.82,SW,225,4.0,7.0,90,0.00,,,0.00,0,MyOwnSoftware,2013-04-23 04:24:00,
2013-04-23 05:25:00,47.7,44.9,29.82,SSW,202,5.0,13.0,90,0.00,,,0.00,0,MyOwnSoftware,2013-04-23 04:25:00,
2013-04-23 05:26:00,47.7,44.9,29.82,SW,225,4.0,8.0,90,0.00,,,0.00,0,MyOwnSoftware,2013-04-23 04:26:00,
2013-04-23 05:27:00,47.7,44.9,29.82,WSW,248,3.0,6.0,90,0.00,,,0.00,0,MyOwnSoftware,2013-04-23 04:27:00,
2013-04-23 05:28:00,47.7,44.6,29.82,WNW,292,2.0,4.0,89,0.00,,,0.00,0,MyOwnSoftware,2013-04-23 04:28:00,
2013-04-23 05:29:00,47.7,44.6,29.82,SSW,202,3.0,8.0,89,0.00,,,0.00,0,MyOwnSoftware,2013-04-23 04:29:00,
2013-04-23 05:30:00,47.7,44.6,29.82,SSW,202,2.0,5.0,89,0.00,,,0.00,0,MyOwnSoftware,2013-04-23 04:30:00,
2013-04-23 05:31:00,47.7,44.6,29.82,SW,225,1.0,6.0,89,0.00,,,0.00,0,MyOwnSoftware,2013-04-23 04:31:00,
2013-04-23 05:32:00,47.7,44.6,29.82,WNW,292,2.0,5.0,89,0.00,,,0.00,0,MyOwnSoftware,2013-04-23 04:32:00,
2013-04-23 05:33:00,47.7,45.0,29.82,South,178,12.0,-999.0,89,-99.99,,,0.00,0,weatherlink.com 1.10,2013-04-23 04:33:00,
2013-04-23 05:34:00,47.7,44.6,29.82,WSW,248,4.0,12.0,89,0.00,,,0.00,0,MyOwnSoftware,2013-04-23 04:34:00,
2013-04-23 05:35:00,47.7,44.6,29.82,WSW,248,1.0,3.0,89,0.00,,,0.00,0,MyOwnSoftware,2013-04-23 04:35:00,
2013-04-23 05:36:00,47.7,44.3,29.82,North,0,6.0,8.0,88,0.00,,,0.00,0,MyOwnSoftware,2013-04-23 04:36:00,
2013-04-23 05:37:00,47.7,44.3,29.82,East,90,4.0,6.0,88,0.00,,,0.00,0,MyOwnSoftware,2013-04-23 04:37:00,
2013-04-23 05:38:00,47.7,44.3,29.82,West,270,2.0,4.0,88,0.00,,,0.00,0,MyOwnSoftware,2013-04-23 04:38:00,
2013-04-23 05:39:00,47.7,44.3,29.82,WSW,248,2.0,5.0,88,0.00,,,0.00,0,MyOwnSoftware,2013-04-23 04:39:00,
2013-04-23 05:40:00,47.7,44.3,29.82,SW,225,0.0,2.0,88,0.00,,,0.00,0,MyOwnSoftware,2013-04-23 04:40:00,
2013-04-23 05:41:00,47.7,44.3,29.82,WNW,292,1.0,3.0,88,0.00,,,0.00,0,MyOwnSoftware,2013-04-23 04:41:00,
2013-04-23 05:42:00,47.7,44.3,29.82,WSW,248,2.0,5.0,88,0.00,,,0.00,0,MyOwnSoftware,2013-04-23 04:42:00,
2013-04-23 05:43:00,47.7,44.3,29.82,South,180,2.0,5.0,88,0.00,,,0.00,0,MyOwnSoftware,2013-04-23 04:43:00,
2013-04-23 05:44:00,47.7,44.6,29.82,NNW,338,2.0,5.0,89,0.00,,,0.00,0,MyOwnSoftware,2013-04-23 04:44:00,
2013-04-23 05:45:00,47.7,44.6,29.82,SW,225,2.0,3.0,89,0.00,,,0.00,0,MyOwnSoftware,2013-04-23 04:45:00,
2013-04-23 05:46:00,47.7,44.3,29.82,East,90,4.0,6.0,88,0.00,,,0.00,0,MyOwnSoftware,2013-04-23 04:46:00,
2013-04-23 05:47:00,47.7,44.6,29.82,West,270,1.0,3.0,89,0.00,,,0.00,0,MyOwnSoftware,2013-04-23 04:47:00,
2013-04-23 05:48:00,47.7,44.6,29.82,WSW,248,2.0,6.0,89,0.00,,,0.00,0,MyOwnSoftware,2013-04-23 04:48:00,
2013-04-23 05:49:00,47.7,44.6,29.82,SW,225,2.0,6.0,89,0.00,,,0.00,0,MyOwnSoftware,2013-04-23 04:49:00,
2013-04-23 05:50:00,47.7,44.3,29.82,SSW,202,2.0,5.0,88,0.00,,,0.00,0,MyOwnSoftware,2013-04-23 04:50:00,
2013-04-23 05:51:00,47.6,44.2,29.82,SSW,202,3.0,5.0,88,0.00,,,0.00,0,MyOwnSoftware,2013-04-23 04:51:00,
2013-04-23 05:52:00,47.6,44.2,29.82,WNW,292,3.0,7.0,88,0.00,,,0.00,0,MyOwnSoftware,2013-04-23 04:52:00,
2013-04-23 05:53:00,47.6,44.2,29.82,WSW,248,1.0,3.0,88,0.00,,,0.00,0,MyOwnSoftware,2013-04-23 04:53:00,
2013-04-23 05:54:00,47.6,44.2,29.82,South,180,1.0,3.0,88,0.00,,,0.00,0,MyOwnSoftware,2013-04-23 04:54:00,
2013-04-23 05:55:00,47.6,44.2,29.82,SW,225,1.0,2.0,88,0.00,,,0.00,0,MyOwnSoftware,2013-04-23 04:55:00,
2013-04-23 05:56:00,47.7,44.6,29.82,West,270,1.0,3.0,89,0.00,,,0.00,0,MyOwnSoftware,2013-04-23 04:56:00,
2013-04-23 05:57:00,47.6,44.2,29.82,SSW,202,4.0,13.0,88,0.00,,,0.00,0,MyOwnSoftware,2013-04-23 04:57:00,
2013-04-23 05:58:00,47.6,43.9,29.82,SW,225,4.0,7.0,87,0.00,,,0.00,0,MyOwnSoftware,2013-04-23 04:58:00,
2013-04-23 05:59:00,47.6,43.9,29.82,SSW,202,6.0,10.0,87,0.00,,,0.00,0,MyOwnSoftware,2013-04-23 04:59:00,
2013-04-23 06:00:00,47.6,43.6,29.83,SSW,202,6.0,12.0,86,0.00,,,0.00,0,MyOwnSoftware,2013-04-23 05:00:00,
2013-04-23 06:01:00,47.6,43.6,29.83,SSW,202,5.0,8.0,86,0.00,,,0.00,3,MyOwnSoftware,2013-04-23 05:01:00,
2013-04-23 06:02:00,47.6,43.6,29.83,North,0,1.0,4.0,86,0.00,,,0.00,5,MyOwnSoftware,2013-04-23 05:02:00,
2013-04-23 06:03:00,47.6,44.0,29.83,SSW,213,2.0,-999.0,86,-99.99,,,0.00,5,weatherlink.com 1.10,2013-04-23 05:03:00,
2013-04-23 06:04:00,47.6,43.6,29.83,WSW,248,3.0,6.0,86,0.00,,,0.00,5,MyOwnSoftware,2013-04-23 05:04:00,
2013-04-23 06:05:00,47.6,43.6,29.83,West,270,4.0,12.0,86,0.00,,,0.00,5,MyOwnSoftware,2013-04-23 05:05:00,
2013-04-23 06:06:00,47.7,43.7,29.83,SSW,202,4.0,12.0,86,0.00,,,0.00,7,MyOwnSoftware,2013-04-23 05:06:00,
2013-04-23 06:07:00,47.7,43.7,29.83,SSW,202,5.0,12.0,86,0.00,,,0.00,7,MyOwnSoftware,2013-04-23 05:07:00,
2013-04-23 06:08:00,47.7,43.7,29.83,South,180,4.0,10.0,86,0.00,,,0.00,7,MyOwnSoftware,2013-04-23 05:08:00,
2013-04-23 06:09:00,47.7,43.7,29.83,South,180,3.0,6.0,86,0.00,,,0.00,7,MyOwnSoftware,2013-04-23 05:09:00,
2013-04-23 06:10:00,47.7,43.7,29.83,SSW,202,3.0,11.0,86,0.00,,,0.00,7,MyOwnSoftware,2013-04-23 05:10:00,
2013-04-23 06:11:00,47.7,43.7,29.83,West,270,2.0,6.0,86,0.00,,,0.00,7,MyOwnSoftware,2013-04-23 05:11:00,
2013-04-23 06:12:00,47.7,43.7,29.83,WNW,292,2.0,6.0,86,0.00,,,0.00,7,MyOwnSoftware,2013-04-23 05:12:00,
2013-04-23 06:13:00,47.7,43.7,29.83,SSW,202,6.0,11.0,86,0.00,,,0.00,7,MyOwnSoftware,2013-04-23 05:13:00,
2013-04-23 06:14:00,47.7,43.7,29.83,SSW,202,3.0,8.0,86,0.00,,,0.00,11,MyOwnSoftware,2013-04-23 05:14:00,
2013-04-23 06:15:00,47.7,43.7,29.83,WSW,248,3.0,7.0,86,0.00,,,0.00,11,MyOwnSoftware,2013-04-23 05:15:00,
2013-04-23 06:16:00,47.7,43.7,29.83,SSW,202,5.0,12.0,86,0.00,,,0.00,7,MyOwnSoftware,2013-04-23 05:16:00,
2013-04-23 06:17:00,47.9,43.9,29.83,SW,225,4.0,7.0,86,0.00,,,0.00,11,MyOwnSoftware,2013-04-23 05:17:00,
2013-04-23 06:18:00,47.9,43.9,29.83,NNW,338,2.0,7.0,86,0.00,,,0.00,12,MyOwnSoftware,2013-04-23 05:18:00,
2013-04-23 06:19:00,47.9,43.9,29.83,SSW,202,5.0,11.0,86,0.00,,,0.00,12,MyOwnSoftware,2013-04-23 05:19:00,
2013-04-23 06:20:00,47.9,43.9,29.83,SW,225,6.0,12.0,86,0.00,,,0.00,12,MyOwnSoftware,2013-04-23 05:20:00,
2013-04-23 06:21:00,47.9,43.9,29.83,North,0,5.0,10.0,86,0.00,,,0.00,12,MyOwnSoftware,2013-04-23 05:21:00,
2013-04-23 06:22:00,47.9,43.9,29.83,SSW,202,5.0,8.0,86,0.00,,,0.00,23,MyOwnSoftware,2013-04-23 05:22:00,
2013-04-23 06:23:00,48.0,44.0,29.83,SW,225,6.0,10.0,86,0.00,,,0.00,23,MyOwnSoftware,2013-04-23 05:23:00,
2013-04-23 06:24:00,48.0,44.0,29.83,WNW,292,2.0,4.0,86,0.00,,,0.00,23,MyOwnSoftware,2013-04-23 05:24:00,
2013-04-23 06:25:00,48.0,44.0,29.83,WSW,248,3.0,6.0,86,0.00,,,0.00,23,MyOwnSoftware,2013-04-23 05:25:00,
2013-04-23 06:26:00,48.0,44.0,29.83,West,270,2.0,8.0,86,0.00,,,0.00,29,MyOwnSoftware,2013-04-23 05:26:00,
2013-04-23 06:27:00,48.0,44.0,29.83,SW,225,3.0,11.0,86,0.00,,,0.00,35,MyOwnSoftware,2013-04-23 05:27:00,
2013-04-23 06:28:00,48.0,44.0,29.83,SSW,202,4.0,6.0,86,0.00,,,0.00,35,MyOwnSoftware,2013-04-23 05:28:00,
2013-04-23 06:29:00,48.0,44.0,29.83,SW,225,2.0,6.0,86,0.00,,,0.00,35,MyOwnSoftware,2013-04-23 05:29:00,
2013-04-23 06:30:00,48.0,44.0,29.83,West,270,4.0,8.0,86,0.00,,,0.00,35,MyOwnSoftware,2013-04-23 05:30:00,
2013-04-23 06:31:00,48.2,44.2,29.83,West,270,3.0,6.0,86,0.00,,,0.00,35,MyOwnSoftware,2013-04-23 05:31:00,
2013-04-23 06:32:00,48.2,44.2,29.83,South,180,3.0,8.0,86,0.00,,,0.00,35,MyOwnSoftware,2013-04-23 05:32:00,
2013-04-23 06:33:00,48.2,44.2,29.83,WNW,292,3.0,11.0,86,0.00,,,0.00,35,MyOwnSoftware,2013-04-23 05:33:00,
2013-04-23 06:34:00,48.2,44.2,29.83,SW,225,3.0,6.0,86,0.00,,,0.00,35,MyOwnSoftware,2013-04-23 05:34:00,
2013-04-23 06:35:00,48.2,44.5,29.83,SW,225,2.0,5.0,87,0.00,,,0.00,42,MyOwnSoftware,2013-04-23 05:35:00,
2013-04-23 06:36:00,48.2,44.5,29.83,West,270,2.0,5.0,87,0.00,,,0.00,42,MyOwnSoftware,2013-04-23 05:36:00,
2013-04-23 06:37:00,48.0,44.0,29.83,SSW,202,4.0,6.0,86,0.00,,,0.00,35,MyOwnSoftware,2013-04-23 05:37:00,
2013-04-23 06:38:00,48.3,44.6,29.83,WNW,292,3.0,6.0,87,0.00,,,0.00,42,MyOwnSoftware,2013-04-23 05:38:00,
2013-04-23 06:39:00,48.3,44.6,29.83,West,270,4.0,8.0,87,0.00,,,0.00,25,MyOwnSoftware,2013-04-23 05:39:00,
2013-04-23 06:40:00,48.3,44.6,29.83,North,0,4.0,7.0,87,0.00,,,0.00,25,MyOwnSoftware,2013-04-23 05:40:00,
2013-04-23 06:41:00,48.3,44.9,29.83,West,270,4.0,7.0,88,0.00,,,0.00,25,MyOwnSoftware,2013-04-23 05:41:00,
2013-04-23 06:42:00,48.3,44.9,29.83,SSW,202,2.0,7.0,88,0.00,,,0.00,25,MyOwnSoftware,2013-04-23 05:42:00,
2013-04-23 06:43:00,48.3,44.9,29.83,SSW,202,4.0,7.0,88,0.00,,,0.00,48,MyOwnSoftware,2013-04-23 05:43:00,
2013-04-23 06:44:00,48.3,44.9,29.83,South,180,6.0,11.0,88,0.00,,,0.00,48,MyOwnSoftware,2013-04-23 05:44:00,
2013-04-23 06:45:00,48.3,44.9,29.83,SW,225,3.0,7.0,88,0.00,,,0.00,48,MyOwnSoftware,2013-04-23 05:45:00,
2013-04-23 06:46:00,48.2,44.5,29.83,SW,225,4.0,8.0,87,0.00,,,0.00,42,MyOwnSoftware,2013-04-23 05:46:00,
2013-04-23 06:47:00,48.3,44.9,29.83,SW,225,3.0,7.0,88,0.00,,,0.00,35,MyOwnSoftware,2013-04-23 05:47:00,
2013-04-23 06:48:00,48.3,44.9,29.83,WSW,248,4.0,6.0,88,0.00,,,0.00,35,MyOwnSoftware,2013-04-23 05:48:00,
2013-04-23 06:49:00,48.3,44.9,29.83,West,270,5.0,7.0,88,0.00,,,0.00,35,MyOwnSoftware,2013-04-23 05:49:00,
2013-04-23 06:50:00,48.2,44.5,29.83,SW,225,5.0,8.0,87,0.00,,,0.00,35,MyOwnSoftware,2013-04-23 05:50:00,
2013-04-23 06:51:00,48.2,44.5,29.83,SSW,202,5.0,11.0,87,0.00,,,0.00,46,MyOwnSoftware,2013-04-23 05:51:00,
2013-04-23 06:52:00,48.2,44.5,29.83,NW,315,4.0,6.0,87,0.00,,,0.00,62,MyOwnSoftware,2013-04-23 05:52:00,
2013-04-23 06:53:00,48.2,44.5,29.83,SSW,202,5.0,13.0,87,0.00,,,0.00,67,MyOwnSoftware,2013-04-23 05:53:00,
2013-04-23 06:54:00,48.2,44.5,29.83,WSW,248,3.0,9.0,87,0.00,,,0.00,79,MyOwnSoftware,2013-04-23 05:54:00,
2013-04-23 06:55:00,48.3,44.6,29.83,SW,225,5.0,8.0,87,0.00,,,0.00,83,MyOwnSoftware,2013-04-23 05:55:00,
2013-04-23 06:56:00,48.3,44.9,29.83,SW,225,3.0,7.0,88,0.00,,,0.00,35,MyOwnSoftware,2013-04-23 05:56:00,
2013-04-23 06:57:00,48.3,44.6,29.83,South,180,4.0,10.0,87,0.00,,,0.00,114,MyOwnSoftware,2013-04-23 05:57:00,
2013-04-23 06:58:00,48.5,44.8,29.83,SW,225,4.0,7.0,87,0.00,,,0.00,111,MyOwnSoftware,2013-04-23 05:58:00,
2013-04-23 06:59:00,48.6,44.6,29.83,West,270,3.0,7.0,86,0.00,,,0.00,70,MyOwnSoftware,2013-04-23 05:59:00,
2013-04-23 07:00:00,48.6,44.6,29.84,SW,225,7.0,12.0,86,0.00,,,0.00,77,MyOwnSoftware,2013-04-23 06:00:00,
2013-04-23 07:01:00,48.6,44.3,29.84,North,0,4.0,7.0,85,0.00,,,0.00,86,MyOwnSoftware,2013-04-23 06:01:00,
2013-04-23 07:02:00,48.8,44.5,29.84,SW,225,6.0,12.0,85,0.00,,,0.00,90,MyOwnSoftware,2013-04-23 06:02:00,
2013-04-23 07:03:00,48.8,45.0,29.84,SSW,212,3.0,-999.0,85,-99.99,,,0.00,83,weatherlink.com 1.10,2013-04-23 06:03:00,
2013-04-23 07:04:00,48.8,44.5,29.84,SSW,202,7.0,16.0,85,0.00,,,0.00,83,MyOwnSoftware,2013-04-23 06:04:00,
2013-04-23 07:05:00,48.8,44.2,29.84,SSW,202,5.0,11.0,84,0.00,,,0.00,74,MyOwnSoftware,2013-04-23 06:05:00,
2013-04-23 07:06:00,48.9,44.3,29.84,SSW,202,9.0,17.0,84,0.00,,,0.00,79,MyOwnSoftware,2013-04-23 06:06:00,
2013-04-23 07:07:00,48.9,44.3,29.84,SSW,202,8.0,16.0,84,0.00,,,0.00,76,MyOwnSoftware,2013-04-23 06:07:00,
2013-04-23 07:08:00,48.9,44.3,29.84,West,270,4.0,8.0,84,0.00,,,0.00,84,MyOwnSoftware,2013-04-23 06:08:00,
2013-04-23 07:09:00,48.9,44.3,29.84,SW,225,8.0,12.0,84,0.00,,,0.00,84,MyOwnSoftware,2013-04-23 06:09:00,
2013-04-23 07:10:00,48.9,44.3,29.84,SSW,202,6.0,13.0,84,0.00,,,0.00,125,MyOwnSoftware,2013-04-23 06:10:00,
2013-04-23 07:11:00,49.1,44.5,29.84,NNE,22,5.0,11.0,84,0.00,,,0.00,121,MyOwnSoftware,2013-04-23 06:11:00,
2013-04-23 07:12:00,49.1,44.5,29.84,WSW,248,6.0,10.0,84,0.00,,,0.00,135,MyOwnSoftware,2013-04-23 06:12:00,
2013-04-23 07:13:00,49.2,44.3,29.84,SSW,202,6.0,13.0,83,0.00,,,0.00,121,MyOwnSoftware,2013-04-23 06:13:00,
2013-04-23 07:14:00,49.2,44.3,29.84,WSW,248,6.0,12.0,83,0.00,,,0.00,121,MyOwnSoftware,2013-04-23 06:14:00,
2013-04-23 07:15:00,49.4,44.5,29.86,SSW,202,7.0,11.0,83,0.00,,,0.00,165,MyOwnSoftware,2013-04-23 06:15:00,
2013-04-23 07:16:00,48.9,44.3,29.84,SSW,202,8.0,16.0,84,0.00,,,0.00,76,MyOwnSoftware,2013-04-23 06:16:00,
2013-04-23 07:17:00,49.5,44.2,29.86,WSW,248,5.0,11.0,82,0.00,,,0.00,181,MyOwnSoftware,2013-04-23 06:17:00,
2013-04-23 07:18:00,49.6,44.3,29.86,SSW,202,7.0,11.0,82,0.00,,,0.00,179,MyOwnSoftware,2013-04-23 06:18:00,
2013-04-23 07:19:00,49.8,44.5,29.86,SW,225,3.0,7.0,82,0.00,,,0.00,179,MyOwnSoftware,2013-04-23 06:19:00,
2013-04-23 07:20:00,49.9,44.6,29.86,SW,225,6.0,10.0,82,0.00,,,0.00,179,MyOwnSoftware,2013-04-23 06:20:00,
2013-04-23 07:21:00,49.9,44.6,29.86,South,180,5.0,10.0,82,0.00,,,0.00,104,MyOwnSoftware,2013-04-23 06:21:00,
2013-04-23 07:22:00,49.9,44.6,29.86,WSW,248,6.0,10.0,82,0.00,,,0.00,116,MyOwnSoftware,2013-04-23 06:22:00,
2013-04-23 07:23:00,49.9,44.3,29.86,WSW,248,4.0,8.0,81,0.00,,,0.00,106,MyOwnSoftware,2013-04-23 06:23:00,
2013-04-23 07:24:00,49.9,44.3,29.86,SSW,202,6.0,12.0,81,0.00,,,0.00,90,MyOwnSoftware,2013-04-23 06:24:00,
2013-04-23 07:25:00,49.9,44.3,29.86,WSW,248,4.0,10.0,81,0.00,,,0.00,88,MyOwnSoftware,2013-04-23 06:25:00,
2013-04-23 07:26:00,49.9,44.3,29.86,SW,225,6.0,11.0,81,0.00,,,0.00,105,MyOwnSoftware,2013-04-23 06:26:00,
2013-04-23 07:27:00,49.9,44.3,29.86,SSW,202,5.0,10.0,81,0.00,,,0.00,107,MyOwnSoftware,2013-04-23 06:27:00,
2013-04-23 07:28:00,49.9,44.3,29.86,SW,225,8.0,12.0,81,0.00,,,0.00,114,MyOwnSoftware,2013-04-23 06:28:00,
2013-04-23 07:29:00,49.9,44.3,29.86,West,270,5.0,10.0,81,0.00,,,0.00,134,MyOwnSoftware,2013-04-23 06:29:00,
2013-04-23 07:30:00,49.9,44.3,29.86,SW,225,5.0,12.0,81,0.00,,,0.00,174,MyOwnSoftware,2013-04-23 06:30:00,
2013-04-23 07:31:00,49.9,44.0,29.86,WSW,248,5.0,7.0,80,0.00,,,0.00,197,MyOwnSoftware,2013-04-23 06:31:00,
2013-04-23 07:32:00,49.9,44.0,29.86,SW,225,5.0,8.0,80,0.00,,,0.00,215,MyOwnSoftware,2013-04-23 06:32:00,
2013-04-23 07:33:00,50.1,44.0,29.86,NW,311,2.0,-999.0,80,-99.99,,,0.00,234,weatherlink.com 1.10,2013-04-23 06:33:00,
2013-04-23 07:34:00,50.1,44.2,29.86,SSW,202,5.0,7.0,80,0.00,,,0.00,234,MyOwnSoftware,2013-04-23 06:34:00,
2013-04-23 07:35:00,50.2,43.9,29.86,SSW,202,5.0,8.0,79,0.00,,,0.00,223,MyOwnSoftware,2013-04-23 06:35:00,
2013-04-23 07:36:00,50.4,44.1,29.86,SW,225,4.0,10.0,79,0.00,,,0.00,221,MyOwnSoftware,2013-04-23 06:36:00,
2013-04-23 07:37:00,50.5,43.9,29.86,North,0,6.0,12.0,78,0.00,,,0.00,239,MyOwnSoftware,2013-04-23 06:37:00,
2013-04-23 07:38:00,50.7,44.1,29.86,SSW,202,5.0,8.0,78,0.00,,,0.00,246,MyOwnSoftware,2013-04-23 06:38:00,
2013-04-23 07:39:00,50.8,43.9,29.86,SW,225,6.0,11.0,77,0.00,,,0.00,246,MyOwnSoftware,2013-04-23 06:39:00,
2013-04-23 07:40:00,51.0,44.0,29.86,SW,225,3.0,11.0,77,0.00,,,0.00,232,MyOwnSoftware,2013-04-23 06:40:00,
2013-04-23 07:41:00,51.1,44.1,29.86,South,180,6.0,14.0,77,0.00,,,0.00,213,MyOwnSoftware,2013-04-23 06:41:00,
2013-04-23 07:42:00,51.3,44.0,29.86,North,0,6.0,12.0,76,0.00,,,0.00,209,MyOwnSoftware,2013-04-23 06:42:00,
2013-04-23 07:43:00,51.3,43.6,29.86,SSW,202,5.0,11.0,75,0.00,,,0.00,216,MyOwnSoftware,2013-04-23 06:43:00,
2013-04-23 07:44:00,51.4,43.7,29.86,WSW,248,5.0,11.0,75,0.00,,,0.00,225,MyOwnSoftware,2013-04-23 06:44:00,
2013-04-23 07:45:00,51.6,43.6,29.86,West,270,5.0,7.0,74,0.00,,,0.00,236,MyOwnSoftware,2013-04-23 06:45:00,
2013-04-23 07:46:00,50.5,43.9,29.86,North,0,6.0,12.0,78,0.00,,,0.00,239,MyOwnSoftware,2013-04-23 06:46:00,
2013-04-23 07:47:00,51.7,43.3,29.86,SSW,202,7.0,12.0,73,0.00,,,0.00,294,MyOwnSoftware,2013-04-23 06:47:00,
2013-04-23 07:48:00,51.7,43.3,29.86,South,180,4.0,8.0,73,0.00,,,0.00,313,MyOwnSoftware,2013-04-23 06:48:00,
2013-04-23 07:49:00,51.9,43.2,29.86,SSW,202,6.0,9.0,72,0.00,,,0.00,313,MyOwnSoftware,2013-04-23 06:49:00,
2013-04-23 07:50:00,52.0,42.9,29.86,SSW,202,7.0,13.0,71,0.00,,,0.00,313,MyOwnSoftware,2013-04-23 06:50:00,
2013-04-23 07:51:00,52.0,42.9,29.86,SSW,202,6.0,10.0,71,0.00,,,0.00,317,MyOwnSoftware,2013-04-23 06:51:00,
2013-04-23 07:52:00,52.2,43.1,29.86,SW,225,5.0,11.0,71,0.00,,,0.00,238,MyOwnSoftware,2013-04-23 06:52:00,
2013-04-23 07:53:00,52.3,42.8,29.86,SSW,202,6.0,12.0,70,0.00,,,0.00,238,MyOwnSoftware,2013-04-23 06:53:00,
2013-04-23 07:54:00,52.3,42.8,29.86,SSW,202,8.0,13.0,70,0.00,,,0.00,334,MyOwnSoftware,2013-04-23 06:54:00,
2013-04-23 07:55:00,52.3,42.4,29.86,SW,225,6.0,13.0,69,0.00,,,0.00,334,MyOwnSoftware,2013-04-23 06:55:00,
2013-04-23 07:56:00,51.7,43.3,29.86,SSW,202,7.0,12.0,73,0.00,,,0.00,294,MyOwnSoftware,2013-04-23 06:56:00,
2013-04-23 07:57:00,52.6,42.3,29.86,SSW,202,5.0,11.0,68,0.00,,,0.00,308,MyOwnSoftware,2013-04-23 06:57:00,
2013-04-23 07:58:00,52.8,42.5,29.86,South,180,3.0,7.0,68,0.00,,,0.00,306,MyOwnSoftware,2013-04-23 06:58:00,
2013-04-23 07:59:00,52.8,42.1,29.86,SSW,202,4.0,8.0,67,0.00,,,0.00,289,MyOwnSoftware,2013-04-23 06:59:00,
2013-04-23 08:00:00,52.9,41.9,29.87,WSW,248,8.0,11.0,66,0.00,,,0.00,308,MyOwnSoftware,2013-04-23 07:00:00,
2013-04-23 08:01:00,53.1,41.6,29.87,South,180,9.0,21.0,65,0.00,,,0.00,329,MyOwnSoftware,2013-04-23 07:01:00,
2013-04-23 08:02:00,53.1,41.6,29.87,SW,225,5.0,11.0,65,0.00,,,0.00,285,MyOwnSoftware,2013-04-23 07:02:00,
2013-04-23 08:03:00,53.2,42.0,29.87,SW,230,1.0,-999.0,65,-99.99,,,0.00,287,weatherlink.com 1.10,2013-04-23 07:03:00,
2013-04-23 08:04:00,53.2,41.7,29.87,SW,225,6.0,11.0,65,0.00,,,0.00,287,MyOwnSoftware,2013-04-23 07:04:00,
2013-04-23 08:05:00,53.2,41.7,29.87,SSW,202,6.0,10.0,65,0.00,,,0.00,285,MyOwnSoftware,2013-04-23 07:05:00,
2013-04-23 08:06:00,53.3,41.8,29.87,North,0,5.0,12.0,65,0.00,,,0.00,285,MyOwnSoftware,2013-04-23 07:06:00,
2013-04-23 08:07:00,53.2,41.3,29.87,SSW,202,7.0,11.0,64,0.00,,,0.00,257,MyOwnSoftware,2013-04-23 07:07:00,
2013-04-23 08:08:00,53.2,41.3,29.87,SSW,202,6.0,12.0,64,0.00,,,0.00,283,MyOwnSoftware,2013-04-23 07:08:00,
2013-04-23 08:09:00,53.2,41.7,29.87,SW,225,5.0,10.0,65,0.00,,,0.00,283,MyOwnSoftware,2013-04-23 07:09:00,
2013-04-23 08:10:00,53.2,41.7,29.87,SW,225,6.0,12.0,65,0.00,,,0.00,285,MyOwnSoftware,2013-04-23 07:10:00,
2013-04-23 08:11:00,53.2,41.7,29.87,WSW,248,7.0,12.0,65,0.00,,,0.00,269,MyOwnSoftware,2013-04-23 07:11:00,
2013-04-23 08:12:00,53.2,41.7,29.87,SSW,202,8.0,17.0,65,0.00,,,0.00,310,MyOwnSoftware,2013-04-23 07:12:00,
2013-04-23 08:13:00,53.2,41.7,29.87,SSW,202,8.0,11.0,65,0.00,,,0.00,340,MyOwnSoftware,2013-04-23 07:13:00,
2013-04-23 08:14:00,53.2,41.3,29.87,West,270,5.0,10.0,64,0.00,,,0.00,368,MyOwnSoftware,2013-04-23 07:14:00,
2013-04-23 08:15:00,53.2,41.3,29.88,WSW,248,5.0,8.0,64,0.00,,,0.00,373,MyOwnSoftware,2013-04-23 07:15:00,
2013-04-23 08:16:00,53.2,41.3,29.87,SSW,202,7.0,11.0,64,0.00,,,0.00,257,MyOwnSoftware,2013-04-23 07:16:00,
2013-04-23 08:17:00,53.3,41.4,29.88,WSW,248,5.0,7.0,64,0.00,,,0.00,338,MyOwnSoftware,2013-04-23 07:17:00,
2013-04-23 08:18:00,53.5,41.6,29.88,WSW,248,7.0,12.0,64,0.00,,,0.00,294,MyOwnSoftware,2013-04-23 07:18:00,
2013-04-23 08:19:00,53.5,41.2,29.88,North,0,6.0,11.0,63,0.00,,,0.00,333,MyOwnSoftware,2013-04-23 07:19:00,
2013-04-23 08:20:00,53.5,41.6,29.88,North,0,2.0,4.0,64,0.00,,,0.00,322,MyOwnSoftware,2013-04-23 07:20:00,
2013-04-23 08:21:00,53.6,41.3,29.88,NW,315,6.0,10.0,63,0.00,,,0.00,302,MyOwnSoftware,2013-04-23 07:21:00,
2013-04-23 08:22:00,53.6,41.3,29.88,WSW,248,5.0,12.0,63,0.00,,,0.00,329,MyOwnSoftware,2013-04-23 07:22:00,
2013-04-23 08:23:00,53.6,41.3,29.88,SSW,202,6.0,14.0,63,0.00,,,0.00,359,MyOwnSoftware,2013-04-23 07:23:00,
2013-04-23 08:24:00,53.6,41.3,29.88,WSW,248,5.0,9.0,63,0.00,,,0.00,338,MyOwnSoftware,2013-04-23 07:24:00,
2013-04-23 08:25:00,53.6,40.9,29.88,South,180,6.0,8.0,62,0.00,,,0.00,338,MyOwnSoftware,2013-04-23 07:25:00,
2013-04-23 08:26:00,53.6,40.9,29.88,SW,225,8.0,14.0,62,0.00,,,0.00,338,MyOwnSoftware,2013-04-23 07:26:00,
2013-04-23 08:27:00,53.6,40.9,29.88,WSW,248,5.0,9.0,62,0.00,,,0.00,396,MyOwnSoftware,2013-04-23 07:27:00,
2013-04-23 08:28:00,53.8,41.1,29.88,SSW,202,5.0,11.0,62,0.00,,,0.00,405,MyOwnSoftware,2013-04-23 07:28:00,
2013-04-23 08:29:00,53.9,41.2,29.88,SW,225,5.0,13.0,62,0.00,,,0.00,405,MyOwnSoftware,2013-04-23 07:29:00,
2013-04-23 08:30:00,53.9,40.8,29.88,SW,225,6.0,12.0,61,0.00,,,0.00,405,MyOwnSoftware,2013-04-23 07:30:00,
2013-04-23 08:31:00,53.9,40.8,29.88,SSW,202,8.0,14.0,61,0.00,,,0.00,405,MyOwnSoftware,2013-04-23 07:31:00,
2013-04-23 08:32:00,53.9,40.8,29.88,SSW,202,5.0,11.0,61,0.00,,,0.00,396,MyOwnSoftware,2013-04-23 07:32:00,
2013-04-23 08:33:00,53.9,41.0,29.88,West,271,9.0,-999.0,62,-99.99,,,0.00,408,weatherlink.com 1.10,2013-04-23 07:33:00,
2013-04-23 08:34:00,53.9,41.2,29.88,SW,225,5.0,11.0,62,0.00,,,0.00,408,MyOwnSoftware,2013-04-23 07:34:00,
2013-04-23 08:35:00,53.8,41.1,29.88,SW,225,5.0,10.0,62,0.00,,,0.00,408,MyOwnSoftware,2013-04-23 07:35:00,
2013-04-23 08:36:00,53.8,41.1,29.88,North,0,4.0,6.0,62,0.00,,,0.00,468,MyOwnSoftware,2013-04-23 07:36:00,
2013-04-23 08:37:00,53.8,41.1,29.88,SW,225,9.0,17.0,62,0.00,,,0.00,433,MyOwnSoftware,2013-04-23 07:37:00,
2013-04-23 08:38:00,53.8,40.7,29.88,SW,225,8.0,14.0,61,0.00,,,0.00,399,MyOwnSoftware,2013-04-23 07:38:00,
2013-04-23 08:39:00,53.8,40.7,29.88,WSW,248,4.0,12.0,61,0.00,,,0.00,399,MyOwnSoftware,2013-04-23 07:39:00,
2013-04-23 08:40:00,53.8,41.1,29.88,SSW,202,5.0,12.0,62,0.00,,,0.00,144,MyOwnSoftware,2013-04-23 07:40:00,
2013-04-23 08:41:00,53.8,40.7,29.88,SW,225,6.0,12.0,61,0.00,,,0.00,168,MyOwnSoftware,2013-04-23 07:41:00,
2013-04-23 08:42:00,53.6,40.9,29.88,SW,225,6.0,11.0,62,0.00,,,0.00,162,MyOwnSoftware,2013-04-23 07:42:00,
2013-04-23 08:43:00,53.5,40.8,29.88,NNW,338,5.0,7.0,62,0.00,,,0.00,162,MyOwnSoftware,2013-04-23 07:43:00,
2013-04-23 08:44:00,53.3,40.6,29.88,North,0,4.0,6.0,62,0.00,,,0.00,120,MyOwnSoftware,2013-04-23 07:44:00,
2013-04-23 08:45:00,53.3,41.0,29.89,SSW,202,6.0,10.0,63,0.00,,,0.00,109,MyOwnSoftware,2013-04-23 07:45:00,
2013-04-23 08:46:00,53.2,40.9,29.89,SSW,202,6.0,12.0,63,0.00,,,0.00,134,MyOwnSoftware,2013-04-23 07:46:00,
2013-04-23 08:47:00,53.2,40.9,29.89,West,270,5.0,11.0,63,0.00,,,0.00,134,MyOwnSoftware,2013-04-23 07:47:00,
2013-04-23 08:48:00,53.1,41.0,29.89,SSW,213,6.0,-999.0,63,-99.99,,,0.00,134,weatherlink.com 1.10,2013-04-23 07:48:00,
2013-04-23 08:49:00,53.1,40.8,29.89,North,0,6.0,11.0,63,0.00,,,0.00,134,MyOwnSoftware,2013-04-23 07:49:00,
2013-04-23 08:50:00,52.9,40.2,29.89,SSW,202,7.0,13.0,62,0.00,,,0.00,123,MyOwnSoftware,2013-04-23 07:50:00,
2013-04-23 08:51:00,52.8,40.1,29.89,SW,225,7.0,13.0,62,0.00,,,0.00,124,MyOwnSoftware,2013-04-23 07:51:00,
2013-04-23 08:52:00,52.5,39.9,29.89,SW,225,5.0,12.0,62,0.00,,,0.00,153,MyOwnSoftware,2013-04-23 07:52:00,
2013-04-23 08:53:00,52.5,40.3,29.89,SW,225,6.0,8.0,63,0.00,,,0.00,132,MyOwnSoftware,2013-04-23 07:53:00,
2013-04-23 08:54:00,52.3,40.1,29.89,WSW,248,6.0,16.0,63,0.00,,,0.00,86,MyOwnSoftware,2013-04-23 07:54:00,
2013-04-23 08:55:00,52.2,40.0,29.89,West,270,9.0,14.0,63,0.00,,,0.00,86,MyOwnSoftware,2013-04-23 07:55:00,
2013-04-23 08:56:00,52.2,40.0,29.89,SSW,202,8.0,13.0,63,0.00,,,0.00,431,MyOwnSoftware,2013-04-23 07:56:00,
2013-04-23 08:57:00,53.1,40.8,29.89,SW,225,8.0,19.0,63,0.00,,,0.00,134,MyOwnSoftware,2013-04-23 07:57:00,
2013-04-23 08:58:00,52.3,40.1,29.89,WNW,292,6.0,12.0,63,0.00,,,0.00,431,MyOwnSoftware,2013-04-23 07:58:00,
2013-04-23 08:59:00,52.3,40.1,29.89,SSW,202,4.0,12.0,63,0.00,,,0.00,431,MyOwnSoftware,2013-04-23 07:59:00,
2013-04-23 09:00:00,52.5,39.9,29.89,SW,225,6.0,10.0,62,0.00,,,0.00,431,MyOwnSoftware,2013-04-23 08:00:00,
2013-04-23 09:01:00,52.6,40.0,29.89,North,0,4.0,7.0,62,0.00,,,0.00,431,MyOwnSoftware,2013-04-23 08:01:00,
2013-04-23 09:02:00,52.8,40.1,29.89,North,0,7.0,12.0,62,0.00,,,0.00,431,MyOwnSoftware,2013-04-23 08:02:00,
2013-04-23 09:03:00,52.9,40.0,29.89,South,181,4.0,-999.0,61,-99.99,,,0.00,431,weatherlink.com 1.10,2013-04-23 08:03:00,
2013-04-23 09:04:00,52.9,39.8,29.89,SW,225,7.0,20.0,61,0.00,,,0.00,431,MyOwnSoftware,2013-04-23 08:04:00,
2013-04-23 09:05:00,52.9,39.8,29.89,SW,225,6.0,11.0,61,0.00,,,0.00,431,MyOwnSoftware,2013-04-23 08:05:00,
2013-04-23 09:06:00,53.1,40.0,29.89,SW,225,8.0,12.0,61,0.00,,,0.00,267,MyOwnSoftware,2013-04-23 08:06:00,
2013-04-23 09:07:00,53.1,40.0,29.89,SSW,202,5.0,12.0,61,0.00,,,0.00,267,MyOwnSoftware,2013-04-23 08:07:00,
2013-04-23 09:08:00,53.1,40.4,29.89,South,180,3.0,8.0,62,0.00,,,0.00,267,MyOwnSoftware,2013-04-23 08:08:00,
2013-04-23 09:09:00,53.1,40.4,29.89,South,180,7.0,12.0,62,0.00,,,0.00,222,MyOwnSoftware,2013-04-23 08:09:00,
2013-04-23 09:10:00,53.2,40.1,29.89,WSW,248,6.0,11.0,61,0.00,,,0.00,222,MyOwnSoftware,2013-04-23 08:10:00,
2013-04-23 09:11:00,53.2,40.1,29.89,SSW,202,6.0,8.0,61,0.00,,,0.00,194,MyOwnSoftware,2013-04-23 08:11:00,
2013-04-23 09:12:00,53.2,40.1,29.89,West,270,4.0,10.0,61,0.00,,,0.00,197,MyOwnSoftware,2013-04-23 08:12:00,
2013-04-23 09:13:00,53.2,40.1,29.89,North,0,5.0,8.0,61,0.00,,,0.00,223,MyOwnSoftware,2013-04-23 08:13:00,
2013-04-23 09:14:00,53.1,40.4,29.89,West,270,9.0,17.0,62,0.00,,,0.00,239,MyOwnSoftware,2013-04-23 08:14:00,
2013-04-23 09:15:00,53.1,40.4,29.90,SSW,202,8.0,19.0,62,0.00,,,0.00,216,MyOwnSoftware,2013-04-23 08:15:00,
2013-04-23 09:16:00,53.1,40.0,29.89,SSW,202,5.0,12.0,61,0.00,,,0.00,267,MyOwnSoftware,2013-04-23 08:16:00,
2013-04-23 09:17:00,52.8,40.6,29.90,SW,225,6.0,13.0,63,0.00,,,0.00,208,MyOwnSoftware,2013-04-23 08:17:00,
2013-04-23 09:18:00,52.8,41.0,29.90,South,180,9.0,14.0,64,0.00,,,0.00,208,MyOwnSoftware,2013-04-23 08:18:00,
2013-04-23 09:19:00,52.6,40.8,29.90,SW,225,7.0,12.0,64,0.00,,,0.00,208,MyOwnSoftware,2013-04-23 08:19:00,
2013-04-23 09:20:00,52.5,40.7,29.90,WSW,248,7.0,16.0,64,0.00,,,0.00,187,MyOwnSoftware,2013-04-23 08:20:00,
2013-04-23 09:21:00,52.3,40.9,29.90,West,270,9.0,14.0,65,0.00,,,0.00,179,MyOwnSoftware,2013-04-23 08:21:00,
2013-04-23 09:22:00,52.2,40.8,29.90,North,0,6.0,10.0,65,0.00,,,0.00,185,MyOwnSoftware,2013-04-23 08:22:00,
2013-04-23 09:23:00,52.0,41.0,29.90,WSW,248,5.0,10.0,66,0.00,,,0.00,181,MyOwnSoftware,2013-04-23 08:23:00,
2013-04-23 09:24:00,51.9,40.9,29.90,South,180,7.0,14.0,66,0.00,,,0.00,132,MyOwnSoftware,2013-04-23 08:24:00,
2013-04-23 09:25:00,51.7,41.5,29.90,SSW,202,6.0,12.0,68,0.00,,,0.00,97,MyOwnSoftware,2013-04-23 08:25:00,
2013-04-23 09:26:00,51.7,41.9,29.90,North,0,6.0,8.0,69,0.00,,,0.00,97,MyOwnSoftware,2013-04-23 08:26:00,
2013-04-23 09:27:00,51.6,41.8,29.90,WSW,248,7.0,11.0,69,0.00,,,0.00,463,MyOwnSoftware,2013-04-23 08:27:00,
2013-04-23 09:28:00,51.6,42.1,29.90,SW,225,7.0,14.0,70,0.00,,,0.00,463,MyOwnSoftware,2013-04-23 08:28:00,
2013-04-23 09:29:00,51.6,41.8,29.90,SW,225,6.0,13.0,69,0.00,,,0.00,465,MyOwnSoftware,2013-04-23 08:29:00,
2013-04-23 09:30:00,51.7,41.9,29.90,SW,225,5.0,8.0,69,0.00,,,0.00,466,MyOwnSoftware,2013-04-23 08:30:00,
2013-04-23 09:31:00,51.7,41.5,29.90,SW,225,8.0,12.0,68,0.00,,,0.00,468,MyOwnSoftware,2013-04-23 08:31:00,
2013-04-23 09:32:00,51.9,41.7,29.90,North,0,6.0,12.0,68,0.00,,,0.00,470,MyOwnSoftware,2013-04-23 08:32:00,
2013-04-23 09:33:00,52.0,41.4,29.90,West,270,6.0,11.0,67,0.00,,,0.00,472,MyOwnSoftware,2013-04-23 08:33:00,
2013-04-23 09:34:00,52.2,41.0,29.90,WSW,239,10.0,-999.0,66,-99.99,,,0.00,466,weatherlink.com 1.10,2013-04-23 08:34:00,
2013-04-23 09:35:00,52.3,40.9,29.90,West,270,6.0,14.0,65,0.00,,,0.00,473,MyOwnSoftware,2013-04-23 08:35:00,
2013-04-23 09:36:00,52.5,41.1,29.90,WNW,292,4.0,11.0,65,0.00,,,0.00,483,MyOwnSoftware,2013-04-23 08:36:00,
2013-04-23 09:37:00,52.6,40.8,29.90,SW,225,5.0,8.0,64,0.00,,,0.00,484,MyOwnSoftware,2013-04-23 08:37:00,
2013-04-23 09:38:00,52.8,41.0,29.90,NW,315,4.0,7.0,64,0.00,,,0.00,482,MyOwnSoftware,2013-04-23 08:38:00,
2013-04-23 09:39:00,52.9,41.1,29.90,SSW,202,4.0,7.0,64,0.00,,,0.00,486,MyOwnSoftware,2013-04-23 08:39:00,
2013-04-23 09:40:00,53.2,40.9,29.90,SSW,202,3.0,5.0,63,0.00,,,0.00,489,MyOwnSoftware,2013-04-23 08:40:00,
2013-04-23 09:41:00,53.3,40.6,29.90,West,270,4.0,6.0,62,0.00,,,0.00,497,MyOwnSoftware,2013-04-23 08:41:00,
2013-04-23 09:42:00,53.5,40.8,29.90,North,0,5.0,10.0,62,0.00,,,0.00,512,MyOwnSoftware,2013-04-23 08:42:00,
2013-04-23 09:43:00,53.6,40.9,29.90,WSW,248,6.0,11.0,62,0.00,,,0.00,512,MyOwnSoftware,2013-04-23 08:43:00,
2013-04-23 09:44:00,53.6,40.5,29.90,North,0,4.0,6.0,61,0.00,,,0.00,512,MyOwnSoftware,2013-04-23 08:44:00,
2013-04-23 09:45:00,53.8,40.2,29.91,SW,225,7.0,12.0,60,0.00,,,0.00,519,MyOwnSoftware,2013-04-23 08:45:00,
2013-04-23 09:46:00,53.9,40.8,29.91,WNW,292,3.0,6.0,61,0.00,,,0.00,525,MyOwnSoftware,2013-04-23 08:46:00,
2013-04-23 09:47:00,52.8,41.0,29.90,NW,315,4.0,7.0,64,0.00,,,0.00,482,MyOwnSoftware,2013-04-23 08:47:00,
2013-04-23 09:48:00,54.2,40.6,29.91,WSW,248,4.0,6.0,60,0.00,,,0.00,547,MyOwnSoftware,2013-04-23 08:48:00,
2013-04-23 09:49:00,54.2,40.2,29.91,SSW,202,8.0,12.0,59,0.00,,,0.00,533,MyOwnSoftware,2013-04-23 08:49:00,
2013-04-23 09:50:00,54.4,39.9,29.91,SSW,202,6.0,11.0,58,0.00,,,0.00,523,MyOwnSoftware,2013-04-23 08:50:00,
2013-04-23 09:51:00,54.5,40.0,29.91,North,0,4.0,10.0,58,0.00,,,0.00,523,MyOwnSoftware,2013-04-23 08:51:00,
2013-04-23 09:52:00,54.5,40.0,29.91,North,0,4.0,10.0,58,0.00,,,0.00,523,MyOwnSoftware,2013-04-23 08:52:00,
2013-04-23 09:53:00,54.5,40.0,29.91,SSW,202,9.0,20.0,58,0.00,,,0.00,523,MyOwnSoftware,2013-04-23 08:53:00,
2013-04-23 09:54:00,54.7,39.8,29.91,NW,315,4.0,6.0,57,0.00,,,0.00,523,MyOwnSoftware,2013-04-23 08:54:00,
2013-04-23 09:55:00,54.7,39.8,29.91,WSW,248,6.0,12.0,57,0.00,,,0.00,523,MyOwnSoftware,2013-04-23 08:55:00,
2013-04-23 09:56:00,54.7,39.8,29.91,SW,225,6.0,13.0,57,0.00,,,0.00,523,MyOwnSoftware,2013-04-23 08:56:00,
2013-04-23 09:57:00,54.5,39.6,29.91,North,0,7.0,16.0,57,0.00,,,0.00,104,MyOwnSoftware,2013-04-23 08:57:00,
2013-04-23 09:58:00,54.2,40.2,29.91,SSW,202,8.0,12.0,59,0.00,,,0.00,533,MyOwnSoftware,2013-04-23 08:58:00,
2013-04-23 09:59:00,54.4,39.5,29.91,SSW,202,6.0,13.0,57,0.00,,,0.00,533,MyOwnSoftware,2013-04-23 08:59:00,
2013-04-23 10:00:00,54.2,38.8,29.91,SSW,202,7.0,13.0,56,0.00,,,0.00,533,MyOwnSoftware,2013-04-23 09:00:00,
2013-04-23 10:01:00,54.2,39.3,29.91,North,0,5.0,8.0,57,0.00,,,0.00,130,MyOwnSoftware,2013-04-23 09:01:00,
2013-04-23 10:02:00,54.1,39.2,29.91,SSW,202,8.0,12.0,57,0.00,,,0.00,141,MyOwnSoftware,2013-04-23 09:02:00,
2013-04-23 10:03:00,53.9,39.0,29.91,SW,225,5.0,10.0,57,0.00,,,0.00,134,MyOwnSoftware,2013-04-23 09:03:00,
2013-04-23 10:04:00,53.8,39.0,29.91,West,280,5.0,-999.0,57,-99.99,,,0.00,135,weatherlink.com 1.10,2013-04-23 09:04:00,
2013-04-23 10:05:00,53.6,38.7,29.91,WSW,248,7.0,11.0,57,0.00,,,0.00,135,MyOwnSoftware,2013-04-23 09:05:00,
2013-04-23 10:06:00,53.6,38.7,29.91,South,180,6.0,11.0,57,0.00,,,0.00,173,MyOwnSoftware,2013-04-23 09:06:00,
2013-04-23 10:07:00,53.5,39.1,29.91,West,270,5.0,7.0,58,0.00,,,0.00,183,MyOwnSoftware,2013-04-23 09:07:00,
2013-04-23 10:08:00,53.5,39.1,29.91,WSW,248,6.0,14.0,58,0.00,,,0.00,183,MyOwnSoftware,2013-04-23 09:08:00,
2013-04-23 10:09:00,53.3,38.9,29.91,SSW,202,4.0,10.0,58,0.00,,,0.00,183,MyOwnSoftware,2013-04-23 09:09:00,
2013-04-23 10:10:00,53.3,38.9,29.91,NW,315,5.0,9.0,58,0.00,,,0.00,183,MyOwnSoftware,2013-04-23 09:10:00,
2013-04-23 10:11:00,53.5,39.1,29.91,North,0,5.0,8.0,58,0.00,,,0.00,510,MyOwnSoftware,2013-04-23 09:11:00,
2013-04-23 10:12:00,53.5,39.1,29.91,North,0,4.0,7.0,58,0.00,,,0.00,185,MyOwnSoftware,2013-04-23 09:12:00,
2013-04-23 10:13:00,53.5,39.1,29.91,SSW,202,6.0,11.0,58,0.00,,,0.00,185,MyOwnSoftware,2013-04-23 09:13:00,
2013-04-23 10:14:00,53.3,38.5,29.91,North,0,5.0,10.0,57,0.00,,,0.00,164,MyOwnSoftware,2013-04-23 09:14:00,
2013-04-23 10:15:00,53.3,38.9,29.92,SSW,202,5.0,7.0,58,0.00,,,0.00,128,MyOwnSoftware,2013-04-23 09:15:00,
2013-04-23 10:16:00,53.2,38.8,29.92,WSW,248,7.0,14.0,58,0.00,,,0.00,106,MyOwnSoftware,2013-04-23 09:16:00,
2013-04-23 10:17:00,53.2,38.8,29.92,WSW,248,6.0,10.0,58,0.00,,,0.00,106,MyOwnSoftware,2013-04-23 09:17:00,
2013-04-23 10:18:00,53.3,38.9,29.91,SSW,202,4.0,10.0,58,0.00,,,0.00,183,MyOwnSoftware,2013-04-23 09:18:00,
2013-04-23 10:19:00,53.3,38.9,29.92,WSW,248,4.0,7.0,58,0.00,,,0.00,412,MyOwnSoftware,2013-04-23 09:19:00,
2013-04-23 10:20:00,53.5,39.1,29.92,West,270,6.0,9.0,58,0.00,,,0.00,412,MyOwnSoftware,2013-04-23 09:20:00,
2013-04-23 10:21:00,53.5,39.1,29.92,West,270,6.0,11.0,58,0.00,,,0.00,412,MyOwnSoftware,2013-04-23 09:21:00,
2013-04-23 10:22:00,53.5,39.1,29.92,SSW,202,6.0,16.0,58,0.00,,,0.00,123,MyOwnSoftware,2013-04-23 09:22:00,
2013-04-23 10:23:00,53.5,39.1,29.92,SW,225,6.0,8.0,58,0.00,,,0.00,141,MyOwnSoftware,2013-04-23 09:23:00,
2013-04-23 10:24:00,53.5,39.5,29.92,SW,225,6.0,14.0,59,0.00,,,0.00,139,MyOwnSoftware,2013-04-23 09:24:00,
2013-04-23 10:25:00,53.5,39.5,29.92,SW,225,4.0,6.0,59,0.00,,,0.00,118,MyOwnSoftware,2013-04-23 09:25:00,
2013-04-23 10:26:00,53.3,39.3,29.92,NW,315,2.0,10.0,59,0.00,,,0.00,92,MyOwnSoftware,2013-04-23 09:26:00,
2013-04-23 10:27:00,53.3,39.8,29.92,North,0,5.0,8.0,60,0.00,,,0.00,91,MyOwnSoftware,2013-04-23 09:27:00,
2013-04-23 10:28:00,53.3,39.8,29.92,WNW,292,5.0,7.0,60,0.00,,,0.00,91,MyOwnSoftware,2013-04-23 09:28:00,
2013-04-23 10:29:00,53.2,39.7,29.92,SSW,202,4.0,10.0,60,0.00,,,0.00,91,MyOwnSoftware,2013-04-23 09:29:00,
2013-04-23 10:30:00,53.2,39.7,29.93,SW,225,5.0,13.0,60,0.00,,,0.00,199,MyOwnSoftware,2013-04-23 09:30:00,
2013-04-23 10:31:00,53.1,39.6,29.93,SW,225,4.0,9.0,60,0.00,,,0.00,181,MyOwnSoftware,2013-04-23 09:31:00,
2013-04-23 10:32:00,53.1,39.2,29.93,SW,225,5.0,11.0,59,0.00,,,0.00,183,MyOwnSoftware,2013-04-23 09:32:00,
2013-04-23 10:33:00,53.1,39.6,29.93,WNW,292,4.0,6.0,60,0.00,,,0.00,183,MyOwnSoftware,2013-04-23 09:33:00,
2013-04-23 10:34:00,53.1,39.0,29.93,WNW,296,4.0,-999.0,60,-99.99,,,0.00,183,weatherlink.com 1.10,2013-04-23 09:34:00,
2013-04-23 10:35:00,53.1,39.2,29.93,SW,225,6.0,14.0,59,0.00,,,0.00,183,MyOwnSoftware,2013-04-23 09:35:00,
2013-04-23 10:36:00,53.2,39.2,29.93,SW,225,5.0,8.0,59,0.00,,,0.00,183,MyOwnSoftware,2013-04-23 09:36:00,
2013-04-23 10:37:00,53.2,39.2,29.93,SW,225,4.0,8.0,59,0.00,,,0.00,183,MyOwnSoftware,2013-04-23 09:37:00,
2013-04-23 10:38:00,53.3,39.3,29.93,South,180,6.0,10.0,59,0.00,,,0.00,153,MyOwnSoftware,2013-04-23 09:38:00,
2013-04-23 10:39:00,53.3,39.3,29.93,SW,225,5.0,10.0,59,0.00,,,0.00,169,MyOwnSoftware,2013-04-23 09:39:00,
2013-04-23 10:40:00,53.3,39.3,29.93,SSW,202,7.0,12.0,59,0.00,,,0.00,174,MyOwnSoftware,2013-04-23 09:40:00,
2013-04-23 10:41:00,53.3,39.3,29.93,SSW,202,8.0,11.0,59,0.00,,,0.00,239,MyOwnSoftware,2013-04-23 09:41:00,
2013-04-23 10:42:00,53.3,38.9,29.93,SSW,202,7.0,16.0,58,0.00,,,0.00,236,MyOwnSoftware,2013-04-23 09:42:00,
2013-04-23 10:43:00,53.3,38.9,29.93,WSW,248,7.0,11.0,58,0.00,,,0.00,223,MyOwnSoftware,2013-04-23 09:43:00,
2013-04-23 10:44:00,53.3,38.9,29.93,SW,225,7.0,10.0,58,0.00,,,0.00,216,MyOwnSoftware,2013-04-23 09:44:00,
2013-04-23 10:45:00,53.2,39.2,29.93,SW,225,7.0,16.0,59,0.00,,,0.00,216,MyOwnSoftware,2013-04-23 09:45:00,
2013-04-23 10:46:00,53.2,39.2,29.93,WSW,248,6.0,14.0,59,0.00,,,0.00,167,MyOwnSoftware,2013-04-23 09:46:00,
2013-04-23 10:47:00,53.3,39.3,29.93,South,180,6.0,10.0,59,0.00,,,0.00,153,MyOwnSoftware,2013-04-23 09:47:00,
2013-04-23 10:48:00,53.2,39.2,29.93,WNW,292,5.0,7.0,59,0.00,,,0.00,167,MyOwnSoftware,2013-04-23 09:48:00,
2013-04-23 10:49:00,53.2,38.8,29.93,North,0,5.0,7.0,58,0.00,,,0.00,385,MyOwnSoftware,2013-04-23 09:49:00,
2013-04-23 10:50:00,53.3,38.9,29.93,SSW,202,5.0,10.0,58,0.00,,,0.00,371,MyOwnSoftware,2013-04-23 09:50:00,
2013-04-23 10:51:00,53.3,38.9,29.93,SW,225,5.0,8.0,58,0.00,,,0.00,396,MyOwnSoftware,2013-04-23 09:51:00,
2013-04-23 10:52:00,53.5,39.1,29.93,SW,225,7.0,13.0,58,0.00,,,0.00,396,MyOwnSoftware,2013-04-23 09:52:00,
2013-04-23 10:53:00,53.5,39.1,29.93,SSW,202,8.0,17.0,58,0.00,,,0.00,232,MyOwnSoftware,2013-04-23 09:53:00,
2013-04-23 10:54:00,53.5,39.1,29.93,SW,225,6.0,14.0,58,0.00,,,0.00,253,MyOwnSoftware,2013-04-23 09:54:00,
2013-04-23 10:55:00,53.6,39.2,29.93,SSW,202,4.0,10.0,58,0.00,,,0.00,204,MyOwnSoftware,2013-04-23 09:55:00,
2013-04-23 10:56:00,53.6,38.7,29.93,NW,315,6.0,10.0,57,0.00,,,0.00,238,MyOwnSoftware,2013-04-23 09:56:00,
2013-04-23 10:57:00,53.2,39.2,29.93,WNW,292,5.0,7.0,59,0.00,,,0.00,167,MyOwnSoftware,2013-04-23 09:57:00,
2013-04-23 10:58:00,53.6,38.7,29.93,SSW,202,5.0,13.0,57,0.00,,,0.00,294,MyOwnSoftware,2013-04-23 09:58:00,
2013-04-23 10:59:00,53.6,38.7,29.93,South,180,7.0,10.0,57,0.00,,,0.00,218,MyOwnSoftware,2013-04-23 09:59:00,
2013-04-23 11:00:00,53.6,38.7,29.94,SSW,202,8.0,16.0,57,0.00,,,0.00,218,MyOwnSoftware,2013-04-23 10:00:00,
2013-04-23 11:01:00,53.8,38.5,29.94,SW,225,8.0,13.0,56,0.00,,,0.00,218,MyOwnSoftware,2013-04-23 10:01:00,
2013-04-23 11:02:00,53.9,39.0,29.94,West,270,5.0,12.0,57,0.00,,,0.00,218,MyOwnSoftware,2013-04-23 10:02:00,
2013-04-23 11:03:00,53.9,38.6,29.94,North,0,5.0,12.0,56,0.00,,,0.00,218,MyOwnSoftware,2013-04-23 10:03:00,
2013-04-23 11:04:00,54.1,39.0,29.94,SW,215,7.0,-999.0,56,-99.99,,,0.00,157,weatherlink.com 1.10,2013-04-23 10:04:00,
2013-04-23 11:05:00,54.1,38.8,29.94,SW,225,5.0,11.0,56,0.00,,,0.00,157,MyOwnSoftware,2013-04-23 10:05:00,
2013-04-23 11:06:00,54.1,39.2,29.94,West,270,6.0,13.0,57,0.00,,,0.00,157,MyOwnSoftware,2013-04-23 10:06:00,
2013-04-23 11:07:00,54.2,39.3,29.94,SSW,202,8.0,15.0,57,0.00,,,0.00,157,MyOwnSoftware,2013-04-23 10:07:00,
2013-04-23 11:08:00,54.2,39.3,29.94,SW,225,9.0,14.0,57,0.00,,,0.00,248,MyOwnSoftware,2013-04-23 10:08:00,
2013-04-23 11:09:00,54.2,38.8,29.94,SW,225,7.0,13.0,56,0.00,,,0.00,230,MyOwnSoftware,2013-04-23 10:09:00,
2013-04-23 11:10:00,54.2,38.8,29.94,North,0,5.0,8.0,56,0.00,,,0.00,204,MyOwnSoftware,2013-04-23 10:10:00,
2013-04-23 11:11:00,54.2,39.3,29.94,NW,315,5.0,10.0,57,0.00,,,0.00,215,MyOwnSoftware,2013-04-23 10:11:00,
2013-04-23 11:12:00,54.1,39.2,29.94,WSW,248,6.0,11.0,57,0.00,,,0.00,225,MyOwnSoftware,2013-04-23 10:12:00,
2013-04-23 11:13:00,54.1,39.2,29.94,West,270,5.0,8.0,57,0.00,,,0.00,225,MyOwnSoftware,2013-04-23 10:13:00,
2013-04-23 11:14:00,54.1,39.2,29.94,WSW,248,5.0,10.0,57,0.00,,,0.00,225,MyOwnSoftware,2013-04-23 10:14:00,
2013-04-23 11:15:00,54.2,39.3,29.94,North,0,5.0,7.0,57,0.00,,,0.00,225,MyOwnSoftware,2013-04-23 10:15:00,
2013-04-23 11:16:00,54.2,38.8,29.94,WNW,292,4.0,7.0,56,0.00,,,0.00,361,MyOwnSoftware,2013-04-23 10:16:00,
2013-04-23 11:17:00,54.2,39.3,29.94,SW,225,9.0,14.0,57,0.00,,,0.00,248,MyOwnSoftware,2013-04-23 10:17:00,
2013-04-23 11:18:00,54.4,39.5,29.94,WNW,292,6.0,12.0,57,0.00,,,0.00,361,MyOwnSoftware,2013-04-23 10:18:00,
2013-04-23 11:19:00,54.5,39.6,29.94,SW,225,7.0,12.0,57,0.00,,,0.00,361,MyOwnSoftware,2013-04-23 10:19:00,
2013-04-23 11:20:00,54.5,39.1,29.94,South,180,5.0,7.0,56,0.00,,,0.00,776,MyOwnSoftware,2013-04-23 10:20:00,
2013-04-23 11:21:00,54.7,39.3,29.94,North,0,7.0,13.0,56,0.00,,,0.00,776,MyOwnSoftware,2013-04-23 10:21:00,
2013-04-23 11:22:00,54.7,38.9,29.94,North,0,7.0,11.0,55,0.00,,,0.00,776,MyOwnSoftware,2013-04-23 10:22:00,
2013-04-23 11:23:00,54.7,38.9,29.94,WSW,248,4.0,10.0,55,0.00,,,0.00,776,MyOwnSoftware,2013-04-23 10:23:00,
2013-04-23 11:24:00,54.7,38.9,29.94,West,270,6.0,11.0,55,0.00,,,0.00,776,MyOwnSoftware,2013-04-23 10:24:00,
2013-04-23 11:25:00,54.7,38.9,29.94,North,0,0.0,0.0,55,0.00,,,0.00,776,MyOwnSoftware,2013-04-23 10:25:00,
2013-04-23 11:26:00,54.7,39.3,29.94,West,270,11.0,20.0,56,0.00,,,0.00,776,MyOwnSoftware,2013-04-23 10:26:00,
2013-04-23 11:27:00,54.7,39.3,29.94,North,0,9.0,16.0,56,0.00,,,0.00,776,MyOwnSoftware,2013-04-23 10:27:00,
2013-04-23 11:28:00,54.7,39.3,29.94,West,270,7.0,13.0,56,0.00,,,0.00,776,MyOwnSoftware,2013-04-23 10:28:00,
2013-04-23 11:29:00,54.7,39.3,29.94,WNW,292,5.0,8.0,56,0.00,,,0.00,776,MyOwnSoftware,2013-04-23 10:29:00,
2013-04-23 11:30:00,54.7,39.3,29.94,WNW,292,4.0,6.0,56,0.00,,,0.00,776,MyOwnSoftware,2013-04-23 10:30:00,
2013-04-23 11:31:00,54.7,39.3,29.94,North,0,5.0,12.0,56,0.00,,,0.00,186,MyOwnSoftware,2013-04-23 10:31:00,
2013-04-23 11:32:00,54.7,39.8,29.94,North,0,5.0,10.0,57,0.00,,,0.00,243,MyOwnSoftware,2013-04-23 10:32:00,
2013-04-23 11:33:00,54.7,39.8,29.94,North,0,6.0,11.0,57,0.00,,,0.00,239,MyOwnSoftware,2013-04-23 10:33:00,
2013-04-23 11:34:00,54.5,39.0,29.94,SSW,198,12.0,-999.0,57,-99.99,,,0.00,239,weatherlink.com 1.10,2013-04-23 10:34:00,
2013-04-23 11:35:00,54.5,39.6,29.94,West,270,6.0,12.0,57,0.00,,,0.00,239,MyOwnSoftware,2013-04-23 10:35:00,
2013-04-23 11:36:00,54.5,40.0,29.94,WSW,248,6.0,10.0,58,0.00,,,0.00,239,MyOwnSoftware,2013-04-23 10:36:00,
2013-04-23 11:37:00,54.7,39.8,29.94,SW,225,7.0,16.0,57,0.00,,,0.00,285,MyOwnSoftware,2013-04-23 10:37:00,
2013-04-23 11:38:00,54.7,39.8,29.94,West,270,8.0,16.0,57,0.00,,,0.00,304,MyOwnSoftware,2013-04-23 10:38:00,
2013-04-23 11:39:00,54.7,39.3,29.94,WNW,292,4.0,6.0,56,0.00,,,0.00,776,MyOwnSoftware,2013-04-23 10:39:00,
2013-04-23 11:40:00,54.7,39.8,29.94,SSW,202,5.0,10.0,57,0.00,,,0.00,326,MyOwnSoftware,2013-04-23 10:40:00,
2013-04-23 11:41:00,54.7,40.2,29.94,West,270,3.0,6.0,58,0.00,,,0.00,260,MyOwnSoftware,2013-04-23 10:41:00,
2013-04-23 11:42:00,54.7,40.2,29.94,SW,225,5.0,11.0,58,0.00,,,0.00,260,MyOwnSoftware,2013-04-23 10:42:00,
2013-04-23 11:43:00,54.8,40.3,29.94,SSW,202,4.0,7.0,58,0.00,,,0.00,287,MyOwnSoftware,2013-04-23 10:43:00,
2013-04-23 11:44:00,54.8,40.3,29.94,NNW,338,3.0,6.0,58,0.00,,,0.00,283,MyOwnSoftware,2013-04-23 10:44:00,
2013-04-23 11:45:00,54.8,40.3,29.95,NNW,338,4.0,8.0,58,0.00,,,0.00,299,MyOwnSoftware,2013-04-23 10:45:00,
2013-04-23 11:46:00,54.8,40.3,29.95,WNW,292,1.0,7.0,58,0.00,,,0.00,313,MyOwnSoftware,2013-04-23 10:46:00,
2013-04-23 11:47:00,54.7,39.8,29.94,West,270,8.0,16.0,57,0.00,,,0.00,304,MyOwnSoftware,2013-04-23 10:47:00,
2013-04-23 11:48:00,55.0,41.4,29.95,SW,225,4.0,10.0,60,0.00,,,0.00,169,MyOwnSoftware,2013-04-23 10:48:00,
2013-04-23 11:49:00,55.0,41.8,29.95,WSW,248,3.0,6.0,61,0.00,,,0.00,157,MyOwnSoftware,2013-04-23 10:49:00,
2013-04-23 11:50:00,54.8,42.0,29.95,West,270,4.0,8.0,62,0.00,,,0.00,143,MyOwnSoftware,2013-04-23 10:50:00,
2013-04-23 11:51:00,54.8,43.3,29.95,West,270,3.0,7.0,65,0.00,,,0.00,162,MyOwnSoftware,2013-04-23 10:51:00,
2013-04-23 11:52:00,54.5,43.8,29.95,North,0,3.0,6.0,67,0.00,,,0.00,151,MyOwnSoftware,2013-04-23 10:52:00,
2013-04-23 11:53:00,54.2,44.3,29.95,WNW,292,5.0,9.0,69,0.00,,,0.00,139,MyOwnSoftware,2013-04-23 10:53:00,
2013-04-23 11:54:00,53.9,44.3,29.95,North,0,6.0,10.0,70,0.00,,,0.00,139,MyOwnSoftware,2013-04-23 10:54:00,
2013-04-23 11:55:00,53.5,44.3,29.95,NNW,338,6.0,12.0,71,0.00,,,0.00,172,MyOwnSoftware,2013-04-23 10:55:00,
2013-04-23 11:56:00,55.0,40.9,29.95,WSW,248,4.0,7.0,59,0.00,,,0.00,313,MyOwnSoftware,2013-04-23 10:56:00,
2013-04-23 11:57:00,52.8,44.4,29.95,West,270,5.0,13.0,73,0.00,,,0.00,241,MyOwnSoftware,2013-04-23 10:57:00,
2013-04-23 11:58:00,52.5,44.5,29.95,North,0,5.0,10.0,74,0.00,,,0.00,241,MyOwnSoftware,2013-04-23 10:58:00,
2013-04-23 11:59:00,52.3,44.6,29.95,North,0,6.0,14.0,75,0.00,,,0.00,396,MyOwnSoftware,2013-04-23 10:59:00,
2013-04-23 12:00:00,52.2,45.2,29.96,WNW,292,6.0,10.0,77,0.00,,,0.00,396,MyOwnSoftware,2013-04-23 11:00:00,
2013-04-23 12:01:00,51.9,44.9,29.96,SW,225,5.0,10.0,77,0.00,,,0.00,209,MyOwnSoftware,2013-04-23 11:01:00,
2013-04-23 12:02:00,51.9,45.3,29.96,WSW,248,5.0,8.0,78,0.00,,,0.00,209,MyOwnSoftware,2013-04-23 11:02:00,
2013-04-23 12:03:00,51.7,45.1,29.96,SW,225,7.0,12.0,78,0.00,,,0.00,209,MyOwnSoftware,2013-04-23 11:03:00,
2013-04-23 12:04:00,51.6,45.0,29.96,North,354,5.0,-999.0,77,-99.99,,,0.00,209,weatherlink.com 1.10,2013-04-23 11:04:00,
2013-04-23 12:05:00,51.6,44.6,29.96,West,270,6.0,10.0,77,0.00,,,0.00,209,MyOwnSoftware,2013-04-23 11:05:00,
2013-04-23 12:06:00,51.6,44.6,29.96,West,270,5.0,10.0,77,0.00,,,0.00,703,MyOwnSoftware,2013-04-23 11:06:00,
2013-04-23 12:07:00,51.6,44.6,29.96,SW,225,7.0,11.0,77,0.00,,,0.00,697,MyOwnSoftware,2013-04-23 11:07:00,
2013-04-23 12:08:00,51.7,44.4,29.96,SSW,202,4.0,11.0,76,0.00,,,0.00,711,MyOwnSoftware,2013-04-23 11:08:00,
2013-04-23 12:09:00,51.9,44.9,29.96,SSW,202,9.0,14.0,77,0.00,,,0.00,693,MyOwnSoftware,2013-04-23 11:09:00,
2013-04-23 12:10:00,52.0,44.3,29.96,West,270,6.0,13.0,75,0.00,,,0.00,691,MyOwnSoftware,2013-04-23 11:10:00,
2013-04-23 12:11:00,52.2,44.5,29.96,WSW,248,5.0,8.0,75,0.00,,,0.00,688,MyOwnSoftware,2013-04-23 11:11:00,
2013-04-23 12:12:00,52.3,44.6,29.96,North,0,5.0,12.0,75,0.00,,,0.00,686,MyOwnSoftware,2013-04-23 11:12:00,
2013-04-23 12:13:00,52.5,44.5,29.96,SW,225,10.0,21.0,74,0.00,,,0.00,688,MyOwnSoftware,2013-04-23 11:13:00,
2013-04-23 12:14:00,52.6,43.8,29.96,West,270,7.0,16.0,72,0.00,,,0.00,684,MyOwnSoftware,2013-04-23 11:14:00,
2013-04-23 12:15:00,52.8,43.3,29.96,NNW,338,6.0,13.0,70,0.00,,,0.00,691,MyOwnSoftware,2013-04-23 11:15:00,
2013-04-23 12:16:00,52.8,42.9,29.96,NW,315,5.0,8.0,69,0.00,,,0.00,708,MyOwnSoftware,2013-04-23 11:16:00,
2013-04-23 12:17:00,51.7,44.4,29.96,SSW,202,4.0,11.0,76,0.00,,,0.00,711,MyOwnSoftware,2013-04-23 11:17:00,
2013-04-23 12:18:00,53.1,42.4,29.96,NNE,22,5.0,7.0,67,0.00,,,0.00,714,MyOwnSoftware,2013-04-23 11:18:00,
2013-04-23 12:19:00,53.2,42.9,29.96,NNE,22,6.0,8.0,68,0.00,,,0.00,714,MyOwnSoftware,2013-04-23 11:19:00,
2013-04-23 12:20:00,53.3,42.6,29.96,North,0,5.0,11.0,67,0.00,,,0.00,714,MyOwnSoftware,2013-04-23 11:20:00,
2013-04-23 12:21:00,53.3,42.2,29.96,SW,225,6.0,11.0,66,0.00,,,0.00,199,MyOwnSoftware,2013-04-23 11:21:00,
2013-04-23 12:22:00,53.5,42.0,29.96,North,0,6.0,11.0,65,0.00,,,0.00,216,MyOwnSoftware,2013-04-23 11:22:00,
2013-04-23 12:23:00,53.5,42.0,29.96,NNE,22,7.0,12.0,65,0.00,,,0.00,216,MyOwnSoftware,2013-04-23 11:23:00,
2013-04-23 12:24:00,53.3,41.4,29.96,West,270,5.0,12.0,64,0.00,,,0.00,134,MyOwnSoftware,2013-04-23 11:24:00,
2013-04-23 12:25:00,53.3,41.8,29.96,West,270,4.0,8.0,65,0.00,,,0.00,134,MyOwnSoftware,2013-04-23 11:25:00,
2013-04-23 12:26:00,53.3,41.4,29.96,WNW,292,6.0,12.0,64,0.00,,,0.00,240,MyOwnSoftware,2013-04-23 11:26:00,
2013-04-23 12:27:00,53.2,40.9,29.96,North,0,7.0,11.0,63,0.00,,,0.00,267,MyOwnSoftware,2013-04-23 11:27:00,
2013-04-23 12:28:00,53.2,40.9,29.96,West,270,9.0,18.0,63,0.00,,,0.00,241,MyOwnSoftware,2013-04-23 11:28:00,
2013-04-23 12:29:00,53.2,40.9,29.96,North,0,7.0,14.0,63,0.00,,,0.00,222,MyOwnSoftware,2013-04-23 11:29:00,
2013-04-23 12:30:00,53.2,40.5,29.95,North,0,7.0,11.0,62,0.00,,,0.00,264,MyOwnSoftware,2013-04-23 11:30:00,
2013-04-23 12:31:00,53.2,40.9,29.95,North,0,4.0,6.0,63,0.00,,,0.00,264,MyOwnSoftware,2013-04-23 11:31:00,
2013-04-23 12:32:00,53.3,40.6,29.95,SW,225,6.0,9.0,62,0.00,,,0.00,264,MyOwnSoftware,2013-04-23 11:32:00,
2013-04-23 12:33:00,53.5,41.2,29.95,North,0,4.0,7.0,63,0.00,,,0.00,264,MyOwnSoftware,2013-04-23 11:33:00,
2013-04-23 12:34:00,53.5,41.2,29.95,North,0,5.0,7.0,63,0.00,,,0.00,264,MyOwnSoftware,2013-04-23 11:34:00,
2013-04-23 12:35:00,53.6,41.0,29.95,SSW,192,3.0,-999.0,62,-99.99,,,0.00,264,weatherlink.com 1.10,2013-04-23 11:35:00,
2013-04-23 12:36:00,53.8,41.1,29.95,SSW,202,4.0,7.0,62,0.00,,,0.00,157,MyOwnSoftware,2013-04-23 11:36:00,
2013-04-23 12:37:00,53.8,41.1,29.95,WNW,292,4.0,10.0,62,0.00,,,0.00,160,MyOwnSoftware,2013-04-23 11:37:00,
2013-04-23 12:38:00,53.8,40.7,29.95,NNE,22,5.0,9.0,61,0.00,,,0.00,160,MyOwnSoftware,2013-04-23 11:38:00,
2013-04-23 12:39:00,53.9,40.8,29.95,North,0,5.0,12.0,61,0.00,,,0.00,160,MyOwnSoftware,2013-04-23 11:39:00,
2013-04-23 12:40:00,53.9,40.3,29.95,WSW,248,5.0,11.0,60,0.00,,,0.00,160,MyOwnSoftware,2013-04-23 11:40:00,
2013-04-23 12:41:00,53.9,40.3,29.95,West,270,3.0,6.0,60,0.00,,,0.00,160,MyOwnSoftware,2013-04-23 11:41:00,
2013-04-23 12:42:00,54.1,40.5,29.95,NW,315,3.0,7.0,60,0.00,,,0.00,160,MyOwnSoftware,2013-04-23 11:42:00,
2013-04-23 12:43:00,54.1,40.1,29.95,North,0,5.0,17.0,59,0.00,,,0.00,160,MyOwnSoftware,2013-04-23 11:43:00,
2013-04-23 12:44:00,54.1,40.1,29.95,North,0,6.0,16.0,59,0.00,,,0.00,151,MyOwnSoftware,2013-04-23 11:44:00,
2013-04-23 12:45:00,54.1,39.7,29.96,SW,225,5.0,11.0,58,0.00,,,0.00,151,MyOwnSoftware,2013-04-23 11:45:00,
2013-04-23 12:46:00,54.2,39.7,29.96,SW,225,4.0,8.0,58,0.00,,,0.00,844,MyOwnSoftware,2013-04-23 11:46:00,
2013-04-23 12:47:00,53.8,40.7,29.95,NNE,22,5.0,9.0,61,0.00,,,0.00,160,MyOwnSoftware,2013-04-23 11:47:00,
2013-04-23 12:48:00,54.5,39.6,29.96,SW,225,5.0,10.0,57,0.00,,,0.00,764,MyOwnSoftware,2013-04-23 11:48:00,
2013-04-23 12:49:00,54.5,40.0,29.96,WNW,292,5.0,11.0,58,0.00,,,0.00,764,MyOwnSoftware,2013-04-23 11:49:00,
2013-04-23 12:50:00,54.7,39.3,29.96,WNW,292,8.0,13.0,56,0.00,,,0.00,764,MyOwnSoftware,2013-04-23 11:50:00,
2013-04-23 12:51:00,54.8,39.4,29.96,North,0,8.0,20.0,56,0.00,,,0.00,758,MyOwnSoftware,2013-04-23 11:51:00,
2013-04-23 12:52:00,54.8,39.4,29.96,WNW,292,5.0,8.0,56,0.00,,,0.00,758,MyOwnSoftware,2013-04-23 11:52:00,
2013-04-23 12:53:00,55.0,39.6,29.96,SW,225,7.0,11.0,56,0.00,,,0.00,769,MyOwnSoftware,2013-04-23 11:53:00,
2013-04-23 12:54:00,55.1,39.2,29.96,South,180,7.0,16.0,55,0.00,,,0.00,769,MyOwnSoftware,2013-04-23 11:54:00,
2013-04-23 12:55:00,55.3,38.5,29.96,WSW,248,7.0,14.0,53,0.00,,,0.00,769,MyOwnSoftware,2013-04-23 11:55:00,
2013-04-23 12:56:00,55.3,38.5,29.96,NNE,22,7.0,11.0,53,0.00,,,0.00,297,MyOwnSoftware,2013-04-23 11:56:00,
2013-04-23 12:57:00,54.5,39.6,29.96,SW,225,5.0,10.0,57,0.00,,,0.00,764,MyOwnSoftware,2013-04-23 11:57:00,
2013-04-23 12:58:00,55.3,38.5,29.96,West,270,6.0,7.0,53,0.00,,,0.00,794,MyOwnSoftware,2013-04-23 11:58:00,
2013-04-23 12:59:00,55.3,38.5,29.96,North,0,6.0,11.0,53,0.00,,,0.00,794,MyOwnSoftware,2013-04-23 11:59:00,
2013-04-23 13:00:00,55.3,38.5,29.97,South,180,7.0,10.0,53,0.00,,,0.00,794,MyOwnSoftware,2013-04-23 12:00:00,
2013-04-23 13:01:00,55.4,38.6,29.97,SW,225,5.0,10.0,53,0.00,,,0.00,824,MyOwnSoftware,2013-04-23 12:01:00,
2013-04-23 13:02:00,55.4,38.6,29.97,WNW,292,6.0,8.0,53,0.00,,,0.00,845,MyOwnSoftware,2013-04-23 12:02:00,
2013-04-23 13:03:00,55.6,38.7,29.97,North,0,7.0,14.0,53,0.00,,,0.00,216,MyOwnSoftware,2013-04-23 12:03:00,
2013-04-23 13:04:00,55.6,38.0,29.97,North,8,8.0,-999.0,51,-99.99,,,0.00,774,weatherlink.com 1.10,2013-04-23 12:04:00,
2013-04-23 13:05:00,55.6,37.8,29.97,WSW,248,8.0,14.0,51,0.00,,,0.00,774,MyOwnSoftware,2013-04-23 12:05:00,
2013-04-23 13:06:00,55.6,37.8,29.97,SSW,202,7.0,13.0,51,0.00,,,0.00,823,MyOwnSoftware,2013-04-23 12:06:00,
2013-04-23 13:07:00,55.7,37.9,29.97,SW,225,7.0,12.0,51,0.00,,,0.00,134,MyOwnSoftware,2013-04-23 12:07:00,
2013-04-23 13:08:00,55.7,37.9,29.97,West,270,6.0,17.0,51,0.00,,,0.00,134,MyOwnSoftware,2013-04-23 12:08:00,
2013-04-23 13:09:00,55.7,37.9,29.97,North,0,8.0,14.0,51,0.00,,,0.00,771,MyOwnSoftware,2013-04-23 12:09:00,
2013-04-23 13:10:00,55.7,37.3,29.97,WSW,248,6.0,9.0,50,0.00,,,0.00,774,MyOwnSoftware,2013-04-23 12:10:00,
2013-04-23 13:11:00,55.9,37.5,29.97,North,0,6.0,9.0,50,0.00,,,0.00,774,MyOwnSoftware,2013-04-23 12:11:00,
2013-04-23 13:12:00,55.9,37.5,29.97,SW,225,7.0,16.0,50,0.00,,,0.00,171,MyOwnSoftware,2013-04-23 12:12:00,
2013-04-23 13:13:00,55.7,37.9,29.97,WSW,248,7.0,19.0,51,0.00,,,0.00,162,MyOwnSoftware,2013-04-23 12:13:00,
2013-04-23 13:14:00,55.7,37.3,29.97,SW,225,7.0,11.0,50,0.00,,,0.00,162,MyOwnSoftware,2013-04-23 12:14:00,
2013-04-23 13:15:00,55.7,37.9,29.97,SW,225,6.0,11.0,51,0.00,,,0.00,278,MyOwnSoftware,2013-04-23 12:15:00,
2013-04-23 13:16:00,55.7,37.9,29.97,West,270,6.0,8.0,51,0.00,,,0.00,373,MyOwnSoftware,2013-04-23 12:16:00,
2013-04-23 13:17:00,55.7,38.3,29.97,North,0,6.0,12.0,52,0.00,,,0.00,373,MyOwnSoftware,2013-04-23 12:17:00,
2013-04-23 13:18:00,55.7,37.9,29.97,North,0,8.0,14.0,51,0.00,,,0.00,771,MyOwnSoftware,2013-04-23 12:18:00,
2013-04-23 13:19:00,55.7,38.3,29.97,West,270,6.0,10.0,52,0.00,,,0.00,225,MyOwnSoftware,2013-04-23 12:19:00,
2013-04-23 13:20:00,55.6,38.3,29.97,NW,315,5.0,8.0,52,0.00,,,0.00,225,MyOwnSoftware,2013-04-23 12:20:00,
2013-04-23 13:21:00,55.6,38.3,29.97,SW,225,7.0,12.0,52,0.00,,,0.00,225,MyOwnSoftware,2013-04-23 12:21:00,
2013-04-23 13:22:00,55.7,38.3,29.97,SSW,202,6.0,12.0,52,0.00,,,0.00,225,MyOwnSoftware,2013-04-23 12:22:00,
2013-04-23 13:23:00,55.7,38.3,29.97,North,0,6.0,11.0,52,0.00,,,0.00,225,MyOwnSoftware,2013-04-23 12:23:00,
2013-04-23 13:24:00,55.7,37.9,29.97,SW,225,6.0,11.0,51,0.00,,,0.00,229,MyOwnSoftware,2013-04-23 12:24:00,
2013-04-23 13:25:00,55.7,38.3,29.97,North,0,5.0,11.0,52,0.00,,,0.00,227,MyOwnSoftware,2013-04-23 12:25:00,
2013-04-23 13:26:00,55.7,38.3,29.97,SW,225,7.0,13.0,52,0.00,,,0.00,220,MyOwnSoftware,2013-04-23 12:26:00,
2013-04-23 13:27:00,55.7,38.3,29.97,West,270,3.0,8.0,52,0.00,,,0.00,220,MyOwnSoftware,2013-04-23 12:27:00,
2013-04-23 13:28:00,55.7,38.3,29.97,WNW,292,5.0,7.0,52,0.00,,,0.00,239,MyOwnSoftware,2013-04-23 12:28:00,
2013-04-23 13:29:00,55.7,38.3,29.97,SW,225,5.0,10.0,52,0.00,,,0.00,239,MyOwnSoftware,2013-04-23 12:29:00,
2013-04-23 13:30:00,55.9,39.0,29.98,SW,225,6.0,11.0,53,0.00,,,0.00,239,MyOwnSoftware,2013-04-23 12:30:00,
2013-04-23 13:31:00,55.9,39.0,29.98,SSW,202,8.0,14.0,53,0.00,,,0.00,855,MyOwnSoftware,2013-04-23 12:31:00,
2013-04-23 13:32:00,56.0,39.1,29.98,SSW,202,7.0,14.0,53,0.00,,,0.00,883,MyOwnSoftware,2013-04-23 12:32:00,
2013-04-23 13:33:00,56.2,39.3,29.98,SSW,202,8.0,17.0,53,0.00,,,0.00,880,MyOwnSoftware,2013-04-23 12:33:00,
2013-04-23 13:34:00,56.3,39.0,29.98,SSW,212,10.0,-999.0,52,-99.99,,,0.00,848,weatherlink.com 1.10,2013-04-23 12:34:00,
2013-04-23 13:35:00,56.5,38.6,29.98,SSW,202,7.0,12.0,51,0.00,,,0.00,848,MyOwnSoftware,2013-04-23 12:35:00,
2013-04-23 13:36:00,56.6,38.7,29.98,SW,225,8.0,12.0,51,0.00,,,0.00,825,MyOwnSoftware,2013-04-23 12:36:00,
2013-04-23 13:37:00,56.7,39.3,29.98,WSW,248,7.0,13.0,52,0.00,,,0.00,804,MyOwnSoftware,2013-04-23 12:37:00,
2013-04-23 13:38:00,56.9,39.0,29.98,SSW,202,8.0,14.0,51,0.00,,,0.00,813,MyOwnSoftware,2013-04-23 12:38:00,
2013-04-23 13:39:00,57.0,38.5,29.98,SW,225,9.0,13.0,50,0.00,,,0.00,790,MyOwnSoftware,2013-04-23 12:39:00,
2013-04-23 13:40:00,57.2,39.2,29.98,SSW,202,5.0,14.0,51,0.00,,,0.00,764,MyOwnSoftware,2013-04-23 12:40:00,
2013-04-23 13:41:00,57.3,38.8,29.98,SSW,202,6.0,9.0,50,0.00,,,0.00,755,MyOwnSoftware,2013-04-23 12:41:00,
2013-04-23 13:42:00,57.3,38.8,29.98,SW,225,7.0,10.0,50,0.00,,,0.00,734,MyOwnSoftware,2013-04-23 12:42:00,
2013-04-23 13:43:00,57.3,38.8,29.98,SSW,202,7.0,13.0,50,0.00,,,0.00,735,MyOwnSoftware,2013-04-23 12:43:00,
2013-04-23 13:44:00,57.5,39.0,29.98,SSW,202,5.0,8.0,50,0.00,,,0.00,746,MyOwnSoftware,2013-04-23 12:44:00,
2013-04-23 13:45:00,57.5,39.5,29.98,North,0,5.0,12.0,51,0.00,,,0.00,755,MyOwnSoftware,2013-04-23 12:45:00,
2013-04-23 13:46:00,57.3,39.8,29.98,North,0,5.0,12.0,52,0.00,,,0.00,755,MyOwnSoftware,2013-04-23 12:46:00,
2013-04-23 13:47:00,56.9,39.0,29.98,SSW,202,8.0,14.0,51,0.00,,,0.00,813,MyOwnSoftware,2013-04-23 12:47:00,
2013-04-23 13:48:00,57.3,39.3,29.98,SSW,202,9.0,15.0,51,0.00,,,0.00,765,MyOwnSoftware,2013-04-23 12:48:00,
2013-04-23 13:49:00,57.3,39.3,29.98,WSW,248,7.0,19.0,51,0.00,,,0.00,781,MyOwnSoftware,2013-04-23 12:49:00,
2013-04-23 13:50:00,57.3,39.3,29.98,SSW,202,9.0,17.0,51,0.00,,,0.00,806,MyOwnSoftware,2013-04-23 12:50:00,
2013-04-23 13:51:00,57.2,39.2,29.98,SW,225,7.0,14.0,51,0.00,,,0.00,801,MyOwnSoftware,2013-04-23 12:51:00,
2013-04-23 13:52:00,57.2,39.2,29.98,SW,225,7.0,11.0,51,0.00,,,0.00,792,MyOwnSoftware,2013-04-23 12:52:00,
2013-04-23 13:53:00,57.2,39.2,29.98,SSW,202,4.0,8.0,51,0.00,,,0.00,792,MyOwnSoftware,2013-04-23 12:53:00,
2013-04-23 13:54:00,57.3,39.8,29.98,WNW,292,5.0,13.0,52,0.00,,,0.00,802,MyOwnSoftware,2013-04-23 12:54:00,
2013-04-23 13:55:00,57.3,39.8,29.98,SSW,202,9.0,13.0,52,0.00,,,0.00,802,MyOwnSoftware,2013-04-23 12:55:00,
2013-04-23 13:56:00,57.3,39.3,29.98,SW,225,7.0,18.0,51,0.00,,,0.00,767,MyOwnSoftware,2013-04-23 12:56:00,
2013-04-23 13:57:00,57.3,39.3,29.98,SW,225,10.0,19.0,51,0.00,,,0.00,751,MyOwnSoftware,2013-04-23 12:57:00,
2013-04-23 13:58:00,57.3,38.8,29.98,SW,225,9.0,20.0,50,0.00,,,0.00,750,MyOwnSoftware,2013-04-23 12:58:00,
2013-04-23 13:59:00,57.3,39.3,29.98,SSW,202,7.0,16.0,51,0.00,,,0.00,743,MyOwnSoftware,2013-04-23 12:59:00,
2013-04-23 14:00:00,57.3,39.8,29.99,SSW,202,7.0,14.0,52,0.00,,,0.00,769,MyOwnSoftware,2013-04-23 13:00:00,
2013-04-23 14:01:00,57.3,39.8,29.99,SSW,202,8.0,12.0,52,0.00,,,0.00,802,MyOwnSoftware,2013-04-23 13:01:00,
2013-04-23 14:02:00,57.3,39.8,29.99,SW,225,10.0,25.0,52,0.00,,,0.00,802,MyOwnSoftware,2013-04-23 13:02:00,
2013-04-23 14:03:00,57.3,39.3,29.99,SSW,202,11.0,18.0,51,0.00,,,0.00,906,MyOwnSoftware,2013-04-23 13:03:00,
2013-04-23 14:04:00,57.3,39.0,29.99,South,185,18.0,-999.0,51,-99.99,,,0.00,929,weatherlink.com 1.10,2013-04-23 13:04:00,
2013-04-23 14:05:00,57.3,39.3,29.99,WSW,248,8.0,18.0,51,0.00,,,0.00,929,MyOwnSoftware,2013-04-23 13:05:00,
2013-04-23 14:06:00,57.5,40.0,29.99,North,0,6.0,11.0,52,0.00,,,0.00,929,MyOwnSoftware,2013-04-23 13:06:00,
2013-04-23 14:07:00,57.3,39.8,29.99,SW,225,5.0,12.0,52,0.00,,,0.00,929,MyOwnSoftware,2013-04-23 13:07:00,
2013-04-23 14:08:00,57.3,39.3,29.99,SW,225,7.0,14.0,51,0.00,,,0.00,929,MyOwnSoftware,2013-04-23 13:08:00,
2013-04-23 14:09:00,57.3,39.3,29.99,SW,225,8.0,16.0,51,0.00,,,0.00,301,MyOwnSoftware,2013-04-23 13:09:00,
2013-04-23 14:10:00,57.3,39.3,29.99,SSW,202,8.0,16.0,51,0.00,,,0.00,278,MyOwnSoftware,2013-04-23 13:10:00,
2013-04-23 14:11:00,57.3,39.3,29.99,SSW,202,10.0,18.0,51,0.00,,,0.00,278,MyOwnSoftware,2013-04-23 13:11:00,
2013-04-23 14:12:00,57.3,39.3,29.99,WNW,292,6.0,8.0,51,0.00,,,0.00,278,MyOwnSoftware,2013-04-23 13:12:00,
2013-04-23 14:13:00,57.3,39.3,29.99,SW,225,7.0,16.0,51,0.00,,,0.00,278,MyOwnSoftware,2013-04-23 13:13:00,
2013-04-23 14:14:00,57.3,39.3,29.99,South,180,9.0,20.0,51,0.00,,,0.00,278,MyOwnSoftware,2013-04-23 13:14:00,
2013-04-23 14:15:00,57.3,39.3,29.99,North,0,8.0,17.0,51,0.00,,,0.00,287,MyOwnSoftware,2013-04-23 13:15:00,
2013-04-23 14:16:00,57.3,39.3,29.99,West,270,8.0,18.0,51,0.00,,,0.00,287,MyOwnSoftware,2013-04-23 13:16:00,
2013-04-23 14:17:00,57.3,39.3,29.99,WSW,248,6.0,14.0,51,0.00,,,0.00,662,MyOwnSoftware,2013-04-23 13:17:00,
2013-04-23 14:18:00,57.3,39.3,29.99,SW,225,8.0,16.0,51,0.00,,,0.00,301,MyOwnSoftware,2013-04-23 13:18:00,
2013-04-23 14:19:00,57.3,38.8,29.99,SW,225,5.0,10.0,50,0.00,,,0.00,662,MyOwnSoftware,2013-04-23 13:19:00,
2013-04-23 14:20:00,57.3,39.3,29.99,SSW,202,5.0,12.0,51,0.00,,,0.00,662,MyOwnSoftware,2013-04-23 13:20:00,
2013-04-23 14:21:00,57.3,39.3,29.99,WSW,248,7.0,12.0,51,0.00,,,0.00,259,MyOwnSoftware,2013-04-23 13:21:00,
2013-04-23 14:22:00,57.3,39.3,29.99,SW,225,4.0,8.0,51,0.00,,,0.00,280,MyOwnSoftware,2013-04-23 13:22:00,
2013-04-23 14:23:00,57.3,39.3,29.99,North,0,5.0,10.0,51,0.00,,,0.00,246,MyOwnSoftware,2013-04-23 13:23:00,
2013-04-23 14:24:00,57.2,39.2,29.99,SW,225,8.0,14.0,51,0.00,,,0.00,260,MyOwnSoftware,2013-04-23 13:24:00,
2013-04-23 14:25:00,57.0,39.1,29.99,SW,225,6.0,20.0,51,0.00,,,0.00,290,MyOwnSoftware,2013-04-23 13:25:00,
2013-04-23 14:26:00,57.0,39.1,29.99,SW,225,9.0,18.0,51,0.00,,,0.00,331,MyOwnSoftware,2013-04-23 13:26:00,
2013-04-23 14:27:00,57.0,39.5,29.99,North,0,7.0,17.0,52,0.00,,,0.00,331,MyOwnSoftware,2013-04-23 13:27:00,
2013-04-23 14:28:00,56.9,39.5,29.99,West,270,8.0,13.0,52,0.00,,,0.00,331,MyOwnSoftware,2013-04-23 13:28:00,
2013-04-23 14:29:00,56.9,39.5,29.99,SSW,202,7.0,13.0,52,0.00,,,0.00,290,MyOwnSoftware,2013-04-23 13:29:00,
2013-04-23 14:30:00,56.7,39.8,30.00,SSW,202,8.0,12.0,53,0.00,,,0.00,297,MyOwnSoftware,2013-04-23 13:30:00,
2013-04-23 14:31:00,56.7,39.8,30.00,SSW,202,10.0,18.0,53,0.00,,,0.00,297,MyOwnSoftware,2013-04-23 13:31:00,
2013-04-23 14:32:00,56.6,39.7,30.00,SSW,202,5.0,12.0,53,0.00,,,0.00,297,MyOwnSoftware,2013-04-23 13:32:00,
2013-04-23 14:33:00,56.6,39.7,30.00,SSW,202,6.0,13.0,53,0.00,,,0.00,297,MyOwnSoftware,2013-04-23 13:33:00,
2013-04-23 14:34:00,56.7,40.0,30.00,SSW,205,7.0,-999.0,54,-99.99,,,0.00,827,weatherlink.com 1.10,2013-04-23 13:34:00,
2013-04-23 14:35:00,56.7,40.2,30.00,NNW,338,4.0,10.0,54,0.00,,,0.00,827,MyOwnSoftware,2013-04-23 13:35:00,
2013-04-23 14:36:00,56.7,40.2,30.00,South,180,7.0,11.0,54,0.00,,,0.00,827,MyOwnSoftware,2013-04-23 13:36:00,
2013-04-23 14:37:00,56.7,39.8,30.00,South,180,6.0,13.0,53,0.00,,,0.00,280,MyOwnSoftware,2013-04-23 13:37:00,
2013-04-23 14:38:00,56.9,39.5,30.00,SW,225,5.0,13.0,52,0.00,,,0.00,276,MyOwnSoftware,2013-04-23 13:38:00,
2013-04-23 14:39:00,56.7,39.3,30.00,SW,225,7.0,17.0,52,0.00,,,0.00,276,MyOwnSoftware,2013-04-23 13:39:00,
2013-04-23 14:40:00,56.7,38.3,30.00,WSW,248,8.0,24.0,50,0.00,,,0.00,762,MyOwnSoftware,2013-04-23 13:40:00,
2013-04-23 14:41:00,56.7,38.3,30.00,WSW,248,9.0,20.0,50,0.00,,,0.00,716,MyOwnSoftware,2013-04-23 13:41:00,
2013-04-23 14:42:00,56.6,38.7,30.00,SSW,202,8.0,12.0,51,0.00,,,0.00,690,MyOwnSoftware,2013-04-23 13:42:00,
2013-04-23 14:43:00,56.6,38.7,30.00,SW,225,11.0,17.0,51,0.00,,,0.00,688,MyOwnSoftware,2013-04-23 13:43:00,
2013-04-23 14:44:00,56.6,38.7,30.00,South,180,9.0,16.0,51,0.00,,,0.00,677,MyOwnSoftware,2013-04-23 13:44:00,
2013-04-23 14:45:00,56.5,38.6,30.00,North,0,6.0,12.0,51,0.00,,,0.00,655,MyOwnSoftware,2013-04-23 13:45:00,
2013-04-23 14:46:00,56.5,39.1,30.00,SSW,202,8.0,18.0,52,0.00,,,0.00,655,MyOwnSoftware,2013-04-23 13:46:00,
2013-04-23 14:47:00,56.7,39.8,30.00,South,180,6.0,13.0,53,0.00,,,0.00,280,MyOwnSoftware,2013-04-23 13:47:00,
2013-04-23 14:48:00,56.5,39.1,30.00,SW,225,8.0,16.0,52,0.00,,,0.00,642,MyOwnSoftware,2013-04-23 13:48:00,
2013-04-23 14:49:00,56.5,39.1,30.00,WNW,292,4.0,8.0,52,0.00,,,0.00,669,MyOwnSoftware,2013-04-23 13:49:00,
2013-04-23 14:50:00,56.6,39.2,30.00,NNE,22,5.0,8.0,52,0.00,,,0.00,709,MyOwnSoftware,2013-04-23 13:50:00,
2013-04-23 14:51:00,56.6,39.2,30.00,SSW,202,5.0,11.0,52,0.00,,,0.00,721,MyOwnSoftware,2013-04-23 13:51:00,
2013-04-23 14:52:00,56.6,39.2,30.00,North,0,3.0,8.0,52,0.00,,,0.00,721,MyOwnSoftware,2013-04-23 13:52:00,
2013-04-23 14:53:00,56.7,38.8,30.00,North,0,7.0,10.0,51,0.00,,,0.00,721,MyOwnSoftware,2013-04-23 13:53:00,
2013-04-23 14:54:00,56.6,39.2,30.00,North,0,5.0,6.0,52,0.00,,,0.00,721,MyOwnSoftware,2013-04-23 13:54:00,
2013-04-23 14:55:00,56.7,38.8,30.00,North,0,6.0,10.0,51,0.00,,,0.00,721,MyOwnSoftware,2013-04-23 13:55:00,
2013-04-23 14:56:00,56.7,38.8,30.00,NNE,22,5.0,8.0,51,0.00,,,0.00,721,MyOwnSoftware,2013-04-23 13:56:00,
2013-04-23 14:57:00,56.7,38.3,30.00,WSW,248,6.0,11.0,50,0.00,,,0.00,215,MyOwnSoftware,2013-04-23 13:57:00,
2013-04-23 14:58:00,56.5,39.1,30.00,WNW,292,4.0,8.0,52,0.00,,,0.00,669,MyOwnSoftware,2013-04-23 13:58:00,
2013-04-23 14:59:00,56.6,38.7,30.00,SW,225,8.0,12.0,51,0.00,,,0.00,241,MyOwnSoftware,2013-04-23 13:59:00,
2013-04-23 15:00:00,56.6,38.7,30.01,SSW,202,6.0,11.0,51,0.00,,,0.00,241,MyOwnSoftware,2013-04-23 14:00:00,
2013-04-23 15:01:00,56.6,38.7,30.01,NNE,22,7.0,10.0,51,0.00,,,0.00,241,MyOwnSoftware,2013-04-23 14:01:00,
2013-04-23 15:02:00,56.6,38.7,30.01,North,0,8.0,19.0,51,0.00,,,0.00,241,MyOwnSoftware,2013-04-23 14:02:00,
2013-04-23 15:03:00,56.6,38.7,30.01,WSW,248,10.0,17.0,51,0.00,,,0.00,241,MyOwnSoftware,2013-04-23 14:03:00,
2013-04-23 15:04:00,56.5,38.0,30.01,SSW,203,5.0,-999.0,51,-99.99,,,0.00,735,weatherlink.com 1.10,2013-04-23 14:04:00,
2013-04-23 15:05:00,56.5,38.6,30.01,SW,225,7.0,12.0,51,0.00,,,0.00,735,MyOwnSoftware,2013-04-23 14:05:00,
2013-04-23 15:06:00,56.5,38.6,30.01,North,0,5.0,10.0,51,0.00,,,0.00,735,MyOwnSoftware,2013-04-23 14:06:00,
2013-04-23 15:07:00,56.6,38.7,30.01,SW,225,6.0,9.0,51,0.00,,,0.00,765,MyOwnSoftware,2013-04-23 14:07:00,
2013-04-23 15:08:00,56.6,38.7,30.01,NW,315,7.0,12.0,51,0.00,,,0.00,785,MyOwnSoftware,2013-04-23 14:08:00,
2013-04-23 15:09:00,56.7,38.8,30.01,SW,225,7.0,11.0,51,0.00,,,0.00,787,MyOwnSoftware,2013-04-23 14:09:00,
2013-04-23 15:10:00,56.7,38.3,30.01,SSW,202,7.0,18.0,50,0.00,,,0.00,787,MyOwnSoftware,2013-04-23 14:10:00,
2013-04-23 15:11:00,56.9,38.5,30.01,SW,225,6.0,13.0,50,0.00,,,0.00,787,MyOwnSoftware,2013-04-23 14:11:00,
2013-04-23 15:12:00,56.9,38.5,30.01,SSW,202,7.0,11.0,50,0.00,,,0.00,787,MyOwnSoftware,2013-04-23 14:12:00,
2013-04-23 15:13:00,57.0,38.5,30.01,WSW,248,6.0,10.0,50,0.00,,,0.00,282,MyOwnSoftware,2013-04-23 14:13:00,
2013-04-23 15:14:00,57.0,38.5,30.01,North,0,5.0,7.0,50,0.00,,,0.00,282,MyOwnSoftware,2013-04-23 14:14:00,
2013-04-23 15:15:00,57.0,38.5,30.00,North,0,7.0,11.0,50,0.00,,,0.00,345,MyOwnSoftware,2013-04-23 14:15:00,
2013-04-23 15:16:00,56.9,38.5,30.00,WSW,248,8.0,13.0,50,0.00,,,0.00,345,MyOwnSoftware,2013-04-23 14:16:00,
2013-04-23 15:17:00,56.9,38.5,30.00,NNW,338,5.0,7.0,50,0.00,,,0.00,345,MyOwnSoftware,2013-04-23 14:17:00,
2013-04-23 15:18:00,56.7,38.8,30.01,SW,225,7.0,11.0,51,0.00,,,0.00,787,MyOwnSoftware,2013-04-23 14:18:00,
2013-04-23 15:19:00,57.0,38.5,30.00,WSW,248,6.0,14.0,50,0.00,,,0.00,764,MyOwnSoftware,2013-04-23 14:19:00,
2013-04-23 15:20:00,56.9,38.5,30.00,NNW,338,6.0,11.0,50,0.00,,,0.00,134,MyOwnSoftware,2013-04-23 14:20:00,
2013-04-23 15:21:00,56.9,39.0,30.00,NNW,338,5.0,11.0,51,0.00,,,0.00,124,MyOwnSoftware,2013-04-23 14:21:00,
2013-04-23 15:22:00,56.7,38.8,30.00,North,0,4.0,8.0,51,0.00,,,0.00,134,MyOwnSoftware,2013-04-23 14:22:00,
2013-04-23 15:23:00,56.6,38.7,30.00,SSW,202,4.0,11.0,51,0.00,,,0.00,176,MyOwnSoftware,2013-04-23 14:23:00,
2013-04-23 15:24:00,56.6,39.2,30.00,SSW,202,6.0,13.0,52,0.00,,,0.00,213,MyOwnSoftware,2013-04-23 14:24:00,
2013-04-23 15:25:00,56.5,39.1,30.00,North,0,5.0,8.0,52,0.00,,,0.00,190,MyOwnSoftware,2013-04-23 14:25:00,
2013-04-23 15:26:00,56.5,39.1,30.00,North,0,5.0,7.0,52,0.00,,,0.00,190,MyOwnSoftware,2013-04-23 14:26:00,
2013-04-23 15:27:00,56.3,38.4,30.00,North,0,6.0,9.0,51,0.00,,,0.00,728,MyOwnSoftware,2013-04-23 14:27:00,
2013-04-23 15:28:00,56.3,38.4,30.00,North,0,9.0,14.0,51,0.00,,,0.00,730,MyOwnSoftware,2013-04-23 14:28:00,
2013-04-23 15:29:00,56.3,38.4,30.00,SSW,202,8.0,18.0,51,0.00,,,0.00,755,MyOwnSoftware,2013-04-23 14:29:00,
2013-04-23 15:30:00,56.3,38.4,30.01,North,0,6.0,10.0,51,0.00,,,0.00,755,MyOwnSoftware,2013-04-23 14:30:00,
2013-04-23 15:31:00,56.3,38.4,30.01,South,180,11.0,21.0,51,0.00,,,0.00,348,MyOwnSoftware,2013-04-23 14:31:00,
2013-04-23 15:32:00,56.3,37.9,30.01,West,270,9.0,19.0,50,0.00,,,0.00,348,MyOwnSoftware,2013-04-23 14:32:00,
2013-04-23 15:33:00,56.3,37.9,30.01,North,0,7.0,13.0,50,0.00,,,0.00,348,MyOwnSoftware,2013-04-23 14:33:00,
2013-04-23 15:34:00,56.5,38.1,30.01,West,270,8.0,16.0,50,0.00,,,0.00,348,MyOwnSoftware,2013-04-23 14:34:00,
2013-04-23 15:35:00,56.5,37.0,30.01,ENE,71,9.0,-999.0,49,-99.99,,,0.00,348,weatherlink.com 1.10,2013-04-23 14:35:00,
2013-04-23 15:36:00,56.5,37.6,30.01,South,180,9.0,17.0,49,0.00,,,0.00,686,MyOwnSoftware,2013-04-23 14:36:00,
2013-04-23 15:37:00,56.5,37.6,30.01,SW,225,7.0,12.0,49,0.00,,,0.00,649,MyOwnSoftware,2013-04-23 14:37:00,
2013-04-23 15:38:00,56.6,37.7,30.01,SW,225,8.0,18.0,49,0.00,,,0.00,665,MyOwnSoftware,2013-04-23 14:38:00,
2013-04-23 15:39:00,56.7,37.8,30.01,SW,225,4.0,7.0,49,0.00,,,0.00,637,MyOwnSoftware,2013-04-23 14:39:00,
2013-04-23 15:40:00,56.9,37.4,30.01,WSW,248,5.0,10.0,48,0.00,,,0.00,642,MyOwnSoftware,2013-04-23 14:40:00,
2013-04-23 15:41:00,56.9,37.4,30.01,SW,225,5.0,10.0,48,0.00,,,0.00,677,MyOwnSoftware,2013-04-23 14:41:00,
2013-04-23 15:42:00,57.0,37.5,30.01,SW,225,7.0,18.0,48,0.00,,,0.00,699,MyOwnSoftware,2013-04-23 14:42:00,
2013-04-23 15:43:00,57.0,38.0,30.01,South,180,5.0,9.0,49,0.00,,,0.00,699,MyOwnSoftware,2013-04-23 14:43:00,
2013-04-23 15:44:00,57.2,38.2,30.01,SW,225,6.0,14.0,49,0.00,,,0.00,741,MyOwnSoftware,2013-04-23 14:44:00,
2013-04-23 15:45:00,57.2,38.2,30.02,North,0,6.0,7.0,49,0.00,,,0.00,713,MyOwnSoftware,2013-04-23 14:45:00,
2013-04-23 15:46:00,56.5,37.6,30.01,SW,225,7.0,12.0,49,0.00,,,0.00,649,MyOwnSoftware,2013-04-23 14:46:00,
2013-04-23 15:47:00,57.3,38.3,30.02,SSW,202,7.0,13.0,49,0.00,,,0.00,730,MyOwnSoftware,2013-04-23 14:47:00,
2013-04-23 15:48:00,57.5,38.5,30.02,North,0,5.0,8.0,49,0.00,,,0.00,730,MyOwnSoftware,2013-04-23 14:48:00,
2013-04-23 15:49:00,57.5,38.5,30.02,SW,225,4.0,7.0,49,0.00,,,0.00,158,MyOwnSoftware,2013-04-23 14:49:00,
2013-04-23 15:50:00,57.3,38.3,30.02,West,270,5.0,8.0,49,0.00,,,0.00,187,MyOwnSoftware,2013-04-23 14:50:00,
2013-04-23 15:51:00,57.3,37.8,30.02,West,270,6.0,12.0,48,0.00,,,0.00,209,MyOwnSoftware,2013-04-23 14:51:00,
2013-04-23 15:52:00,57.2,38.2,30.02,North,0,4.0,7.0,49,0.00,,,0.00,209,MyOwnSoftware,2013-04-23 14:52:00,
2013-04-23 15:53:00,57.2,38.2,30.02,SW,225,5.0,10.0,49,0.00,,,0.00,276,MyOwnSoftware,2013-04-23 14:53:00,
2013-04-23 15:54:00,57.2,38.2,30.02,West,270,8.0,17.0,49,0.00,,,0.00,276,MyOwnSoftware,2013-04-23 14:54:00,
2013-04-23 15:55:00,57.0,37.5,30.02,WNW,292,7.0,16.0,48,0.00,,,0.00,174,MyOwnSoftware,2013-04-23 14:55:00,
2013-04-23 15:56:00,57.3,38.3,30.02,SSW,202,7.0,13.0,49,0.00,,,0.00,730,MyOwnSoftware,2013-04-23 14:56:00,
2013-04-23 15:57:00,56.9,37.9,30.02,SSW,202,5.0,7.0,49,0.00,,,0.00,148,MyOwnSoftware,2013-04-23 14:57:00,
2013-04-23 15:58:00,56.9,37.9,30.02,SW,225,5.0,14.0,49,0.00,,,0.00,162,MyOwnSoftware,2013-04-23 14:58:00,
2013-04-23 15:59:00,56.7,37.8,30.02,SW,225,8.0,16.0,49,0.00,,,0.00,162,MyOwnSoftware,2013-04-23 14:59:00,
2013-04-23 16:00:00,56.7,38.3,30.02,West,270,8.0,16.0,50,0.00,,,0.00,162,MyOwnSoftware,2013-04-23 15:00:00,
2013-04-23 16:01:00,56.6,38.2,30.02,NNE,22,4.0,8.0,50,0.00,,,0.00,176,MyOwnSoftware,2013-04-23 15:01:00,
2013-04-23 16:02:00,56.5,38.1,30.02,WNW,292,7.0,18.0,50,0.00,,,0.00,188,MyOwnSoftware,2013-04-23 15:02:00,
2013-04-23 16:03:00,56.3,38.4,30.02,North,0,6.0,8.0,51,0.00,,,0.00,188,MyOwnSoftware,2013-04-23 15:03:00,
2013-04-23 16:04:00,56.2,38.3,30.02,West,270,6.0,10.0,51,0.00,,,0.00,287,MyOwnSoftware,2013-04-23 15:04:00,
2013-04-23 16:05:00,56.2,39.0,30.02,WNW,301,6.0,-999.0,52,-99.99,,,0.00,287,weatherlink.com 1.10,2013-04-23 15:05:00,
2013-04-23 16:06:00,56.0,39.1,30.02,West,270,6.0,10.0,53,0.00,,,0.00,223,MyOwnSoftware,2013-04-23 15:06:00,
2013-04-23 16:07:00,56.0,39.1,30.02,South,180,8.0,13.0,53,0.00,,,0.00,211,MyOwnSoftware,2013-04-23 15:07:00,
2013-04-23 16:08:00,56.0,40.1,30.02,WNW,292,7.0,13.0,55,0.00,,,0.00,190,MyOwnSoftware,2013-04-23 15:08:00,
2013-04-23 16:09:00,55.9,40.0,30.02,SSW,202,6.0,13.0,55,0.00,,,0.00,187,MyOwnSoftware,2013-04-23 15:09:00,
2013-04-23 16:10:00,55.9,40.4,30.02,North,0,6.0,8.0,56,0.00,,,0.00,179,MyOwnSoftware,2013-04-23 15:10:00,
2013-04-23 16:11:00,55.7,40.2,30.02,WSW,248,7.0,16.0,56,0.00,,,0.00,169,MyOwnSoftware,2013-04-23 15:11:00,
2013-04-23 16:12:00,55.7,40.2,30.02,West,270,5.0,10.0,56,0.00,,,0.00,174,MyOwnSoftware,2013-04-23 15:12:00,
2013-04-23 16:13:00,55.7,40.2,30.02,SW,225,6.0,11.0,56,0.00,,,0.00,192,MyOwnSoftware,2013-04-23 15:13:00,
2013-04-23 16:14:00,55.7,40.2,30.02,SSW,202,7.0,11.0,56,0.00,,,0.00,223,MyOwnSoftware,2013-04-23 15:14:00,
2013-04-23 16:15:00,55.6,40.2,30.02,SW,225,9.0,16.0,56,0.00,,,0.00,223,MyOwnSoftware,2013-04-23 15:15:00,
2013-04-23 16:16:00,55.6,40.2,30.02,South,180,8.0,12.0,56,0.00,,,0.00,180,MyOwnSoftware,2013-04-23 15:16:00,
2013-04-23 16:17:00,56.0,40.1,30.02,WNW,292,7.0,13.0,55,0.00,,,0.00,190,MyOwnSoftware,2013-04-23 15:17:00,
2013-04-23 16:18:00,55.4,40.4,30.02,WSW,248,5.0,12.0,57,0.00,,,0.00,176,MyOwnSoftware,2013-04-23 15:18:00,
2013-04-23 16:19:00,55.3,40.3,30.02,SSW,202,10.0,18.0,57,0.00,,,0.00,176,MyOwnSoftware,2013-04-23 15:19:00,
2013-04-23 16:20:00,55.3,40.3,30.02,SW,225,7.0,13.0,57,0.00,,,0.00,176,MyOwnSoftware,2013-04-23 15:20:00,
2013-04-23 16:21:00,55.1,40.1,30.02,SSW,202,7.0,16.0,57,0.00,,,0.00,536,MyOwnSoftware,2013-04-23 15:21:00,
2013-04-23 16:22:00,55.1,40.1,30.02,NW,315,7.0,14.0,57,0.00,,,0.00,526,MyOwnSoftware,2013-04-23 15:22:00,
2013-04-23 16:23:00,55.1,40.6,30.02,SSW,202,7.0,16.0,58,0.00,,,0.00,517,MyOwnSoftware,2013-04-23 15:23:00,
2013-04-23 16:24:00,55.0,40.5,30.02,SSW,202,5.0,10.0,58,0.00,,,0.00,503,MyOwnSoftware,2013-04-23 15:24:00,
2013-04-23 16:25:00,55.0,40.5,30.02,SSW,202,6.0,13.0,58,0.00,,,0.00,500,MyOwnSoftware,2013-04-23 15:25:00,
2013-04-23 16:26:00,55.0,40.5,30.02,SW,225,8.0,19.0,58,0.00,,,0.00,498,MyOwnSoftware,2013-04-23 15:26:00,
2013-04-23 16:27:00,55.0,40.5,30.02,SW,225,7.0,11.0,58,0.00,,,0.00,493,MyOwnSoftware,2013-04-23 15:27:00,
2013-04-23 16:28:00,55.1,40.1,30.02,SW,225,4.0,10.0,57,0.00,,,0.00,493,MyOwnSoftware,2013-04-23 15:28:00,
2013-04-23 16:29:00,55.1,40.6,30.02,SW,225,5.0,14.0,58,0.00,,,0.00,426,MyOwnSoftware,2013-04-23 15:29:00,
2013-04-23 16:30:00,55.1,40.1,30.02,West,270,6.0,12.0,57,0.00,,,0.00,466,MyOwnSoftware,2013-04-23 15:30:00,
2013-04-23 16:31:00,55.3,40.3,30.02,South,180,7.0,12.0,57,0.00,,,0.00,489,MyOwnSoftware,2013-04-23 15:31:00,
2013-04-23 16:32:00,55.3,40.3,30.02,SSW,202,9.0,17.0,57,0.00,,,0.00,526,MyOwnSoftware,2013-04-23 15:32:00,
2013-04-23 16:33:00,55.4,40.4,30.02,West,270,5.0,8.0,57,0.00,,,0.00,526,MyOwnSoftware,2013-04-23 15:33:00,
2013-04-23 16:34:00,55.4,40.4,30.02,SW,225,7.0,13.0,57,0.00,,,0.00,206,MyOwnSoftware,2013-04-23 15:34:00,
2013-04-23 16:35:00,55.4,40.0,30.02,SSW,192,16.0,-999.0,56,-99.99,,,0.00,206,weatherlink.com 1.10,2013-04-23 15:35:00,
2013-04-23 16:36:00,55.6,40.6,30.02,SW,225,7.0,16.0,57,0.00,,,0.00,165,MyOwnSoftware,2013-04-23 15:36:00,
2013-04-23 16:37:00,55.6,40.2,30.02,SW,225,7.0,16.0,56,0.00,,,0.00,162,MyOwnSoftware,2013-04-23 15:37:00,
2013-04-23 16:38:00,55.6,39.2,30.02,SW,225,11.0,16.0,54,0.00,,,0.00,192,MyOwnSoftware,2013-04-23 15:38:00,
2013-04-23 16:39:00,55.4,39.0,30.02,SSW,202,9.0,14.0,54,0.00,,,0.00,192,MyOwnSoftware,2013-04-23 15:39:00,
2013-04-23 16:40:00,55.4,39.0,30.02,SW,225,8.0,19.0,54,0.00,,,0.00,192,MyOwnSoftware,2013-04-23 15:40:00,
2013-04-23 16:41:00,55.4,39.0,30.02,WSW,248,6.0,13.0,54,0.00,,,0.00,192,MyOwnSoftware,2013-04-23 15:41:00,
2013-04-23 16:42:00,55.4,39.5,30.02,SSW,202,7.0,12.0,55,0.00,,,0.00,192,MyOwnSoftware,2013-04-23 15:42:00,
2013-04-23 16:43:00,55.4,39.5,30.02,SW,225,6.0,13.0,55,0.00,,,0.00,192,MyOwnSoftware,2013-04-23 15:43:00,
2013-04-23 16:44:00,55.4,39.5,30.02,North,0,5.0,8.0,55,0.00,,,0.00,97,MyOwnSoftware,2013-04-23 15:44:00,
2013-04-23 16:45:00,55.4,39.0,30.03,NNE,22,5.0,10.0,54,0.00,,,0.00,109,MyOwnSoftware,2013-04-23 15:45:00,
2013-04-23 16:46:00,55.3,38.9,30.03,WSW,248,5.0,11.0,54,0.00,,,0.00,109,MyOwnSoftware,2013-04-23 15:46:00,
2013-04-23 16:47:00,55.3,39.4,30.03,WSW,248,5.0,7.0,55,0.00,,,0.00,190,MyOwnSoftware,2013-04-23 15:47:00,
2013-04-23 16:48:00,55.4,39.0,30.02,SSW,202,9.0,14.0,54,0.00,,,0.00,192,MyOwnSoftware,2013-04-23 15:48:00,
2013-04-23 16:49:00,55.3,38.9,30.03,WSW,248,5.0,10.0,54,0.00,,,0.00,220,MyOwnSoftware,2013-04-23 15:49:00,
2013-04-23 16:50:00,55.3,38.9,30.03,SSW,202,5.0,8.0,54,0.00,,,0.00,220,MyOwnSoftware,2013-04-23 15:50:00,
2013-04-23 16:51:00,55.3,39.4,30.03,NNW,338,3.0,6.0,55,0.00,,,0.00,220,MyOwnSoftware,2013-04-23 15:51:00,
2013-04-23 16:52:00,55.4,39.5,30.03,SW,225,6.0,11.0,55,0.00,,,0.00,565,MyOwnSoftware,2013-04-23 15:52:00,
2013-04-23 16:53:00,55.4,39.0,30.03,West,270,5.0,11.0,54,0.00,,,0.00,565,MyOwnSoftware,2013-04-23 15:53:00,
2013-04-23 16:54:00,55.4,39.0,30.03,WSW,248,7.0,17.0,54,0.00,,,0.00,179,MyOwnSoftware,2013-04-23 15:54:00,
2013-04-23 16:55:00,55.4,39.0,30.03,SW,225,8.0,14.0,54,0.00,,,0.00,179,MyOwnSoftware,2013-04-23 15:55:00,
2013-04-23 16:56:00,55.4,38.6,30.03,South,180,6.0,11.0,53,0.00,,,0.00,259,MyOwnSoftware,2013-04-23 15:56:00,
2013-04-23 16:57:00,55.3,38.9,30.03,WSW,248,6.0,11.0,54,0.00,,,0.00,220,MyOwnSoftware,2013-04-23 15:57:00,
2013-04-23 16:58:00,55.4,38.6,30.03,North,0,4.0,11.0,53,0.00,,,0.00,114,MyOwnSoftware,2013-04-23 15:58:00,
2013-04-23 16:59:00,55.3,38.5,30.03,WSW,248,6.0,11.0,53,0.00,,,0.00,114,MyOwnSoftware,2013-04-23 15:59:00,
2013-04-23 17:00:00,55.3,38.5,30.03,SSW,202,8.0,18.0,53,0.00,,,0.00,102,MyOwnSoftware,2013-04-23 16:00:00,
2013-04-23 17:01:00,55.3,38.5,30.03,SW,225,6.0,13.0,53,0.00,,,0.00,102,MyOwnSoftware,2013-04-23 16:01:00,
2013-04-23 17:02:00,55.3,38.9,30.03,SSW,202,7.0,10.0,54,0.00,,,0.00,128,MyOwnSoftware,2013-04-23 16:02:00,
2013-04-23 17:03:00,55.3,38.9,30.03,SW,225,7.0,12.0,54,0.00,,,0.00,111,MyOwnSoftware,2013-04-23 16:03:00,
2013-04-23 17:04:00,55.3,38.5,30.03,WSW,248,6.0,13.0,53,0.00,,,0.00,106,MyOwnSoftware,2013-04-23 16:04:00,
2013-04-23 17:05:00,55.1,39.0,30.03,SSW,199,3.0,-999.0,54,-99.99,,,0.00,106,weatherlink.com 1.10,2013-04-23 16:05:00,
2013-04-23 17:06:00,55.1,38.8,30.03,SSW,202,7.0,19.0,54,0.00,,,0.00,106,MyOwnSoftware,2013-04-23 16:06:00,
2013-04-23 17:07:00,55.1,39.2,30.03,SW,225,5.0,7.0,55,0.00,,,0.00,106,MyOwnSoftware,2013-04-23 16:07:00,
2013-04-23 17:08:00,55.1,38.8,30.03,North,0,6.0,9.0,54,0.00,,,0.00,120,MyOwnSoftware,2013-04-23 16:08:00,
2013-04-23 17:09:00,55.1,38.8,30.03,SSW,202,8.0,16.0,54,0.00,,,0.00,118,MyOwnSoftware,2013-04-23 16:09:00,
2013-04-23 17:10:00,55.1,38.8,30.03,SSW,202,5.0,8.0,54,0.00,,,0.00,118,MyOwnSoftware,2013-04-23 16:10:00,
2013-04-23 17:11:00,55.1,38.8,30.03,SW,225,6.0,17.0,54,0.00,,,0.00,127,MyOwnSoftware,2013-04-23 16:11:00,
2013-04-23 17:12:00,55.1,38.8,30.03,South,180,7.0,13.0,54,0.00,,,0.00,113,MyOwnSoftware,2013-04-23 16:12:00,
2013-04-23 17:13:00,55.1,38.8,30.03,West,270,6.0,8.0,54,0.00,,,0.00,106,MyOwnSoftware,2013-04-23 16:13:00,
2013-04-23 17:14:00,55.1,38.8,30.03,North,0,5.0,11.0,54,0.00,,,0.00,132,MyOwnSoftware,2013-04-23 16:14:00,
2013-04-23 17:15:00,55.1,38.8,30.03,West,270,5.0,12.0,54,0.00,,,0.00,146,MyOwnSoftware,2013-04-23 16:15:00,
2013-04-23 17:16:00,55.1,38.8,30.03,SSW,202,9.0,19.0,54,0.00,,,0.00,116,MyOwnSoftware,2013-04-23 16:16:00,
2013-04-23 17:17:00,55.1,38.8,30.03,North,0,6.0,10.0,54,0.00,,,0.00,114,MyOwnSoftware,2013-04-23 16:17:00,
2013-04-23 17:18:00,55.1,38.8,30.03,SSW,202,8.0,16.0,54,0.00,,,0.00,118,MyOwnSoftware,2013-04-23 16:18:00,
2013-04-23 17:19:00,55.0,38.2,30.03,NNW,338,5.0,13.0,53,0.00,,,0.00,234,MyOwnSoftware,2013-04-23 16:19:00,
2013-04-23 17:20:00,55.0,39.1,30.03,SSW,202,6.0,11.0,55,0.00,,,0.00,234,MyOwnSoftware,2013-04-23 16:20:00,
2013-04-23 17:21:00,55.1,38.8,30.03,NNW,338,3.0,11.0,54,0.00,,,0.00,100,MyOwnSoftware,2013-04-23 16:21:00,
2013-04-23 17:22:00,55.0,38.7,30.03,WSW,248,3.0,6.0,54,0.00,,,0.00,109,MyOwnSoftware,2013-04-23 16:22:00,
2013-04-23 17:23:00,55.1,39.2,30.03,SSW,202,6.0,12.0,55,0.00,,,0.00,146,MyOwnSoftware,2013-04-23 16:23:00,
2013-04-23 17:24:00,55.1,38.8,30.03,SW,225,7.0,12.0,54,0.00,,,0.00,132,MyOwnSoftware,2013-04-23 16:24:00,
2013-04-23 17:25:00,55.1,38.8,30.03,NW,315,5.0,11.0,54,0.00,,,0.00,104,MyOwnSoftware,2013-04-23 16:25:00,
2013-04-23 17:26:00,55.1,38.8,30.03,SSW,202,8.0,14.0,54,0.00,,,0.00,96,MyOwnSoftware,2013-04-23 16:26:00,
2013-04-23 17:27:00,55.1,38.8,30.03,SSW,202,7.0,17.0,54,0.00,,,0.00,93,MyOwnSoftware,2013-04-23 16:27:00,
2013-04-23 17:28:00,55.1,38.8,30.03,West,270,6.0,10.0,54,0.00,,,0.00,111,MyOwnSoftware,2013-04-23 16:28:00,
2013-04-23 17:29:00,55.1,38.8,30.03,SW,225,5.0,11.0,54,0.00,,,0.00,113,MyOwnSoftware,2013-04-23 16:29:00,
2013-04-23 17:30:00,55.1,38.8,30.03,SSW,202,8.0,18.0,54,0.00,,,0.00,100,MyOwnSoftware,2013-04-23 16:30:00,
2013-04-23 17:31:00,55.1,38.8,30.03,West,270,7.0,12.0,54,0.00,,,0.00,87,MyOwnSoftware,2013-04-23 16:31:00,
2013-04-23 17:32:00,55.1,38.8,30.03,West,270,7.0,12.0,54,0.00,,,0.00,91,MyOwnSoftware,2013-04-23 16:32:00,
2013-04-23 17:33:00,55.1,38.8,30.03,WSW,248,6.0,12.0,54,0.00,,,0.00,90,MyOwnSoftware,2013-04-23 16:33:00,
2013-04-23 17:34:00,55.1,38.8,30.03,SW,225,8.0,11.0,54,0.00,,,0.00,93,MyOwnSoftware,2013-04-23 16:34:00,
2013-04-23 17:35:00,55.0,38.0,30.03,WNW,288,5.0,-999.0,54,-99.99,,,0.00,109,weatherlink.com 1.10,2013-04-23 16:35:00,
2013-04-23 17:36:00,55.0,38.7,30.03,WSW,248,3.0,6.0,54,0.00,,,0.00,103,MyOwnSoftware,2013-04-23 16:36:00,
2013-04-23 17:37:00,55.0,38.7,30.03,West,270,5.0,8.0,54,0.00,,,0.00,91,MyOwnSoftware,2013-04-23 16:37:00,
2013-04-23 17:38:00,55.0,38.7,30.03,SSW,202,5.0,8.0,54,0.00,,,0.00,91,MyOwnSoftware,2013-04-23 16:38:00,
2013-04-23 17:39:00,55.0,39.1,30.03,SSE,158,3.0,7.0,55,0.00,,,0.00,95,MyOwnSoftware,2013-04-23 16:39:00,
2013-04-23 17:40:00,55.0,39.1,30.03,SW,225,6.0,11.0,55,0.00,,,0.00,88,MyOwnSoftware,2013-04-23 16:40:00,
2013-04-23 17:41:00,55.0,39.1,30.03,SSW,202,4.0,8.0,55,0.00,,,0.00,88,MyOwnSoftware,2013-04-23 16:41:00,
2013-04-23 17:42:00,55.0,39.1,30.03,SSW,202,5.0,8.0,55,0.00,,,0.00,141,MyOwnSoftware,2013-04-23 16:42:00,
2013-04-23 17:43:00,55.0,39.6,30.03,SW,225,5.0,8.0,56,0.00,,,0.00,121,MyOwnSoftware,2013-04-23 16:43:00,
2013-04-23 17:44:00,55.0,39.1,30.03,SSW,202,7.0,13.0,55,0.00,,,0.00,121,MyOwnSoftware,2013-04-23 16:44:00,
2013-04-23 17:45:00,55.0,39.1,30.04,SW,225,6.0,10.0,55,0.00,,,0.00,157,MyOwnSoftware,2013-04-23 16:45:00,
2013-04-23 17:46:00,55.0,39.1,30.04,SW,225,7.0,22.0,55,0.00,,,0.00,132,MyOwnSoftware,2013-04-23 16:46:00,
2013-04-23 17:47:00,55.0,39.1,30.04,SSW,202,6.0,10.0,55,0.00,,,0.00,118,MyOwnSoftware,2013-04-23 16:47:00,
2013-04-23 17:48:00,55.0,39.1,30.03,SSE,158,3.0,7.0,55,0.00,,,0.00,95,MyOwnSoftware,2013-04-23 16:48:00,
2013-04-23 17:49:00,55.0,39.6,30.04,WSW,248,6.0,11.0,56,0.00,,,0.00,88,MyOwnSoftware,2013-04-23 16:49:00,
2013-04-23 17:50:00,55.0,39.1,30.04,NW,315,4.0,8.0,55,0.00,,,0.00,90,MyOwnSoftware,2013-04-23 16:50:00,
2013-04-23 17:51:00,55.0,39.6,30.04,West,270,4.0,6.0,56,0.00,,,0.00,115,MyOwnSoftware,2013-04-23 16:51:00,
2013-04-23 17:52:00,55.0,39.6,30.04,SW,225,6.0,13.0,56,0.00,,,0.00,109,MyOwnSoftware,2013-04-23 16:52:00,
2013-04-23 17:53:00,55.0,39.6,30.04,WSW,248,4.0,7.0,56,0.00,,,0.00,100,MyOwnSoftware,2013-04-23 16:53:00,
2013-04-23 17:54:00,54.8,39.4,30.04,West,270,4.0,10.0,56,0.00,,,0.00,100,MyOwnSoftware,2013-04-23 16:54:00,
2013-04-23 17:55:00,54.8,38.9,30.04,NNW,338,3.0,9.0,55,0.00,,,0.00,99,MyOwnSoftware,2013-04-23 16:55:00,
2013-04-23 17:56:00,54.8,38.9,30.04,SSW,202,7.0,14.0,55,0.00,,,0.00,104,MyOwnSoftware,2013-04-23 16:56:00,
2013-04-23 17:57:00,54.8,39.4,30.04,South,180,5.0,14.0,56,0.00,,,0.00,93,MyOwnSoftware,2013-04-23 16:57:00,
2013-04-23 17:58:00,55.0,39.6,30.04,WSW,248,6.0,11.0,56,0.00,,,0.00,88,MyOwnSoftware,2013-04-23 16:58:00,
2013-04-23 17:59:00,54.8,38.9,30.04,SW,225,8.0,13.0,55,0.00,,,0.00,90,MyOwnSoftware,2013-04-23 16:59:00,
2013-04-23 18:00:00,54.8,38.9,30.04,North,0,4.0,10.0,55,0.00,,,0.00,107,MyOwnSoftware,2013-04-23 17:00:00,
2013-04-23 18:01:00,54.8,38.9,30.04,North,0,3.0,10.0,55,0.00,,,0.00,137,MyOwnSoftware,2013-04-23 17:01:00,
2013-04-23 18:02:00,55.0,39.1,30.04,SW,225,6.0,8.0,55,0.00,,,0.00,125,MyOwnSoftware,2013-04-23 17:02:00,
2013-04-23 18:03:00,55.0,39.6,30.04,North,0,7.0,14.0,56,0.00,,,0.00,86,MyOwnSoftware,2013-04-23 17:03:00,
2013-04-23 18:04:00,55.0,39.1,30.04,SSW,202,9.0,16.0,55,0.00,,,0.00,79,MyOwnSoftware,2013-04-23 17:04:00,
2013-04-23 18:05:00,55.0,38.7,30.04,SSW,202,6.0,11.0,54,0.00,,,0.00,86,MyOwnSoftware,2013-04-23 17:05:00,
2013-04-23 18:06:00,55.0,39.0,30.04,West,265,6.0,-999.0,55,-99.99,,,0.00,91,weatherlink.com 1.10,2013-04-23 17:06:00,
2013-04-23 18:07:00,55.0,38.7,30.04,West,270,6.0,12.0,54,0.00,,,0.00,90,MyOwnSoftware,2013-04-23 17:07:00,
2013-04-23 18:08:00,55.0,38.7,30.04,SSW,202,8.0,13.0,54,0.00,,,0.00,97,MyOwnSoftware,2013-04-23 17:08:00,
2013-04-23 18:09:00,55.0,39.1,30.04,SSW,202,11.0,21.0,55,0.00,,,0.00,91,MyOwnSoftware,2013-04-23 17:09:00,
2013-04-23 18:10:00,54.8,38.5,30.04,SW,225,10.0,17.0,54,0.00,,,0.00,84,MyOwnSoftware,2013-04-23 17:10:00,
2013-04-23 18:11:00,54.8,38.9,30.04,SSW,202,9.0,13.0,55,0.00,,,0.00,76,MyOwnSoftware,2013-04-23 17:11:00,
2013-04-23 18:12:00,54.7,38.9,30.04,SSW,202,9.0,14.0,55,0.00,,,0.00,72,MyOwnSoftware,2013-04-23 17:12:00,
2013-04-23 18:13:00,54.7,38.9,30.04,North,0,8.0,13.0,55,0.00,,,0.00,74,MyOwnSoftware,2013-04-23 17:13:00,
2013-04-23 18:14:00,54.5,38.7,30.04,WSW,248,9.0,18.0,55,0.00,,,0.00,65,MyOwnSoftware,2013-04-23 17:14:00,
2013-04-23 18:15:00,54.5,38.7,30.05,SSW,202,10.0,15.0,55,0.00,,,0.00,69,MyOwnSoftware,2013-04-23 17:15:00,
2013-04-23 18:16:00,54.4,38.6,30.05,SW,225,7.0,11.0,55,0.00,,,0.00,78,MyOwnSoftware,2013-04-23 17:16:00,
2013-04-23 18:17:00,54.4,38.6,30.05,SSW,202,6.0,14.0,55,0.00,,,0.00,95,MyOwnSoftware,2013-04-23 17:17:00,
2013-04-23 18:18:00,55.0,39.1,30.04,SSW,202,11.0,21.0,55,0.00,,,0.00,91,MyOwnSoftware,2013-04-23 17:18:00,
2013-04-23 18:19:00,54.2,38.8,30.05,SSW,202,10.0,18.0,56,0.00,,,0.00,70,MyOwnSoftware,2013-04-23 17:19:00,
2013-04-23 18:20:00,54.2,38.8,30.05,SSW,202,9.0,18.0,56,0.00,,,0.00,70,MyOwnSoftware,2013-04-23 17:20:00,
2013-04-23 18:21:00,54.2,38.8,30.05,SW,225,9.0,14.0,56,0.00,,,0.00,63,MyOwnSoftware,2013-04-23 17:21:00,
2013-04-23 18:22:00,54.1,38.3,30.05,SSW,202,7.0,17.0,55,0.00,,,0.00,56,MyOwnSoftware,2013-04-23 17:22:00,
2013-04-23 18:23:00,54.1,38.8,30.05,SSW,202,6.0,12.0,56,0.00,,,0.00,65,MyOwnSoftware,2013-04-23 17:23:00,
2013-04-23 18:24:00,54.1,38.8,30.05,WSW,248,6.0,12.0,56,0.00,,,0.00,55,MyOwnSoftware,2013-04-23 17:24:00,
2013-04-23 18:25:00,54.1,38.8,30.05,SW,225,6.0,10.0,56,0.00,,,0.00,49,MyOwnSoftware,2013-04-23 17:25:00,
2013-04-23 18:26:00,54.1,38.8,30.05,ENE,68,5.0,8.0,56,0.00,,,0.00,61,MyOwnSoftware,2013-04-23 17:26:00,
2013-04-23 18:27:00,53.9,38.6,30.05,North,0,5.0,10.0,56,0.00,,,0.00,51,MyOwnSoftware,2013-04-23 17:27:00,
2013-04-23 18:28:00,53.9,38.6,30.05,WSW,248,6.0,8.0,56,0.00,,,0.00,53,MyOwnSoftware,2013-04-23 17:28:00,
2013-04-23 18:29:00,53.9,39.0,30.05,SSW,202,5.0,8.0,57,0.00,,,0.00,63,MyOwnSoftware,2013-04-23 17:29:00,
2013-04-23 18:30:00,53.9,39.0,30.05,SSW,202,7.0,18.0,57,0.00,,,0.00,65,MyOwnSoftware,2013-04-23 17:30:00,
2013-04-23 18:31:00,53.9,39.0,30.05,SSW,202,7.0,12.0,57,0.00,,,0.00,62,MyOwnSoftware,2013-04-23 17:31:00,
2013-04-23 18:32:00,53.8,38.9,30.05,SW,225,6.0,8.0,57,0.00,,,0.00,69,MyOwnSoftware,2013-04-23 17:32:00,
2013-04-23 18:33:00,53.8,38.9,30.05,WSW,248,8.0,21.0,57,0.00,,,0.00,74,MyOwnSoftware,2013-04-23 17:33:00,
2013-04-23 18:34:00,53.8,38.9,30.05,SW,225,10.0,18.0,57,0.00,,,0.00,74,MyOwnSoftware,2013-04-23 17:34:00,
2013-04-23 18:35:00,53.8,38.9,30.05,WSW,248,8.0,12.0,57,0.00,,,0.00,74,MyOwnSoftware,2013-04-23 17:35:00,
2013-04-23 18:36:00,53.8,39.0,30.05,WSW,244,13.0,-999.0,58,-99.99,,,0.00,79,weatherlink.com 1.10,2013-04-23 17:36:00,
2013-04-23 18:37:00,53.8,39.4,30.05,SW,225,11.0,17.0,58,0.00,,,0.00,106,MyOwnSoftware,2013-04-23 17:37:00,
2013-04-23 18:38:00,53.6,39.2,30.05,North,0,7.0,16.0,58,0.00,,,0.00,107,MyOwnSoftware,2013-04-23 17:38:00,
2013-04-23 18:39:00,53.6,39.6,30.05,SSW,202,6.0,10.0,59,0.00,,,0.00,72,MyOwnSoftware,2013-04-23 17:39:00,
2013-04-23 18:40:00,53.6,39.2,30.05,SW,225,9.0,18.0,58,0.00,,,0.00,58,MyOwnSoftware,2013-04-23 17:40:00,
2013-04-23 18:41:00,53.6,39.2,30.05,SSW,202,7.0,11.0,58,0.00,,,0.00,56,MyOwnSoftware,2013-04-23 17:41:00,
2013-04-23 18:42:00,53.6,39.2,30.05,SW,225,6.0,12.0,58,0.00,,,0.00,55,MyOwnSoftware,2013-04-23 17:42:00,
2013-04-23 18:43:00,53.5,39.5,30.05,West,270,4.0,7.0,59,0.00,,,0.00,53,MyOwnSoftware,2013-04-23 17:43:00,
2013-04-23 18:44:00,53.5,39.5,30.05,WSW,248,7.0,17.0,59,0.00,,,0.00,56,MyOwnSoftware,2013-04-23 17:44:00,
2013-04-23 18:45:00,53.5,39.5,30.06,NNW,338,6.0,10.0,59,0.00,,,0.00,70,MyOwnSoftware,2013-04-23 17:45:00,
2013-04-23 18:46:00,53.8,39.4,30.05,SW,225,11.0,17.0,58,0.00,,,0.00,106,MyOwnSoftware,2013-04-23 17:46:00,
2013-04-23 18:47:00,53.5,39.5,30.06,WSW,248,5.0,10.0,59,0.00,,,0.00,53,MyOwnSoftware,2013-04-23 17:47:00,
2013-04-23 18:48:00,53.5,39.5,30.06,SSW,202,6.0,12.0,59,0.00,,,0.00,44,MyOwnSoftware,2013-04-23 17:48:00,
2013-04-23 18:49:00,53.3,39.3,30.06,SSW,202,5.0,9.0,59,0.00,,,0.00,44,MyOwnSoftware,2013-04-23 17:49:00,
2013-04-23 18:50:00,53.3,39.3,30.06,WNW,292,6.0,16.0,59,0.00,,,0.00,46,MyOwnSoftware,2013-04-23 17:50:00,
2013-04-23 18:51:00,53.2,39.0,30.06,WSW,247,5.0,-999.0,59,-99.99,,,0.00,40,weatherlink.com 1.10,2013-04-23 17:51:00,
2013-04-23 18:52:00,53.2,39.7,30.06,WSW,248,6.0,14.0,60,0.00,,,0.00,48,MyOwnSoftware,2013-04-23 17:52:00,
2013-04-23 18:53:00,53.2,39.7,30.06,SW,225,3.0,6.0,60,0.00,,,0.00,56,MyOwnSoftware,2013-04-23 17:53:00,
2013-04-23 18:54:00,53.1,39.6,30.06,North,0,5.0,17.0,60,0.00,,,0.00,56,MyOwnSoftware,2013-04-23 17:54:00,
2013-04-23 18:55:00,53.1,39.6,30.06,WSW,248,5.0,7.0,60,0.00,,,0.00,70,MyOwnSoftware,2013-04-23 17:55:00,
2013-04-23 18:56:00,53.1,39.6,30.06,West,270,4.0,8.0,60,0.00,,,0.00,56,MyOwnSoftware,2013-04-23 17:56:00,
2013-04-23 18:57:00,52.9,39.4,30.06,North,0,4.0,7.0,60,0.00,,,0.00,44,MyOwnSoftware,2013-04-23 17:57:00,
2013-04-23 18:58:00,52.9,39.8,30.06,North,0,5.0,7.0,61,0.00,,,0.00,55,MyOwnSoftware,2013-04-23 17:58:00,
2013-04-23 18:59:00,52.9,39.8,30.06,WSW,248,4.0,7.0,61,0.00,,,0.00,62,MyOwnSoftware,2013-04-23 17:59:00,
2013-04-23 19:00:00,52.8,39.7,30.06,SSW,202,5.0,13.0,61,0.00,,,0.00,51,MyOwnSoftware,2013-04-23 18:00:00,
2013-04-23 19:01:00,52.8,39.7,30.06,NW,315,2.0,8.0,61,0.00,,,0.00,52,MyOwnSoftware,2013-04-23 18:01:00,
2013-04-23 19:02:00,52.8,39.7,30.06,WNW,292,6.0,10.0,61,0.00,,,0.00,53,MyOwnSoftware,2013-04-23 18:02:00,
2013-04-23 19:03:00,52.8,40.1,30.06,SW,225,4.0,16.0,62,0.00,,,0.00,40,MyOwnSoftware,2013-04-23 18:03:00,
2013-04-23 19:04:00,52.8,40.1,30.06,SW,225,4.0,7.0,62,0.00,,,0.00,33,MyOwnSoftware,2013-04-23 18:04:00,
2013-04-23 19:05:00,52.8,39.7,30.06,North,0,4.0,10.0,61,0.00,,,0.00,33,MyOwnSoftware,2013-04-23 18:05:00,
2013-04-23 19:06:00,52.6,39.0,30.06,North,0,2.0,-999.0,61,-99.99,,,0.00,48,weatherlink.com 1.10,2013-04-23 18:06:00,
2013-04-23 19:07:00,52.6,39.5,30.06,North,0,2.0,6.0,61,0.00,,,0.00,44,MyOwnSoftware,2013-04-23 18:07:00,
2013-04-23 19:08:00,52.6,39.5,30.06,SW,225,5.0,8.0,61,0.00,,,0.00,44,MyOwnSoftware,2013-04-23 18:08:00,
2013-04-23 19:09:00,52.6,39.5,30.06,North,0,3.0,4.0,61,0.00,,,0.00,46,MyOwnSoftware,2013-04-23 18:09:00,
2013-04-23 19:10:00,52.6,39.5,30.06,North,0,4.0,7.0,61,0.00,,,0.00,42,MyOwnSoftware,2013-04-23 18:10:00,
2013-04-23 19:11:00,52.6,39.5,30.06,South,180,3.0,8.0,61,0.00,,,0.00,44,MyOwnSoftware,2013-04-23 18:11:00,
2013-04-23 19:12:00,52.6,39.5,30.06,SW,225,5.0,9.0,61,0.00,,,0.00,44,MyOwnSoftware,2013-04-23 18:12:00,
2013-04-23 19:13:00,52.6,39.5,30.06,West,270,3.0,6.0,61,0.00,,,0.00,44,MyOwnSoftware,2013-04-23 18:13:00,
2013-04-23 19:14:00,52.6,39.5,30.06,WNW,292,3.0,5.0,61,0.00,,,0.00,44,MyOwnSoftware,2013-04-23 18:14:00,
2013-04-23 19:15:00,52.5,39.4,30.06,NW,315,2.0,3.0,61,0.00,,,0.00,44,MyOwnSoftware,2013-04-23 18:15:00,
2013-04-23 19:16:00,52.6,39.5,30.06,North,0,2.0,6.0,61,0.00,,,0.00,44,MyOwnSoftware,2013-04-23 18:16:00,
2013-04-23 19:17:00,52.5,39.4,30.06,SW,225,3.0,7.0,61,0.00,,,0.00,35,MyOwnSoftware,2013-04-23 18:17:00,
2013-04-23 19:18:00,52.5,39.4,30.06,WSW,248,7.0,11.0,61,0.00,,,0.00,35,MyOwnSoftware,2013-04-23 18:18:00,
2013-04-23 19:19:00,52.5,39.0,30.06,NW,315,3.0,7.0,60,0.00,,,0.00,35,MyOwnSoftware,2013-04-23 18:19:00,
2013-04-23 19:20:00,52.5,38.6,30.06,SW,225,6.0,10.0,59,0.00,,,0.00,33,MyOwnSoftware,2013-04-23 18:20:00,
2013-04-23 19:21:00,52.5,38.0,30.06,SW,220,5.0,-999.0,58,-99.99,,,0.00,33,weatherlink.com 1.10,2013-04-23 18:21:00,
2013-04-23 19:22:00,52.5,38.2,30.06,WSW,248,6.0,12.0,58,0.00,,,0.00,33,MyOwnSoftware,2013-04-23 18:22:00,
2013-04-23 19:23:00,52.5,38.2,30.06,North,0,5.0,14.0,58,0.00,,,0.00,33,MyOwnSoftware,2013-04-23 18:23:00,
2013-04-23 19:24:00,52.5,38.2,30.06,WNW,292,5.0,11.0,58,0.00,,,0.00,42,MyOwnSoftware,2013-04-23 18:24:00,
2013-04-23 19:25:00,52.5,38.6,30.06,WSW,248,3.0,6.0,59,0.00,,,0.00,42,MyOwnSoftware,2013-04-23 18:25:00,
2013-04-23 19:26:00,52.5,38.2,30.06,North,0,4.0,7.0,58,0.00,,,0.00,42,MyOwnSoftware,2013-04-23 18:26:00,
2013-04-23 19:27:00,52.5,38.2,30.06,WSW,248,3.0,6.0,58,0.00,,,0.00,42,MyOwnSoftware,2013-04-23 18:27:00,
2013-04-23 19:28:00,52.5,38.2,30.06,North,0,3.0,6.0,58,0.00,,,0.00,42,MyOwnSoftware,2013-04-23 18:28:00,
2013-04-23 19:29:00,52.5,38.2,30.06,SW,225,8.0,16.0,58,0.00,,,0.00,33,MyOwnSoftware,2013-04-23 18:29:00,
2013-04-23 19:30:00,52.5,38.2,30.06,West,270,3.0,6.0,58,0.00,,,0.00,33,MyOwnSoftware,2013-04-23 18:30:00,
2013-04-23 19:31:00,52.5,38.2,30.06,North,0,3.0,7.0,58,0.00,,,0.00,33,MyOwnSoftware,2013-04-23 18:31:00,
2013-04-23 19:32:00,52.3,38.0,30.06,West,270,4.0,11.0,58,0.00,,,0.00,30,MyOwnSoftware,2013-04-23 18:32:00,
2013-04-23 19:33:00,52.3,38.0,30.06,SW,225,6.0,13.0,58,0.00,,,0.00,30,MyOwnSoftware,2013-04-23 18:33:00,
2013-04-23 19:34:00,52.3,38.0,30.06,NW,315,4.0,10.0,58,0.00,,,0.00,30,MyOwnSoftware,2013-04-23 18:34:00,
2013-04-23 19:35:00,52.3,38.0,30.06,WSW,248,3.0,10.0,58,0.00,,,0.00,30,MyOwnSoftware,2013-04-23 18:35:00,
2013-04-23 19:36:00,52.3,38.0,30.06,SW,227,4.0,-999.0,58,-99.99,,,0.00,25,weatherlink.com 1.10,2013-04-23 18:36:00,
2013-04-23 19:37:00,52.3,38.0,30.06,West,270,4.0,7.0,58,0.00,,,0.00,25,MyOwnSoftware,2013-04-23 18:37:00,
2013-04-23 19:38:00,52.2,37.9,30.06,SW,225,4.0,8.0,58,0.00,,,0.00,25,MyOwnSoftware,2013-04-23 18:38:00,
2013-04-23 19:39:00,52.2,37.9,30.06,SW,225,5.0,12.0,58,0.00,,,0.00,25,MyOwnSoftware,2013-04-23 18:39:00,
2013-04-23 19:40:00,52.2,37.9,30.06,SW,225,6.0,12.0,58,0.00,,,0.00,25,MyOwnSoftware,2013-04-23 18:40:00,
2013-04-23 19:41:00,52.2,37.9,30.06,SW,225,7.0,12.0,58,0.00,,,0.00,18,MyOwnSoftware,2013-04-23 18:41:00,
2013-04-23 19:42:00,52.2,37.9,30.06,West,270,6.0,10.0,58,0.00,,,0.00,18,MyOwnSoftware,2013-04-23 18:42:00,
2013-04-23 19:43:00,52.2,37.9,30.06,SSW,202,7.0,12.0,58,0.00,,,0.00,18,MyOwnSoftware,2013-04-23 18:43:00,
2013-04-23 19:44:00,52.0,37.7,30.06,SW,225,3.0,8.0,58,0.00,,,0.00,18,MyOwnSoftware,2013-04-23 18:44:00,
2013-04-23 19:45:00,52.0,37.7,30.07,WSW,248,4.0,6.0,58,0.00,,,0.00,18,MyOwnSoftware,2013-04-23 18:45:00,
2013-04-23 19:46:00,52.3,38.0,30.06,West,270,4.0,7.0,58,0.00,,,0.00,25,MyOwnSoftware,2013-04-23 18:46:00,
2013-04-23 19:47:00,52.0,37.7,30.07,NW,315,4.0,7.0,58,0.00,,,0.00,18,MyOwnSoftware,2013-04-23 18:47:00,
2013-04-23 19:48:00,52.0,37.7,30.07,SSW,202,6.0,13.0,58,0.00,,,0.00,18,MyOwnSoftware,2013-04-23 18:48:00,
2013-04-23 19:49:00,51.9,37.6,30.07,SSW,202,4.0,8.0,58,0.00,,,0.00,18,MyOwnSoftware,2013-04-23 18:49:00,
2013-04-23 19:50:00,51.9,38.0,30.07,South,180,5.0,7.0,59,0.00,,,0.00,18,MyOwnSoftware,2013-04-23 18:50:00,
2013-04-23 19:51:00,51.9,38.0,30.07,SW,215,8.0,-999.0,59,-99.99,,,0.00,18,weatherlink.com 1.10,2013-04-23 18:51:00,
2013-04-23 19:52:00,51.9,38.0,30.07,SSW,202,5.0,9.0,59,0.00,,,0.00,18,MyOwnSoftware,2013-04-23 18:52:00,
2013-04-23 19:53:00,51.9,38.0,30.07,SSW,202,5.0,10.0,59,0.00,,,0.00,14,MyOwnSoftware,2013-04-23 18:53:00,
2013-04-23 19:54:00,51.9,38.0,30.07,SW,225,3.0,8.0,59,0.00,,,0.00,14,MyOwnSoftware,2013-04-23 18:54:00,
2013-04-23 19:55:00,51.9,38.5,30.07,West,270,3.0,7.0,60,0.00,,,0.00,14,MyOwnSoftware,2013-04-23 18:55:00,
2013-04-23 19:56:00,51.9,38.0,30.07,SSW,202,3.0,7.0,59,0.00,,,0.00,14,MyOwnSoftware,2013-04-23 18:56:00,
2013-04-23 19:57:00,51.7,37.8,30.07,WSW,248,3.0,6.0,59,0.00,,,0.00,14,MyOwnSoftware,2013-04-23 18:57:00,
2013-04-23 19:58:00,51.7,37.8,30.07,SW,225,2.0,2.0,59,0.00,,,0.00,14,MyOwnSoftware,2013-04-23 18:58:00,
2013-04-23 19:59:00,51.7,38.3,30.07,SW,225,2.0,6.0,60,0.00,,,0.00,14,MyOwnSoftware,2013-04-23 18:59:00,
2013-04-23 20:00:00,51.7,38.3,30.07,WSW,248,4.0,9.0,60,0.00,,,0.00,14,MyOwnSoftware,2013-04-23 19:00:00,
2013-04-23 20:01:00,51.7,38.3,30.07,North,0,3.0,6.0,60,0.00,,,0.00,12,MyOwnSoftware,2013-04-23 19:01:00,
2013-04-23 20:02:00,51.7,38.3,30.07,SW,225,3.0,7.0,60,0.00,,,0.00,9,MyOwnSoftware,2013-04-23 19:02:00,
2013-04-23 20:03:00,51.7,38.3,30.07,SW,225,4.0,8.0,60,0.00,,,0.00,9,MyOwnSoftware,2013-04-23 19:03:00,
2013-04-23 20:04:00,51.7,38.3,30.07,SSW,202,3.0,5.0,60,0.00,,,0.00,9,MyOwnSoftware,2013-04-23 19:04:00,
2013-04-23 20:05:00,51.7,38.3,30.07,West,270,1.0,3.0,60,0.00,,,0.00,9,MyOwnSoftware,2013-04-23 19:05:00,
2013-04-23 20:06:00,51.7,38.0,30.07,WNW,298,2.0,-999.0,60,-99.99,,,0.00,9,weatherlink.com 1.10,2013-04-23 19:06:00,
2013-04-23 20:07:00,51.7,38.3,30.07,North,0,0.0,0.0,60,0.00,,,0.00,9,MyOwnSoftware,2013-04-23 19:07:00,
2013-04-23 20:08:00,51.7,38.3,30.07,WSW,248,1.0,2.0,60,0.00,,,0.00,9,MyOwnSoftware,2013-04-23 19:08:00,
2013-04-23 20:09:00,51.7,38.7,30.07,SSW,202,2.0,3.0,61,0.00,,,0.00,7,MyOwnSoftware,2013-04-23 19:09:00,
2013-04-23 20:10:00,51.7,38.7,30.07,SSW,202,4.0,7.0,61,0.00,,,0.00,11,MyOwnSoftware,2013-04-23 19:10:00,
2013-04-23 20:11:00,51.7,38.7,30.07,WSW,248,3.0,5.0,61,0.00,,,0.00,11,MyOwnSoftware,2013-04-23 19:11:00,
2013-04-23 20:12:00,51.7,38.7,30.07,SW,225,2.0,5.0,61,0.00,,,0.00,11,MyOwnSoftware,2013-04-23 19:12:00,
2013-04-23 20:13:00,51.7,38.7,30.07,WSW,248,3.0,7.0,61,0.00,,,0.00,11,MyOwnSoftware,2013-04-23 19:13:00,
2013-04-23 20:14:00,51.7,38.7,30.07,SE,135,1.0,3.0,61,0.00,,,0.00,12,MyOwnSoftware,2013-04-23 19:14:00,
2013-04-23 20:15:00,51.7,38.7,30.08,South,180,4.0,7.0,61,0.00,,,0.00,12,MyOwnSoftware,2013-04-23 19:15:00,
2013-04-23 20:16:00,51.6,38.6,30.08,North,0,5.0,7.0,61,0.00,,,0.00,12,MyOwnSoftware,2013-04-23 19:16:00,
2013-04-23 20:17:00,51.7,38.3,30.07,WSW,248,1.0,2.0,60,0.00,,,0.00,9,MyOwnSoftware,2013-04-23 19:17:00,
2013-04-23 20:18:00,51.6,38.2,30.08,WNW,292,7.0,12.0,60,0.00,,,0.00,9,MyOwnSoftware,2013-04-23 19:18:00,
2013-04-23 20:19:00,51.6,38.2,30.08,SSE,158,3.0,6.0,60,0.00,,,0.00,9,MyOwnSoftware,2013-04-23 19:19:00,
2013-04-23 20:20:00,51.6,38.2,30.08,SW,225,4.0,12.0,60,0.00,,,0.00,9,MyOwnSoftware,2013-04-23 19:20:00,
2013-04-23 20:21:00,51.6,38.2,30.08,SSW,202,6.0,9.0,60,0.00,,,0.00,9,MyOwnSoftware,2013-04-23 19:21:00,
2013-04-23 20:22:00,51.6,38.2,30.08,WSW,248,2.0,5.0,60,0.00,,,0.00,9,MyOwnSoftware,2013-04-23 19:22:00,
2013-04-23 20:23:00,51.6,38.2,30.08,West,270,4.0,8.0,60,0.00,,,0.00,9,MyOwnSoftware,2013-04-23 19:23:00,
2013-04-23 20:24:00,51.6,37.7,30.08,NW,315,3.0,6.0,59,0.00,,,0.00,9,MyOwnSoftware,2013-04-23 19:24:00,
2013-04-23 20:25:00,51.6,37.7,30.08,SW,225,5.0,10.0,59,0.00,,,0.00,9,MyOwnSoftware,2013-04-23 19:25:00,
2013-04-23 20:26:00,51.6,37.7,30.08,WSW,248,4.0,6.0,59,0.00,,,0.00,8,MyOwnSoftware,2013-04-23 19:26:00,
2013-04-23 20:27:00,51.6,37.7,30.08,South,180,5.0,8.0,59,0.00,,,0.00,7,MyOwnSoftware,2013-04-23 19:27:00,
2013-04-23 20:28:00,51.6,37.7,30.08,SSW,202,4.0,7.0,59,0.00,,,0.00,7,MyOwnSoftware,2013-04-23 19:28:00,
2013-04-23 20:29:00,51.6,37.7,30.08,NW,315,1.0,6.0,59,0.00,,,0.00,7,MyOwnSoftware,2013-04-23 19:29:00,
2013-04-23 20:30:00,51.6,37.7,30.09,SW,225,4.0,7.0,59,0.00,,,0.00,7,MyOwnSoftware,2013-04-23 19:30:00,
2013-04-23 20:31:00,51.6,37.7,30.09,WSW,248,4.0,6.0,59,0.00,,,0.00,5,MyOwnSoftware,2013-04-23 19:31:00,
2013-04-23 20:32:00,51.6,37.7,30.09,SW,225,3.0,7.0,59,0.00,,,0.00,5,MyOwnSoftware,2013-04-23 19:32:00,
2013-04-23 20:33:00,51.6,37.7,30.09,SSW,202,3.0,7.0,59,0.00,,,0.00,5,MyOwnSoftware,2013-04-23 19:33:00,
2013-04-23 20:34:00,51.6,37.7,30.09,South,180,2.0,6.0,59,0.00,,,0.00,5,MyOwnSoftware,2013-04-23 19:34:00,
2013-04-23 20:35:00,51.6,37.7,30.09,SW,225,2.0,5.0,59,0.00,,,0.00,5,MyOwnSoftware,2013-04-23 19:35:00,
2013-04-23 20:36:00,51.6,37.7,30.09,SW,225,2.0,4.0,59,0.00,,,0.00,5,MyOwnSoftware,2013-04-23 19:36:00,
2013-04-23 20:37:00,51.4,37.0,30.09,West,267,5.0,-999.0,59,-99.99,,,0.00,5,weatherlink.com 1.10,2013-04-23 19:37:00,
2013-04-23 20:38:00,51.4,37.6,30.09,SSE,158,5.0,8.0,59,0.00,,,0.00,5,MyOwnSoftware,2013-04-23 19:38:00,
2013-04-23 20:39:00,51.4,37.6,30.09,WSW,248,3.0,6.0,59,0.00,,,0.00,0,MyOwnSoftware,2013-04-23 19:39:00,
2013-04-23 20:40:00,51.4,37.6,30.09,SW,225,2.0,3.0,59,0.00,,,0.00,0,MyOwnSoftware,2013-04-23 19:40:00,
2013-04-23 20:41:00,51.4,37.6,30.09,SSW,202,5.0,8.0,59,0.00,,,0.00,0,MyOwnSoftware,2013-04-23 19:41:00,
2013-04-23 20:42:00,51.4,37.6,30.09,WSW,248,2.0,6.0,59,0.00,,,0.00,0,MyOwnSoftware,2013-04-23 19:42:00,
2013-04-23 20:43:00,51.3,37.5,30.09,South,180,2.0,3.0,59,0.00,,,0.00,0,MyOwnSoftware,2013-04-23 19:43:00,
2013-04-23 20:44:00,51.3,37.5,30.09,West,270,3.0,6.0,59,0.00,,,0.00,0,MyOwnSoftware,2013-04-23 19:44:00,
2013-04-23 20:45:00,51.3,37.9,30.09,SW,225,4.0,8.0,60,0.00,,,0.00,0,MyOwnSoftware,2013-04-23 19:45:00,
2013-04-23 20:46:00,51.4,37.6,30.09,SSW,202,4.0,11.0,59,0.00,,,0.00,5,MyOwnSoftware,2013-04-23 19:46:00,
2013-04-23 20:47:00,51.1,37.7,30.09,North,0,4.0,6.0,60,0.00,,,0.00,0,MyOwnSoftware,2013-04-23 19:47:00,
2013-04-23 20:48:00,51.1,37.7,30.09,SW,225,3.0,7.0,60,0.00,,,0.00,0,MyOwnSoftware,2013-04-23 19:48:00,
2013-04-23 20:49:00,51.1,37.7,30.09,West,270,4.0,8.0,60,0.00,,,0.00,0,MyOwnSoftware,2013-04-23 19:49:00,
2013-04-23 20:50:00,51.1,37.7,30.09,SSW,202,6.0,12.0,60,0.00,,,0.00,0,MyOwnSoftware,2013-04-23 19:50:00,
2013-04-23 20:51:00,51.0,37.6,30.09,SSW,202,4.0,7.0,60,0.00,,,0.00,0,MyOwnSoftware,2013-04-23 19:51:00,
2013-04-23 20:52:00,51.0,37.0,30.09,SSW,200,5.0,-999.0,60,-99.99,,,0.00,0,weatherlink.com 1.10,2013-04-23 19:52:00,
2013-04-23 20:53:00,51.0,38.0,30.09,SSW,202,6.0,8.0,61,0.00,,,0.00,0,MyOwnSoftware,2013-04-23 19:53:00,
2013-04-23 20:54:00,51.0,38.0,30.09,SW,225,2.0,7.0,61,0.00,,,0.00,0,MyOwnSoftware,2013-04-23 19:54:00,
2013-04-23 20:55:00,51.0,38.0,30.09,SSW,202,3.0,10.0,61,0.00,,,0.00,0,MyOwnSoftware,2013-04-23 19:55:00,
2013-04-23 20:56:00,50.8,37.8,30.09,SSW,202,4.0,7.0,61,0.00,,,0.00,0,MyOwnSoftware,2013-04-23 19:56:00,
2013-04-23 20:57:00,50.8,37.8,30.09,SW,225,3.0,6.0,61,0.00,,,0.00,0,MyOwnSoftware,2013-04-23 19:57:00,
2013-04-23 20:58:00,50.8,37.8,30.09,West,270,3.0,10.0,61,0.00,,,0.00,0,MyOwnSoftware,2013-04-23 19:58:00,
2013-04-23 20:59:00,50.8,37.8,30.09,West,270,2.0,5.0,61,0.00,,,0.00,0,MyOwnSoftware,2013-04-23 19:59:00,
2013-04-23 21:00:00,50.8,37.8,30.09,SSW,202,3.0,7.0,61,0.00,,,0.00,0,MyOwnSoftware,2013-04-23 20:00:00,
2013-04-23 21:01:00,50.7,37.7,30.09,SW,225,0.0,2.0,61,0.00,,,0.00,0,MyOwnSoftware,2013-04-23 20:01:00,
2013-04-23 21:02:00,50.7,37.7,30.09,West,270,1.0,3.0,61,0.00,,,0.00,0,MyOwnSoftware,2013-04-23 20:02:00,
2013-04-23 21:03:00,50.7,37.7,30.09,South,180,2.0,5.0,61,0.00,,,0.00,0,MyOwnSoftware,2013-04-23 20:03:00,
2013-04-23 21:04:00,50.7,37.7,30.09,North,0,3.0,5.0,61,0.00,,,0.00,0,MyOwnSoftware,2013-04-23 20:04:00,
2013-04-23 21:05:00,50.7,38.2,30.09,WNW,292,3.0,7.0,62,0.00,,,0.00,0,MyOwnSoftware,2013-04-23 20:05:00,
2013-04-23 21:06:00,50.7,38.2,30.09,West,270,4.0,7.0,62,0.00,,,0.00,0,MyOwnSoftware,2013-04-23 20:06:00,
2013-04-23 21:07:00,50.5,38.0,30.09,SW,217,2.0,-999.0,62,-99.99,,,0.00,0,weatherlink.com 1.10,2013-04-23 20:07:00,
2013-04-23 21:08:00,50.5,38.0,30.09,WSW,248,1.0,3.0,62,0.00,,,0.00,0,MyOwnSoftware,2013-04-23 20:08:00,
2013-04-23 21:09:00,50.5,38.0,30.09,WSW,248,4.0,8.0,62,0.00,,,0.00,0,MyOwnSoftware,2013-04-23 20:09:00,
2013-04-23 21:10:00,50.5,38.0,30.09,SSW,202,6.0,10.0,62,0.00,,,0.00,0,MyOwnSoftware,2013-04-23 20:10:00,
2013-04-23 21:11:00,50.5,38.0,30.09,SW,225,4.0,11.0,62,0.00,,,0.00,0,MyOwnSoftware,2013-04-23 20:11:00,
2013-04-23 21:12:00,50.5,38.0,30.09,SSW,202,5.0,7.0,62,0.00,,,0.00,0,MyOwnSoftware,2013-04-23 20:12:00,
2013-04-23 21:13:00,50.5,38.0,30.09,SW,225,3.0,6.0,62,0.00,,,0.00,0,MyOwnSoftware,2013-04-23 20:13:00,
2013-04-23 21:14:00,50.5,38.0,30.09,SW,225,3.0,6.0,62,0.00,,,0.00,0,MyOwnSoftware,2013-04-23 20:14:00,
2013-04-23 21:15:00,50.4,37.9,30.10,SW,225,2.0,3.0,62,0.00,,,0.00,0,MyOwnSoftware,2013-04-23 20:15:00,
2013-04-23 21:16:00,50.5,38.0,30.09,WSW,248,1.0,3.0,62,0.00,,,0.00,0,MyOwnSoftware,2013-04-23 20:16:00,
2013-04-23 21:17:00,50.4,38.3,30.10,SSW,202,5.0,11.0,63,0.00,,,0.00,0,MyOwnSoftware,2013-04-23 20:17:00,
2013-04-23 21:18:00,50.4,38.3,30.10,SSW,202,3.0,6.0,63,0.00,,,0.00,0,MyOwnSoftware,2013-04-23 20:18:00,
2013-04-23 21:19:00,50.4,38.3,30.10,SW,225,2.0,7.0,63,0.00,,,0.00,0,MyOwnSoftware,2013-04-23 20:19:00,
2013-04-23 21:20:00,50.4,38.3,30.10,South,180,3.0,6.0,63,0.00,,,0.00,0,MyOwnSoftware,2013-04-23 20:20:00,
2013-04-23 21:21:00,50.4,38.3,30.10,SE,135,2.0,3.0,63,0.00,,,0.00,0,MyOwnSoftware,2013-04-23 20:21:00,
2013-04-23 21:22:00,50.2,38.0,30.10,SW,224,3.0,-999.0,63,-99.99,,,0.00,0,weatherlink.com 1.10,2013-04-23 20:22:00,
2013-04-23 21:23:00,50.2,38.1,30.10,SW,225,4.0,7.0,63,0.00,,,0.00,0,MyOwnSoftware,2013-04-23 20:23:00,
2013-04-23 21:24:00,50.2,38.1,30.10,West,270,3.0,7.0,63,0.00,,,0.00,0,MyOwnSoftware,2013-04-23 20:24:00,
2013-04-23 21:25:00,50.2,38.1,30.10,WNW,292,3.0,6.0,63,0.00,,,0.00,0,MyOwnSoftware,2013-04-23 20:25:00,
2013-04-23 21:26:00,50.2,38.1,30.10,WSW,248,3.0,6.0,63,0.00,,,0.00,0,MyOwnSoftware,2013-04-23 20:26:00,
2013-04-23 21:27:00,50.2,38.1,30.10,NNW,338,2.0,6.0,63,0.00,,,0.00,0,MyOwnSoftware,2013-04-23 20:27:00,
2013-04-23 21:28:00,50.1,38.0,30.10,WSW,248,3.0,7.0,63,0.00,,,0.00,0,MyOwnSoftware,2013-04-23 20:28:00,
2013-04-23 21:29:00,50.1,38.0,30.10,NW,315,4.0,8.0,63,0.00,,,0.00,0,MyOwnSoftware,2013-04-23 20:29:00,
2013-04-23 21:30:00,50.1,38.0,30.10,WNW,292,2.0,4.0,63,0.00,,,0.00,0,MyOwnSoftware,2013-04-23 20:30:00,
2013-04-23 21:31:00,50.1,38.0,30.10,North,0,5.0,7.0,63,0.00,,,0.00,0,MyOwnSoftware,2013-04-23 20:31:00,
2013-04-23 21:32:00,50.1,38.0,30.10,NW,315,4.0,7.0,63,0.00,,,0.00,0,MyOwnSoftware,2013-04-23 20:32:00,
2013-04-23 21:33:00,50.1,38.0,30.10,NE,45,4.0,6.0,63,0.00,,,0.00,0,MyOwnSoftware,2013-04-23 20:33:00,
2013-04-23 21:34:00,49.9,37.8,30.10,NNW,338,3.0,5.0,63,0.00,,,0.00,0,MyOwnSoftware,2013-04-23 20:34:00,
2013-04-23 21:35:00,49.9,37.8,30.10,ENE,68,2.0,5.0,63,0.00,,,0.00,0,MyOwnSoftware,2013-04-23 20:35:00,
2013-04-23 21:36:00,49.9,38.2,30.10,NW,315,4.0,6.0,64,0.00,,,0.00,0,MyOwnSoftware,2013-04-23 20:36:00,
2013-04-23 21:37:00,49.9,38.0,30.10,NW,318,3.0,-999.0,64,-99.99,,,0.00,0,weatherlink.com 1.10,2013-04-23 20:37:00,
2013-04-23 21:38:00,49.9,38.2,30.10,North,0,3.0,6.0,64,0.00,,,0.00,0,MyOwnSoftware,2013-04-23 20:38:00,
2013-04-23 21:39:00,49.9,38.2,30.10,South,180,2.0,5.0,64,0.00,,,0.00,0,MyOwnSoftware,2013-04-23 20:39:00,
2013-04-23 21:40:00,49.9,38.2,30.10,South,180,2.0,5.0,64,0.00,,,0.00,0,MyOwnSoftware,2013-04-23 20:40:00,
2013-04-23 21:41:00,49.9,38.2,30.10,North,0,3.0,4.0,64,0.00,,,0.00,0,MyOwnSoftware,2013-04-23 20:41:00,
2013-04-23 21:42:00,49.9,38.2,30.10,SW,225,2.0,5.0,64,0.00,,,0.00,0,MyOwnSoftware,2013-04-23 20:42:00,
2013-04-23 21:43:00,49.9,38.2,30.10,NNE,22,2.0,4.0,64,0.00,,,0.00,0,MyOwnSoftware,2013-04-23 20:43:00,
2013-04-23 21:44:00,49.8,38.1,30.10,North,0,2.0,6.0,64,0.00,,,0.00,0,MyOwnSoftware,2013-04-23 20:44:00,
2013-04-23 21:45:00,49.8,38.1,30.10,WSW,248,3.0,6.0,64,0.00,,,0.00,0,MyOwnSoftware,2013-04-23 20:45:00,
2013-04-23 21:46:00,49.8,38.5,30.10,SW,225,2.0,4.0,65,0.00,,,0.00,0,MyOwnSoftware,2013-04-23 20:46:00,
2013-04-23 21:47:00,49.8,38.5,30.10,NNW,338,2.0,5.0,65,0.00,,,0.00,0,MyOwnSoftware,2013-04-23 20:47:00,
2013-04-23 21:48:00,49.8,38.5,30.10,SSW,202,3.0,6.0,65,0.00,,,0.00,0,MyOwnSoftware,2013-04-23 20:48:00,
2013-04-23 21:49:00,49.9,38.2,30.10,South,180,2.0,5.0,64,0.00,,,0.00,0,MyOwnSoftware,2013-04-23 20:49:00,
2013-04-23 21:50:00,49.8,38.5,30.10,WNW,292,1.0,3.0,65,0.00,,,0.00,0,MyOwnSoftware,2013-04-23 20:50:00,
2013-04-23 21:51:00,49.6,38.3,30.10,North,0,2.0,5.0,65,0.00,,,0.00,0,MyOwnSoftware,2013-04-23 20:51:00,
2013-04-23 21:52:00,49.6,38.3,30.10,NNE,22,2.0,5.0,65,0.00,,,0.00,0,MyOwnSoftware,2013-04-23 20:52:00,
2013-04-23 21:53:00,49.6,38.3,30.10,SW,225,3.0,12.0,65,0.00,,,0.00,0,MyOwnSoftware,2013-04-23 20:53:00,
2013-04-23 21:54:00,49.6,38.3,30.10,North,0,3.0,6.0,65,0.00,,,0.00,0,MyOwnSoftware,2013-04-23 20:54:00,
2013-04-23 21:55:00,49.6,38.3,30.10,SSE,158,2.0,5.0,65,0.00,,,0.00,0,MyOwnSoftware,2013-04-23 20:55:00,
2013-04-23 21:56:00,49.5,38.2,30.10,WSW,248,0.0,2.0,65,0.00,,,0.00,0,MyOwnSoftware,2013-04-23 20:56:00,
2013-04-23 21:57:00,49.5,38.2,30.10,SW,225,2.0,4.0,65,0.00,,,0.00,0,MyOwnSoftware,2013-04-23 20:57:00,
2013-04-23 21:58:00,49.8,38.5,30.10,WSW,248,1.0,3.0,65,0.00,,,0.00,0,MyOwnSoftware,2013-04-23 20:58:00,
2013-04-23 21:59:00,49.5,38.2,30.10,NNW,338,0.0,2.0,65,0.00,,,0.00,0,MyOwnSoftware,2013-04-23 20:59:00,
2013-04-23 22:00:00,49.5,38.2,30.09,WSW,248,2.0,3.0,65,0.00,,,0.00,0,MyOwnSoftware,2013-04-23 21:00:00,
2013-04-23 22:01:00,49.5,38.2,30.09,SSW,202,1.0,4.0,65,0.00,,,0.00,0,MyOwnSoftware,2013-04-23 21:01:00,
2013-04-23 22:02:00,49.4,38.1,30.09,North,0,0.0,0.0,65,0.00,,,0.00,0,MyOwnSoftware,2013-04-23 21:02:00,
2013-04-23 22:03:00,49.4,38.1,30.09,SW,225,0.0,1.0,65,0.00,,,0.00,0,MyOwnSoftware,2013-04-23 21:03:00,
2013-04-23 22:04:00,49.4,38.1,30.09,SSW,202,1.0,4.0,65,0.00,,,0.00,0,MyOwnSoftware,2013-04-23 21:04:00,
2013-04-23 22:05:00,49.4,38.5,30.09,SSW,202,1.0,3.0,66,0.00,,,0.00,0,MyOwnSoftware,2013-04-23 21:05:00,
2013-04-23 22:06:00,49.4,38.5,30.09,NW,315,3.0,6.0,66,0.00,,,0.00,0,MyOwnSoftware,2013-04-23 21:06:00,
2013-04-23 22:07:00,49.4,38.0,30.09,West,263,0.0,-999.0,66,-99.99,,,0.00,0,weatherlink.com 1.10,2013-04-23 21:07:00,
2013-04-23 22:08:00,49.2,38.3,30.09,West,270,1.0,2.0,66,0.00,,,0.00,0,MyOwnSoftware,2013-04-23 21:08:00,
2013-04-23 22:09:00,49.2,38.3,30.09,SW,225,4.0,8.0,66,0.00,,,0.00,0,MyOwnSoftware,2013-04-23 21:09:00,
2013-04-23 22:10:00,49.2,37.9,30.09,West,270,3.0,7.0,65,0.00,,,0.00,0,MyOwnSoftware,2013-04-23 21:10:00,
2013-04-23 22:11:00,49.2,37.9,30.09,SW,225,2.0,6.0,65,0.00,,,0.00,0,MyOwnSoftware,2013-04-23 21:11:00,
2013-04-23 22:12:00,49.2,37.9,30.09,WNW,292,2.0,5.0,65,0.00,,,0.00,0,MyOwnSoftware,2013-04-23 21:12:00,
2013-04-23 22:13:00,49.2,37.9,30.09,NNW,338,2.0,5.0,65,0.00,,,0.00,0,MyOwnSoftware,2013-04-23 21:13:00,
2013-04-23 22:14:00,49.2,37.9,30.09,WSW,248,1.0,2.0,65,0.00,,,0.00,0,MyOwnSoftware,2013-04-23 21:14:00,
2013-04-23 22:15:00,49.2,37.9,30.09,SW,225,3.0,5.0,65,0.00,,,0.00,0,MyOwnSoftware,2013-04-23 21:15:00,
2013-04-23 22:16:00,49.2,37.9,30.09,West,270,3.0,6.0,65,0.00,,,0.00,0,MyOwnSoftware,2013-04-23 21:16:00,
2013-04-23 22:17:00,49.2,38.3,30.09,West,270,1.0,2.0,66,0.00,,,0.00,0,MyOwnSoftware,2013-04-23 21:17:00,
2013-04-23 22:18:00,49.2,37.5,30.09,West,270,2.0,3.0,64,0.00,,,0.00,0,MyOwnSoftware,2013-04-23 21:18:00,
2013-04-23 22:19:00,49.2,37.5,30.09,WSW,248,1.0,3.0,64,0.00,,,0.00,0,MyOwnSoftware,2013-04-23 21:19:00,
2013-04-23 22:20:00,49.2,37.5,30.09,NW,315,2.0,5.0,64,0.00,,,0.00,0,MyOwnSoftware,2013-04-23 21:20:00,
2013-04-23 22:21:00,49.2,37.5,30.09,NE,45,1.0,3.0,64,0.00,,,0.00,0,MyOwnSoftware,2013-04-23 21:21:00,
2013-04-23 22:22:00,49.2,37.0,30.09,WSW,237,6.0,-999.0,64,-99.99,,,0.00,0,weatherlink.com 1.10,2013-04-23 21:22:00,
2013-04-23 22:23:00,49.2,37.5,30.09,WSW,248,3.0,6.0,64,0.00,,,0.00,0,MyOwnSoftware,2013-04-23 21:23:00,
2013-04-23 22:24:00,49.2,37.5,30.09,WSW,248,2.0,3.0,64,0.00,,,0.00,0,MyOwnSoftware,2013-04-23 21:24:00,
2013-04-23 22:25:00,49.2,37.5,30.09,NW,315,3.0,7.0,64,0.00,,,0.00,0,MyOwnSoftware,2013-04-23 21:25:00,
2013-04-23 22:26:00,49.4,37.7,30.09,West,270,2.0,4.0,64,0.00,,,0.00,0,MyOwnSoftware,2013-04-23 21:26:00,
2013-04-23 22:27:00,49.4,37.7,30.09,SSW,202,4.0,8.0,64,0.00,,,0.00,0,MyOwnSoftware,2013-04-23 21:27:00,
2013-04-23 22:28:00,49.4,37.7,30.09,WSW,248,2.0,7.0,64,0.00,,,0.00,0,MyOwnSoftware,2013-04-23 21:28:00,
2013-04-23 22:29:00,49.4,37.7,30.09,WSW,248,2.0,4.0,64,0.00,,,0.00,0,MyOwnSoftware,2013-04-23 21:29:00,
2013-04-23 22:30:00,49.4,38.1,30.10,SW,225,2.0,7.0,65,0.00,,,0.00,0,MyOwnSoftware,2013-04-23 21:30:00,
2013-04-23 22:31:00,49.4,38.1,30.10,NW,315,3.0,6.0,65,0.00,,,0.00,0,MyOwnSoftware,2013-04-23 21:31:00,
2013-04-23 22:32:00,49.4,38.1,30.10,SW,225,4.0,8.0,65,0.00,,,0.00,0,MyOwnSoftware,2013-04-23 21:32:00,
2013-04-23 22:33:00,49.4,38.1,30.10,SW,225,3.0,7.0,65,0.00,,,0.00,0,MyOwnSoftware,2013-04-23 21:33:00,
2013-04-23 22:34:00,49.4,38.1,30.10,WNW,292,2.0,5.0,65,0.00,,,0.00,0,MyOwnSoftware,2013-04-23 21:34:00,
2013-04-23 22:35:00,49.4,38.1,30.10,ENE,68,2.0,4.0,65,0.00,,,0.00,0,MyOwnSoftware,2013-04-23 21:35:00,
2013-04-23 22:36:00,49.4,38.1,30.10,SSW,202,2.0,5.0,65,0.00,,,0.00,0,MyOwnSoftware,2013-04-23 21:36:00,
2013-04-23 22:37:00,49.4,38.0,30.10,West,261,3.0,-999.0,65,-99.99,,,0.00,0,weatherlink.com 1.10,2013-04-23 21:37:00,
2013-04-23 22:38:00,49.4,38.1,30.10,NNE,22,2.0,3.0,65,0.00,,,0.00,0,MyOwnSoftware,2013-04-23 21:38:00,
2013-04-23 22:39:00,49.4,38.1,30.10,ENE,68,2.0,3.0,65,0.00,,,0.00,0,MyOwnSoftware,2013-04-23 21:39:00,
2013-04-23 22:40:00,49.4,38.1,30.10,South,180,3.0,6.0,65,0.00,,,0.00,0,MyOwnSoftware,2013-04-23 21:40:00,
2013-04-23 22:41:00,49.4,38.5,30.10,South,180,1.0,5.0,66,0.00,,,0.00,0,MyOwnSoftware,2013-04-23 21:41:00,
2013-04-23 22:42:00,49.4,38.5,30.10,South,180,1.0,2.0,66,0.00,,,0.00,0,MyOwnSoftware,2013-04-23 21:42:00,
2013-04-23 22:43:00,49.4,38.5,30.10,SW,225,1.0,2.0,66,0.00,,,0.00,0,MyOwnSoftware,2013-04-23 21:43:00,
2013-04-23 22:44:00,49.4,38.5,30.10,WSW,248,1.0,2.0,66,0.00,,,0.00,0,MyOwnSoftware,2013-04-23 21:44:00,
2013-04-23 22:45:00,49.4,38.5,30.11,WSW,248,1.0,2.0,66,0.00,,,0.00,0,MyOwnSoftware,2013-04-23 21:45:00,
2013-04-23 22:46:00,49.4,38.1,30.10,NNE,22,1.0,2.0,65,0.00,,,0.00,0,MyOwnSoftware,2013-04-23 21:46:00,
2013-04-23 22:47:00,49.2,38.3,30.11,South,180,1.0,2.0,66,0.00,,,0.00,0,MyOwnSoftware,2013-04-23 21:47:00,
2013-04-23 22:48:00,49.2,38.7,30.11,SW,225,0.0,1.0,67,0.00,,,0.00,0,MyOwnSoftware,2013-04-23 21:48:00,
2013-04-23 22:49:00,49.2,38.7,30.11,WNW,292,1.0,3.0,67,0.00,,,0.00,0,MyOwnSoftware,2013-04-23 21:49:00,
2013-04-23 22:50:00,49.2,38.7,30.11,WNW,292,1.0,3.0,67,0.00,,,0.00,0,MyOwnSoftware,2013-04-23 21:50:00,
2013-04-23 22:51:00,49.2,38.7,30.11,NW,315,1.0,3.0,67,0.00,,,0.00,0,MyOwnSoftware,2013-04-23 21:51:00,
2013-04-23 22:52:00,49.2,38.7,30.11,NNW,338,1.0,3.0,67,0.00,,,0.00,0,MyOwnSoftware,2013-04-23 21:52:00,
2013-04-23 22:53:00,49.2,39.0,30.11,NNE,13,0.0,-999.0,67,-99.99,,,0.00,0,weatherlink.com 1.10,2013-04-23 21:53:00,
2013-04-23 22:54:00,49.2,38.7,30.11,West,270,1.0,5.0,67,0.00,,,0.00,0,MyOwnSoftware,2013-04-23 21:54:00,
2013-04-23 22:55:00,49.2,38.7,30.11,SSW,202,3.0,6.0,67,0.00,,,0.00,0,MyOwnSoftware,2013-04-23 21:55:00,
2013-04-23 22:56:00,49.2,38.7,30.11,SW,225,3.0,6.0,67,0.00,,,0.00,0,MyOwnSoftware,2013-04-23 21:56:00,
2013-04-23 22:57:00,49.2,38.7,30.11,SSW,202,3.0,5.0,67,0.00,,,0.00,0,MyOwnSoftware,2013-04-23 21:57:00,
2013-04-23 22:58:00,49.2,38.7,30.11,SW,225,3.0,5.0,67,0.00,,,0.00,0,MyOwnSoftware,2013-04-23 21:58:00,
2013-04-23 22:59:00,49.2,38.7,30.11,SW,225,1.0,4.0,67,0.00,,,0.00,0,MyOwnSoftware,2013-04-23 21:59:00,
2013-04-23 23:00:00,49.2,38.7,30.10,SSW,202,2.0,5.0,67,0.00,,,0.00,0,MyOwnSoftware,2013-04-23 22:00:00,
2013-04-23 23:01:00,49.2,38.7,30.10,West,270,0.0,2.0,67,0.00,,,0.00,0,MyOwnSoftware,2013-04-23 22:01:00,
2013-04-23 23:02:00,49.2,38.7,30.10,West,270,0.0,2.0,67,0.00,,,0.00,0,MyOwnSoftware,2013-04-23 22:02:00,
2013-04-23 23:03:00,49.2,39.1,30.10,SW,225,2.0,3.0,68,0.00,,,0.00,0,MyOwnSoftware,2013-04-23 22:03:00,
2013-04-23 23:04:00,49.2,39.1,30.10,SSW,202,2.0,6.0,68,0.00,,,0.00,0,MyOwnSoftware,2013-04-23 22:04:00,
2013-04-23 23:05:00,49.2,39.1,30.10,WNW,292,2.0,3.0,68,0.00,,,0.00,0,MyOwnSoftware,2013-04-23 22:05:00,
2013-04-23 23:06:00,49.2,39.1,30.10,WNW,292,1.0,3.0,68,0.00,,,0.00,0,MyOwnSoftware,2013-04-23 22:06:00,
2013-04-23 23:07:00,49.2,39.1,30.10,SSW,202,3.0,6.0,68,0.00,,,0.00,0,MyOwnSoftware,2013-04-23 22:07:00,
2013-04-23 23:08:00,49.2,39.0,30.10,SSW,213,2.0,-999.0,68,-99.99,,,0.00,0,weatherlink.com 1.10,2013-04-23 22:08:00,
2013-04-23 23:09:00,49.2,39.1,30.10,NW,315,1.0,3.0,68,0.00,,,0.00,0,MyOwnSoftware,2013-04-23 22:09:00,
2013-04-23 23:10:00,49.2,39.1,30.10,SSW,202,3.0,6.0,68,0.00,,,0.00,0,MyOwnSoftware,2013-04-23 22:10:00,
2013-04-23 23:11:00,49.2,39.1,30.10,WSW,248,1.0,3.0,68,0.00,,,0.00,0,MyOwnSoftware,2013-04-23 22:11:00,
2013-04-23 23:12:00,49.2,39.1,30.10,SW,225,2.0,6.0,68,0.00,,,0.00,0,MyOwnSoftware,2013-04-23 22:12:00,
2013-04-23 23:13:00,49.2,39.1,30.10,WNW,292,2.0,3.0,68,0.00,,,0.00,0,MyOwnSoftware,2013-04-23 22:13:00,
2013-04-23 23:14:00,49.2,39.1,30.10,WSW,248,1.0,2.0,68,0.00,,,0.00,0,MyOwnSoftware,2013-04-23 22:14:00,
2013-04-23 23:15:00,49.2,39.1,30.10,SSE,158,1.0,1.0,68,0.00,,,0.00,0,MyOwnSoftware,2013-04-23 22:15:00,
2013-04-23 23:16:00,49.4,39.3,30.10,West,270,2.0,3.0,68,0.00,,,0.00,0,MyOwnSoftware,2013-04-23 22:16:00,
2013-04-23 23:17:00,49.2,39.1,30.10,WNW,292,2.0,6.0,68,0.00,,,0.00,0,MyOwnSoftware,2013-04-23 22:17:00,
2013-04-23 23:18:00,49.4,39.3,30.10,WNW,292,2.0,6.0,68,0.00,,,0.00,0,MyOwnSoftware,2013-04-23 22:18:00,
2013-04-23 23:19:00,49.4,39.3,30.10,WSW,248,1.0,2.0,68,0.00,,,0.00,0,MyOwnSoftware,2013-04-23 22:19:00,
2013-04-23 23:20:00,49.4,39.3,30.10,WSW,248,2.0,6.0,68,0.00,,,0.00,0,MyOwnSoftware,2013-04-23 22:20:00,
2013-04-23 23:21:00,49.4,39.3,30.10,SW,225,2.0,3.0,68,0.00,,,0.00,0,MyOwnSoftware,2013-04-23 22:21:00,
2013-04-23 23:22:00,49.4,39.3,30.10,West,270,2.0,4.0,68,0.00,,,0.00,0,MyOwnSoftware,2013-04-23 22:22:00,
2013-04-23 23:23:00,49.4,39.0,30.10,SSE,157,2.0,-999.0,68,-99.99,,,0.00,0,weatherlink.com 1.10,2013-04-23 22:23:00,
2013-04-23 23:24:00,49.4,39.3,30.10,SSE,158,2.0,5.0,68,0.00,,,0.00,0,MyOwnSoftware,2013-04-23 22:24:00,
2013-04-23 23:25:00,49.4,39.3,30.10,SW,225,2.0,6.0,68,0.00,,,0.00,0,MyOwnSoftware,2013-04-23 22:25:00,
2013-04-23 23:26:00,49.4,39.3,30.10,NNW,338,2.0,3.0,68,0.00,,,0.00,0,MyOwnSoftware,2013-04-23 22:26:00,
2013-04-23 23:27:00,49.5,39.4,30.10,WSW,248,3.0,5.0,68,0.00,,,0.00,0,MyOwnSoftware,2013-04-23 22:27:00,
2013-04-23 23:28:00,49.5,39.4,30.10,SW,225,2.0,3.0,68,0.00,,,0.00,0,MyOwnSoftware,2013-04-23 22:28:00,
2013-04-23 23:29:00,49.5,39.4,30.10,NNE,22,2.0,3.0,68,0.00,,,0.00,0,MyOwnSoftware,2013-04-23 22:29:00,
2013-04-23 23:30:00,49.5,39.4,30.10,North,0,2.0,3.0,68,0.00,,,0.00,0,MyOwnSoftware,2013-04-23 22:30:00,
2013-04-23 23:31:00,49.5,39.4,30.10,West,270,1.0,4.0,68,0.00,,,0.00,0,MyOwnSoftware,2013-04-23 22:31:00,
2013-04-23 23:32:00,49.5,39.4,30.10,SSW,202,1.0,3.0,68,0.00,,,0.00,0,MyOwnSoftware,2013-04-23 22:32:00,
2013-04-23 23:33:00,49.5,39.4,30.10,SSE,158,1.0,3.0,68,0.00,,,0.00,0,MyOwnSoftware,2013-04-23 22:33:00,
2013-04-23 23:34:00,49.5,39.4,30.10,North,0,2.0,4.0,68,0.00,,,0.00,0,MyOwnSoftware,2013-04-23 22:34:00,
2013-04-23 23:35:00,49.5,39.4,30.10,NE,45,1.0,3.0,68,0.00,,,0.00,0,MyOwnSoftware,2013-04-23 22:35:00,
2013-04-23 23:36:00,49.5,39.4,30.10,SSE,158,2.0,3.0,68,0.00,,,0.00,0,MyOwnSoftware,2013-04-23 22:36:00,
2013-04-23 23:37:00,49.6,39.5,30.10,ENE,68,2.0,4.0,68,0.00,,,0.00,0,MyOwnSoftware,2013-04-23 22:37:00,
2013-04-23 23:38:00,49.6,39.0,30.10,West,264,3.0,-999.0,68,-99.99,,,0.00,0,weatherlink.com 1.10,2013-04-23 22:38:00,
2013-04-23 23:39:00,49.6,39.5,30.10,WNW,292,2.0,3.0,68,0.00,,,0.00,0,MyOwnSoftware,2013-04-23 22:39:00,
2013-04-23 23:40:00,49.6,39.5,30.10,SSW,202,1.0,5.0,68,0.00,,,0.00,0,MyOwnSoftware,2013-04-23 22:40:00,
2013-04-23 23:41:00,49.6,39.5,30.10,SSW,202,1.0,3.0,68,0.00,,,0.00,0,MyOwnSoftware,2013-04-23 22:41:00,
2013-04-23 23:42:00,49.6,39.5,30.10,West,270,2.0,4.0,68,0.00,,,0.00,0,MyOwnSoftware,2013-04-23 22:42:00,
2013-04-23 23:43:00,49.6,39.5,30.10,South,180,2.0,3.0,68,0.00,,,0.00,0,MyOwnSoftware,2013-04-23 22:43:00,
2013-04-23 23:44:00,49.6,39.5,30.10,SW,225,1.0,3.0,68,0.00,,,0.00,0,MyOwnSoftware,2013-04-23 22:44:00,
2013-04-23 23:45:00,49.6,39.9,30.09,NNE,22,1.0,3.0,69,0.00,,,0.00,0,MyOwnSoftware,2013-04-23 22:45:00,
2013-04-23 23:46:00,49.6,39.5,30.09,NNE,22,1.0,4.0,68,0.00,,,0.00,0,MyOwnSoftware,2013-04-23 22:46:00,
2013-04-23 23:47:00,49.6,39.5,30.10,ENE,68,2.0,5.0,68,0.00,,,0.00,0,MyOwnSoftware,2013-04-23 22:47:00,
2013-04-23 23:48:00,49.6,39.5,30.09,North,0,2.0,5.0,68,0.00,,,0.00,0,MyOwnSoftware,2013-04-23 22:48:00,
2013-04-23 23:49:00,49.6,39.9,30.09,ENE,68,1.0,2.0,69,0.00,,,0.00,0,MyOwnSoftware,2013-04-23 22:49:00,
2013-04-23 23:50:00,49.6,39.9,30.09,NW,315,2.0,3.0,69,0.00,,,0.00,0,MyOwnSoftware,2013-04-23 22:50:00,
2013-04-23 23:51:00,49.6,39.5,30.09,SSW,202,1.0,2.0,68,0.00,,,0.00,0,MyOwnSoftware,2013-04-23 22:51:00,
2013-04-23 23:52:00,49.6,39.5,30.09,South,180,2.0,6.0,68,0.00,,,0.00,0,MyOwnSoftware,2013-04-23 22:52:00,
2013-04-23 23:53:00,49.6,40.0,30.09,WSW,247,0.0,-999.0,69,-99.99,,,0.00,0,weatherlink.com 1.10,2013-04-23 22:53:00,
2013-04-23 23:54:00,49.6,39.9,30.09,WSW,248,3.0,7.0,69,0.00,,,0.00,0,MyOwnSoftware,2013-04-23 22:54:00,
2013-04-23 23:55:00,49.6,39.9,30.09,WSW,248,3.0,5.0,69,0.00,,,0.00,0,MyOwnSoftware,2013-04-23 22:55:00,
2013-04-23 23:56:00,49.6,39.9,30.09,NNW,338,1.0,3.0,69,0.00,,,0.00,0,MyOwnSoftware,2013-04-23 22:56:00,
2013-04-23 23:57:00,49.6,39.9,30.09,West,270,1.0,3.0,69,0.00,,,0.00,0,MyOwnSoftware,2013-04-23 22:57:00,
2013-04-23 23:58:00,49.6,39.9,30.09,WSW,248,1.0,3.0,69,0.00,,,0.00,0,MyOwnSoftware,2013-04-23 22:58:00,
2013-04-23 23:59:00,49.6,39.9,30.09,North,0,0.0,0.0,69,0.00,,,0.00,0,MyOwnSoftware,2013-04-23 22:59:00,